Provisional Data: Nanticoke Creek near Maine, NY


Please select a monitoring station.
Please select start date.
Please select start date.

Toggle Unit: C/F Toggle Unit: C/F
Sample Time Temperature (C) Temperature (F) Specific Conductivity (mS/cm) pH   Turbidity (NTU+) DO (mg/L)
5/4/2021 12:00:00 AM 11.97 53.546 0.111 7.09 8.55 9.76
5/4/2021 12:15:00 AM 11.93 53.474 0.111 7.12 8.54 9.77
5/4/2021 12:30:00 AM 11.89 53.402 0.111 7.13 8.37 9.78
5/4/2021 12:45:00 AM 11.85 53.33 0.111 7.12 8.51 9.78
5/4/2021 1:00:00 AM 11.81 53.258 0.112 7.11 8.66 9.79
5/4/2021 1:15:00 AM 11.77 53.186 0.112 7.11 8.83 9.8
5/4/2021 1:30:00 AM 11.73 53.114 0.112 7.11 8.85 9.81
5/4/2021 1:45:00 AM 11.69 53.042 0.112 7.1 9.24 9.81
5/4/2021 2:00:00 AM 11.65 52.97 0.112 7.12 9.11 9.82
5/4/2021 2:15:00 AM 11.62 52.916 0.112 7.12 9.27 9.83
5/4/2021 2:30:00 AM 11.58 52.844 0.112 7.12 9.39 9.84
5/4/2021 2:45:00 AM 11.54 52.772 0.112 7.11 9.6 9.85
5/4/2021 3:00:00 AM 11.5 52.7 0.112 7.12 9.64 9.85
5/4/2021 3:15:00 AM 11.47 52.646 0.112 7.11 9.64 9.87
5/4/2021 3:30:00 AM 11.43 52.574 0.112 7.11 9.68 9.89
5/4/2021 3:45:00 AM 11.39 52.502 0.112 7.1 9.69 9.88
5/4/2021 4:00:00 AM 11.35 52.43 0.112 7.11 9.86 9.9
5/4/2021 4:15:00 AM 11.31 52.358 0.112 7.11 9.75 9.91
5/4/2021 4:30:00 AM 11.28 52.304 0.113 7.11 9.52 9.92
5/4/2021 4:45:00 AM 11.24 52.232 0.113 7.11 9.57 9.93
5/4/2021 5:00:00 AM 11.21 52.178 0.112 7.11 9.45 9.94
5/4/2021 5:15:00 AM 11.18 52.124 0.113 7.1 11.04 9.95
5/4/2021 5:30:00 AM 11.15 52.07 0.113 7.1 13.59 9.95
5/4/2021 5:45:00 AM 11.13 52.034 0.113 7.13 9.99 9.96
5/4/2021 6:00:00 AM 11.1 51.98 0.113 7.12 9.14 9.97
5/4/2021 6:15:00 AM 11.08 51.944 0.113 7.12 8.93 9.97
5/4/2021 6:30:00 AM 11.06 51.908 0.113 7.12 8.81 9.99
5/4/2021 6:45:00 AM 11.04 51.872 0.113 7.11 8.65 10
5/4/2021 7:00:00 AM 11.02 51.836 0.113 7.12 8.53 10.01
5/4/2021 7:15:00 AM 11.01 51.818 0.113 7.11 8.4 10.03
5/4/2021 7:30:00 AM 10.99 51.782 0.113 7.12 8.1 10.05
5/4/2021 7:45:00 AM 10.99 51.782 0.113 7.12 7.99 10.07
5/4/2021 8:00:00 AM 10.98 51.764 0.113 7.13 8.03 10.08
5/4/2021 8:15:00 AM 10.97 51.746 0.113 7.13 7.69 10.09
5/4/2021 8:30:00 AM 10.97 51.746 0.113 7.12 7.84 10.11
5/4/2021 8:45:00 AM 10.97 51.746 0.113 7.13 7.72 10.13
5/4/2021 9:00:00 AM 10.97 51.746 0.113 7.12 7.6 10.15
5/4/2021 9:15:00 AM 10.99 51.782 0.113 7.14 7.6 10.19
5/4/2021 9:30:00 AM 11.02 51.836 0.113 7.16 7.39 10.24
5/4/2021 9:45:00 AM 11.05 51.89 0.113 7.16 7.49 10.26
5/4/2021 10:00:00 AM 11.08 51.944 0.114 7.17 7.35 10.3
5/4/2021 10:15:00 AM 11.12 52.016 0.114 7.19 8.2 10.33
5/4/2021 10:30:00 AM 11.2 52.16 0.114 7.19 6.96 10.39
5/4/2021 10:45:00 AM 11.28 52.304 0.114 7.2 6.98 10.42
5/4/2021 11:00:00 AM 11.39 52.502 0.114 7.22 6.72 10.47
5/4/2021 11:15:00 AM 11.5 52.7 0.114 7.23 6.53 10.51
5/4/2021 11:30:00 AM 11.61 52.898 0.114 7.24 6.64 10.54
5/4/2021 11:45:00 AM 11.73 53.114 0.113 6.96 6 10.61
5/4/2021 12:00:00 PM 11.84 53.312 0.113 6.98 5.92 10.63
5/4/2021 12:15:00 PM 11.99 53.582 0.113 7 5.84 10.65
5/4/2021 12:30:00 PM 12.15 53.87 0.113 6.99 5.71 10.66
5/4/2021 12:45:00 PM 12.34 54.212 0.113 7 5.79 10.67
5/4/2021 1:00:00 PM 12.42 54.356 0.113 6.99 5.73 10.65
5/4/2021 1:15:00 PM 12.53 54.554 0.113 7.02 5.68 10.65
5/4/2021 1:30:00 PM 12.73 54.914 0.113 7.03 5.65 10.66
5/4/2021 1:45:00 PM 12.87 55.166 0.113 7.04 5.58 10.65
5/4/2021 2:00:00 PM 13 55.4 0.113 7.05 5.51 10.64
5/4/2021 2:15:00 PM 13.25 55.85 0.113 7.08 5.59 10.63
5/4/2021 2:30:00 PM 13.48 56.264 0.113 7.08 5.61 10.62
5/4/2021 2:45:00 PM 13.62 56.516 0.113 7.1 5.48 10.6
5/4/2021 3:00:00 PM 13.78 56.804 0.113 7.09 5.45 10.57
5/4/2021 3:15:00 PM 13.95 57.11 0.113 7.11 5.48 10.55
5/4/2021 3:30:00 PM 14.17 57.506 0.113 7.13 5.56 10.53
5/4/2021 3:45:00 PM 14.32 57.776 0.113 7.12 5.38 10.49
5/4/2021 4:00:00 PM 14.41 57.938 0.113 7.12 5.34 10.45
5/4/2021 4:15:00 PM 14.48 58.064 0.113 7.11 5.68 10.38
5/4/2021 4:30:00 PM 14.52 58.136 0.113 7.1 5.36 10.28
5/4/2021 4:45:00 PM 14.57 58.226 0.112 7.08 5.64 10.2
5/4/2021 5:00:00 PM 14.64 58.352 0.113 7.08 5.55 10.14
5/4/2021 5:15:00 PM 14.68 58.424 0.112 7.07 5.66 10.07
5/4/2021 5:30:00 PM 14.71 58.478 0.113 7.07 5.55 10.01
5/4/2021 5:45:00 PM 14.74 58.532 0.112 7.07 5.5 9.96
5/4/2021 6:00:00 PM 14.76 58.568 0.112 7.04 5.59 9.9
5/4/2021 6:15:00 PM 14.78 58.604 0.113 7.04 5.51 9.86
5/4/2021 6:30:00 PM 14.8 58.64 0.113 7.04 5.6 9.81
5/4/2021 6:45:00 PM 14.81 58.658 0.113 7.02 5.63 9.77
5/4/2021 7:00:00 PM 14.8 58.64 0.113 7.01 6.05 9.72
5/4/2021 7:15:00 PM 14.79 58.622 0.113 7 6.93 9.68
5/4/2021 7:30:00 PM 14.77 58.586 0.113 6.99 9.27 9.62
5/4/2021 7:45:00 PM 14.74 58.532 0.113 6.98 12.89 9.56
5/4/2021 8:00:00 PM 14.71 58.478 0.113 6.97 16.91 9.51
5/4/2021 8:15:00 PM 14.68 58.424 0.113 6.96 20.82 9.46
5/4/2021 8:30:00 PM 14.66 58.388 0.113 6.95 21.2 9.42
5/4/2021 8:45:00 PM 14.63 58.334 0.114 6.94 24.44 9.39
5/4/2021 9:00:00 PM 14.6 58.28 0.114 6.93 28.76 9.37
5/4/2021 9:15:00 PM 14.58 58.244 0.114 6.92 20.82 9.34
5/4/2021 9:30:00 PM 14.56 58.208 0.114 6.93 20.44 9.33
5/4/2021 9:45:00 PM 14.53 58.154 0.114 6.91 20.93 9.32
5/4/2021 10:00:00 PM 14.51 58.118 0.114 6.91 21.35 9.31
5/4/2021 10:15:00 PM 14.49 58.082 0.114 6.91 17.08 9.29
5/4/2021 10:30:00 PM 14.46 58.028 0.114 6.91 15.23 9.28
5/4/2021 10:45:00 PM 14.42 57.956 0.114 6.89 13.68 9.27
5/4/2021 11:00:00 PM 14.38 57.884 0.114 6.89 12.63 9.26
5/4/2021 11:15:00 PM 14.33 57.794 0.114 6.88 11.21 9.26
5/4/2021 11:30:00 PM 14.29 57.722 0.114 6.87 11.1 9.26
5/4/2021 11:45:00 PM 14.24 57.632 0.114 6.87 9.99 9.26
5/5/2021 12:00:00 AM 14.2 57.56 0.114 6.86 9.92 9.27
5/5/2021 12:15:00 AM 14.16 57.488 0.114 6.87 9.36 9.27
5/5/2021 12:30:00 AM 14.12 57.416 0.114 6.86 9.42 9.28
5/5/2021 12:45:00 AM 14.08 57.344 0.115 6.86 8.8 9.28
5/5/2021 1:00:00 AM 14.04 57.272 0.115 6.86 8.57 9.29
5/5/2021 1:15:00 AM 13.99 57.182 0.115 6.86 8.4 9.29
5/5/2021 1:30:00 AM 13.94 57.092 0.115 6.87 8.45 9.3
5/5/2021 1:45:00 AM 13.89 57.002 0.115 6.86 8.36 9.31
5/5/2021 2:00:00 AM 13.84 56.912 0.115 6.86 8.47 9.33
5/5/2021 2:15:00 AM 13.78 56.804 0.115 6.85 8.39 9.34
5/5/2021 2:30:00 AM 13.73 56.714 0.115 6.86 8.43 9.35
5/5/2021 2:45:00 AM 13.68 56.624 0.114 6.85 8.47 9.37
5/5/2021 3:00:00 AM 13.63 56.534 0.114 6.85 8.47 9.38
5/5/2021 3:15:00 AM 13.58 56.444 0.113 6.84 8.79 9.4
5/5/2021 3:30:00 AM 13.53 56.354 0.113 6.84 9.06 9.42
5/5/2021 3:45:00 AM 13.47 56.246 0.112 6.84 9.3 9.44
5/5/2021 4:00:00 AM 13.41 56.138 0.111 6.84 10.7 9.45
5/5/2021 4:15:00 AM 13.35 56.03 0.111 6.84 11.67 9.48
5/5/2021 4:30:00 AM 13.29 55.922 0.111 6.84 12.13 9.49
5/5/2021 4:45:00 AM 13.22 55.796 0.112 6.84 12.43 9.52
5/5/2021 5:00:00 AM 13.14 55.652 0.113 6.83 12.63 9.53
5/5/2021 5:15:00 AM 13.07 55.526 0.113 6.83 12.73 9.55
5/5/2021 5:30:00 AM 12.99 55.382 0.114 6.83 12.68 9.57
5/5/2021 5:45:00 AM 12.92 55.256 0.114 6.82 12.84 9.59
5/5/2021 6:00:00 AM 12.87 55.166 0.113 6.84 12.66 9.6
5/5/2021 6:15:00 AM 12.81 55.058 0.113 6.82 12.32 9.63
5/5/2021 6:30:00 AM 12.77 54.986 0.113 6.82 11.94 9.64
5/5/2021 6:45:00 AM 12.73 54.914 0.112 6.82 12.41 9.65
5/5/2021 7:00:00 AM 12.69 54.842 0.112 6.83 13.1 9.67
5/5/2021 7:15:00 AM 12.66 54.788 0.111 6.83 13.86 9.69
5/5/2021 7:30:00 AM 12.63 54.734 0.111 6.83 14.23 9.7
5/5/2021 7:45:00 AM 12.6 54.68 0.11 6.83 14.25 9.71
5/5/2021 8:00:00 AM 12.58 54.644 0.11 6.83 13.64 9.73
5/5/2021 8:15:00 AM 12.58 54.644 0.11 6.84 12.89 9.77
5/5/2021 8:30:00 AM 12.58 54.644 0.11 6.85 12.49 9.79
5/5/2021 8:45:00 AM 12.57 54.626 0.11 6.86 12.04 9.82
5/5/2021 9:00:00 AM 12.55 54.59 0.11 6.84 11.47 9.83
5/5/2021 9:15:00 AM 12.54 54.572 0.111 6.85 11.31 9.84
5/5/2021 9:30:00 AM 12.53 54.554 0.111 6.86 11.05 9.86
5/5/2021 9:45:00 AM 12.53 54.554 0.111 6.86 10.86 9.87
5/5/2021 10:00:00 AM 12.52 54.536 0.111 6.87 11.01 9.88
5/5/2021 10:15:00 AM 12.52 54.536 0.111 6.87 10.93 9.91
5/5/2021 10:30:00 AM 12.53 54.554 0.111 6.89 10.97 9.94
5/5/2021 10:45:00 AM 12.53 54.554 0.112 6.9 10.6 9.95
5/5/2021 11:00:00 AM 12.53 54.554 0.112 6.9 10.32 9.98
5/5/2021 11:15:00 AM 12.53 54.554 0.112 6.91 9.95 10.01
5/5/2021 11:30:00 AM 12.52 54.536 0.113 6.91 9.54 10.04
5/5/2021 11:45:00 AM 12.51 54.518 0.113 6.92 9.41 10.04
5/5/2021 12:00:00 PM 12.49 54.482 0.113 6.92 8.86 10.05
5/5/2021 12:15:00 PM 12.48 54.464 0.114 6.92 8.57 10.07
5/5/2021 12:30:00 PM 12.48 54.464 0.113 6.93 8.43 10.1
5/5/2021 12:45:00 PM 12.47 54.446 0.114 6.94 7.92 10.11
5/5/2021 1:00:00 PM 12.47 54.446 0.114 6.94 7.89 10.14
5/5/2021 1:15:00 PM 12.47 54.446 0.114 6.95 7.79 10.17
5/5/2021 1:30:00 PM 12.46 54.428 0.114 6.95 7.69 10.19
5/5/2021 1:45:00 PM 12.45 54.41 0.114 6.96 7.44 10.2
5/5/2021 2:00:00 PM 12.45 54.41 0.114 6.96 7.59 10.23
5/5/2021 2:15:00 PM 12.45 54.41 0.114 6.97 7.59 10.26
5/5/2021 2:30:00 PM 12.44 54.392 0.114 6.98 7.3 10.27
5/5/2021 2:45:00 PM 12.44 54.392 0.114 6.98 7.37 10.3
5/5/2021 3:00:00 PM 12.45 54.41 0.114 7 7.08 10.32
5/5/2021 3:15:00 PM 12.43 54.374 0.114 7 7.03 10.32
5/5/2021 3:30:00 PM 12.43 54.374 0.114 6.99 7.18 10.33
5/5/2021 3:45:00 PM 12.41 54.338 0.114 7 6.79 10.33
5/5/2021 4:00:00 PM 12.4 54.32 0.114 7 6.98 10.35
5/5/2021 4:15:00 PM 12.4 54.32 0.114 7.01 6.83 10.35
5/5/2021 4:30:00 PM 12.39 54.302 0.114 7 6.87 10.37
5/5/2021 4:45:00 PM 12.39 54.302 0.114 7.01 6.7 10.36
5/5/2021 5:00:00 PM 12.38 54.284 0.114 7.02 6.47 10.37
5/5/2021 5:15:00 PM 12.37 54.266 0.114 7.02 6.57 10.36
5/5/2021 5:30:00 PM 12.35 54.23 0.114 7.01 6.54 10.35
5/5/2021 5:45:00 PM 12.32 54.176 0.114 7.01 6.62 10.33
5/5/2021 6:00:00 PM 12.3 54.14 0.114 7.01 6.45 10.33
5/5/2021 6:15:00 PM 12.28 54.104 0.114 7 6.61 10.33
5/5/2021 6:30:00 PM 12.25 54.05 0.114 7 6.49 10.31
5/5/2021 6:45:00 PM 12.23 54.014 0.114 7 6.71 10.3
5/5/2021 7:00:00 PM 12.19 53.942 0.114 6.99 6.56 10.28
5/5/2021 7:15:00 PM 12.15 53.87 0.114 6.99 6.75 10.26
5/5/2021 7:30:00 PM 12.11 53.798 0.114 6.97 6.63 10.25
5/5/2021 7:45:00 PM 12.06 53.708 0.114 6.97 6.51 10.22
5/5/2021 8:00:00 PM 12.01 53.618 0.114 6.96 6.66 10.21
5/5/2021 8:15:00 PM 11.96 53.528 0.114 6.95 6.63 10.19
5/5/2021 8:30:00 PM 11.9 53.42 0.113 6.94 6.98 10.17
5/5/2021 8:45:00 PM 11.85 53.33 0.113 6.93 7.02 10.15
5/5/2021 9:00:00 PM 11.8 53.24 0.113 6.93 7.03 10.14
5/5/2021 9:15:00 PM 11.74 53.132 0.113 6.93 7.27 10.13
5/5/2021 9:30:00 PM 11.69 53.042 0.113 6.92 7.52 10.12
5/5/2021 9:45:00 PM 11.64 52.952 0.113 6.91 7.39 10.11
5/5/2021 10:00:00 PM 11.6 52.88 0.113 6.91 7.48 10.1
5/5/2021 10:15:00 PM 11.55 52.79 0.113 6.9 7.55 10.1
5/5/2021 10:30:00 PM 11.5 52.7 0.113 6.9 7.63 10.1
5/5/2021 10:45:00 PM 11.45 52.61 0.114 6.89 7.5 10.1
5/5/2021 11:00:00 PM 11.4 52.52 0.114 6.9 7.66 10.1
5/5/2021 11:15:00 PM 11.34 52.412 0.114 6.88 7.98 10.11
5/5/2021 11:30:00 PM 11.29 52.322 0.114 6.88 7.74 10.11
5/5/2021 11:45:00 PM 11.24 52.232 0.114 6.87 7.54 10.11
5/6/2021 12:00:00 AM 11.19 52.142 0.114 6.88 7.64 10.12
5/6/2021 12:15:00 AM 11.13 52.034 0.114 6.88 7.94 10.12
5/6/2021 12:30:00 AM 11.08 51.944 0.114 6.87 7.73 10.13
5/6/2021 12:45:00 AM 11.02 51.836 0.115 6.87 7.73 10.14
5/6/2021 1:00:00 AM 10.97 51.746 0.115 6.87 7.51 10.15
5/6/2021 1:15:00 AM 10.92 51.656 0.115 6.86 7.69 10.16
5/6/2021 1:30:00 AM 10.87 51.566 0.115 6.87 7.54 10.17
5/6/2021 1:45:00 AM 10.82 51.476 0.115 6.87 7.43 10.18
5/6/2021 2:00:00 AM 10.77 51.386 0.115 6.86 7.62 10.19
5/6/2021 2:15:00 AM 10.73 51.314 0.116 6.87 7.58 10.2
5/6/2021 2:30:00 AM 10.68 51.224 0.116 6.87 7.43 10.21
5/6/2021 2:45:00 AM 10.63 51.134 0.116 6.86 7.46 10.22
5/6/2021 3:00:00 AM 10.58 51.044 0.116 6.86 7.3 10.23
5/6/2021 3:15:00 AM 10.53 50.954 0.116 6.87 7.67 10.24
5/6/2021 3:30:00 AM 10.49 50.882 0.116 6.86 7.2 10.25
5/6/2021 3:45:00 AM 10.44 50.792 0.116 6.87 7.39 10.27
5/6/2021 4:00:00 AM 10.4 50.72 0.116 6.87 7.37 10.28
5/6/2021 4:15:00 AM 10.36 50.648 0.116 6.86 7.23 10.28
5/6/2021 4:30:00 AM 10.31 50.558 0.116 6.86 7.15 10.31
5/6/2021 4:45:00 AM 10.27 50.486 0.116 6.86 7.14 10.32
5/6/2021 5:00:00 AM 10.23 50.414 0.116 6.86 7.17 10.32
5/6/2021 5:15:00 AM 10.18 50.324 0.116 6.86 7.15 10.33
5/6/2021 5:30:00 AM 10.13 50.234 0.116 6.85 6.95 10.34
5/6/2021 5:45:00 AM 10.09 50.162 0.116 6.86 6.77 10.36
5/6/2021 6:00:00 AM 10.04 50.072 0.116 6.85 6.74 10.38
5/6/2021 6:15:00 AM 10 50 0.116 6.85 6.75 10.39
5/6/2021 6:30:00 AM 9.95 49.91 0.116 6.86 6.51 10.41
5/6/2021 6:45:00 AM 9.91 49.838 0.116 6.85 6.58 10.43
5/6/2021 7:00:00 AM 9.87 49.766 0.116 6.86 6.41 10.47
5/6/2021 7:15:00 AM 9.84 49.712 0.117 6.87 6.26 10.5
5/6/2021 7:30:00 AM 9.82 49.676 0.116 6.88 6.3 10.55
5/6/2021 7:45:00 AM 9.79 49.622 0.116 6.87 6.32 10.59
5/6/2021 8:00:00 AM 9.77 49.586 0.116 6.88 6.11 10.64
5/6/2021 8:15:00 AM 9.76 49.568 0.116 6.89 5.91 10.68
5/6/2021 8:30:00 AM 9.75 49.55 0.116 6.9 5.77 10.73
5/6/2021 8:45:00 AM 9.76 49.568 0.116 6.9 5.73 10.77
5/6/2021 9:00:00 AM 9.76 49.568 0.116 6.91 5.78 10.81
5/6/2021 9:15:00 AM 9.77 49.586 0.116 6.92 5.56 10.86
5/6/2021 9:30:00 AM 9.85 49.73 0.116 6.94 5.48 10.91
5/6/2021 9:45:00 AM 9.9 49.82 0.116 6.95 5.41 10.96
5/6/2021 10:00:00 AM 9.97 49.946 0.116 6.97 5.45 10.98
5/6/2021 10:15:00 AM 10.12 50.216 0.116 6.98 5.15 11.03
5/6/2021 10:30:00 AM 10.28 50.504 0.116 6.98 5.1 11.05
5/6/2021 10:45:00 AM 10.45 50.81 0.116 7 5.17 11.08
5/6/2021 11:00:00 AM 10.64 51.152 0.116 7.01 5.05 11.09
5/6/2021 11:15:00 AM 10.81 51.458 0.116 7.02 4.95 11.11
5/6/2021 11:30:00 AM 11 51.8 0.116 7.04 4.98 11.11
5/6/2021 11:45:00 AM 11.18 52.124 0.116 7.05 4.91 11.11
5/6/2021 12:00:00 PM 11.39 52.502 0.116 7.07 4.83 11.11
5/6/2021 12:15:00 PM 11.6 52.88 0.116 7.08 4.86 11.11
5/6/2021 12:30:00 PM 11.79 53.222 0.116 7.09 4.69 11.09
5/6/2021 12:45:00 PM 12 53.6 0.116 7.1 4.86 11.08
5/6/2021 1:00:00 PM 12.18 53.924 0.116 7.12 4.79 11.07
5/6/2021 1:15:00 PM 12.36 54.248 0.116 7.12 4.63 11.04
5/6/2021 1:30:00 PM 12.57 54.626 0.116 7.12 4.73 11.02
5/6/2021 1:45:00 PM 12.72 54.896 0.116 7.13 4.7 10.99
5/6/2021 2:00:00 PM 12.88 55.184 0.116 7.14 4.72 10.95
5/6/2021 2:15:00 PM 13.05 55.49 0.116 7.15 4.83 10.92
5/6/2021 2:30:00 PM 13.24 55.832 0.116 7.15 4.6 10.89
5/6/2021 2:45:00 PM 13.49 56.282 0.116 7.18 4.63 10.87
5/6/2021 3:00:00 PM 13.69 56.642 0.116 7.17 4.76 10.83
5/6/2021 3:15:00 PM 13.86 56.948 0.116 7.18 4.51 10.81
5/6/2021 3:30:00 PM 14.02 57.236 0.116 7.18 4.77 10.76
5/6/2021 3:45:00 PM 14.15 57.47 0.116 7.18 4.63 10.73
5/6/2021 4:00:00 PM 14.3 57.74 0.116 7.19 4.65 10.69
5/6/2021 4:15:00 PM 14.45 58.01 0.116 7.19 4.68 10.64
5/6/2021 4:30:00 PM 14.59 58.262 0.116 7.2 4.59 10.6
5/6/2021 4:45:00 PM 14.66 58.388 0.117 7.2 4.71 10.56
5/6/2021 5:00:00 PM 14.67 58.406 0.116 7.18 4.7 10.51
5/6/2021 5:15:00 PM 14.66 58.388 0.116 7.17 4.85 10.47
5/6/2021 5:30:00 PM 14.64 58.352 0.116 7.17 4.88 10.44
5/6/2021 5:45:00 PM 14.62 58.316 0.116 7.16 4.72 10.39
5/6/2021 6:00:00 PM 14.6 58.28 0.116 7.15 4.79 10.35
5/6/2021 6:15:00 PM 14.58 58.244 0.116 7.14 4.83 10.3
5/6/2021 6:30:00 PM 14.55 58.19 0.117 7.13 4.77 10.26
5/6/2021 6:45:00 PM 14.51 58.118 0.117 7.13 4.79 10.21
5/6/2021 7:00:00 PM 14.46 58.028 0.117 7.11 4.88 10.16
5/6/2021 7:15:00 PM 14.4 57.92 0.117 7.1 4.93 10.11
5/6/2021 7:30:00 PM 14.33 57.794 0.117 7.09 4.99 10.06
5/6/2021 7:45:00 PM 14.24 57.632 0.117 7.07 4.88 10.01
5/6/2021 8:00:00 PM 14.14 57.452 0.117 7.06 4.97 9.96
5/6/2021 8:15:00 PM 14.02 57.236 0.117 7.03 5.2 9.91
5/6/2021 8:30:00 PM 13.91 57.038 0.117 7.01 5.1 9.86
5/6/2021 8:45:00 PM 13.8 56.84 0.117 7 5.23 9.81
5/6/2021 9:00:00 PM 13.68 56.624 0.117 6.99 5.09 9.79
5/6/2021 9:15:00 PM 13.57 56.426 0.117 6.99 5.27 9.76
5/6/2021 9:30:00 PM 13.45 56.21 0.118 6.96 5.42 9.74
5/6/2021 9:45:00 PM 13.32 55.976 0.117 6.95 5.39 9.72
5/6/2021 10:00:00 PM 13.19 55.742 0.117 6.93 5.5 9.71
5/6/2021 10:15:00 PM 13.06 55.508 0.117 6.92 5.56 9.71
5/6/2021 10:30:00 PM 12.94 55.292 0.118 6.91 5.83 9.7
5/6/2021 10:45:00 PM 12.8 55.04 0.118 6.92 5.68 9.7
5/6/2021 11:00:00 PM 12.66 54.788 0.118 6.9 5.72 9.7
5/6/2021 11:15:00 PM 12.53 54.554 0.118 6.89 5.83 9.72
5/6/2021 11:30:00 PM 12.39 54.302 0.118 6.89 5.8 9.74
5/6/2021 11:45:00 PM 12.26 54.068 0.118 6.89 5.8 9.75
5/7/2021 12:00:00 AM 12.13 53.834 0.118 6.88 5.89 9.76
5/7/2021 12:15:00 AM 11.99 53.582 0.118 6.87 5.76 9.78
5/7/2021 12:30:00 AM 11.86 53.348 0.118 6.87 5.74 9.81
5/7/2021 12:45:00 AM 11.73 53.114 0.118 6.87 5.75 9.83
5/7/2021 1:00:00 AM 11.6 52.88 0.118 6.86 5.85 9.85
5/7/2021 1:15:00 AM 11.46 52.628 0.119 6.86 5.91 9.89
5/7/2021 1:30:00 AM 11.33 52.394 0.119 6.86 6.35 9.91
5/7/2021 1:45:00 AM 11.2 52.16 0.119 6.85 7.01 9.94
5/7/2021 2:00:00 AM 11.07 51.926 0.119 6.85 8.94 9.97
5/7/2021 2:15:00 AM 10.94 51.692 0.119 6.85 10.84 10
5/7/2021 2:30:00 AM 10.81 51.458 0.119 6.85 13.16 10.03
5/7/2021 2:45:00 AM 10.68 51.224 0.119 6.84 14.97 10.06
5/7/2021 3:00:00 AM 10.55 50.99 0.119 6.84 16.12 10.09
5/7/2021 3:15:00 AM 10.42 50.756 0.119 6.84 18.22 10.12
5/7/2021 3:30:00 AM 10.29 50.522 0.119 6.84 18.45 10.16
5/7/2021 3:45:00 AM 10.17 50.306 0.119 6.83 18.95 10.2
5/7/2021 4:00:00 AM 10.05 50.09 0.119 6.83 21.83 10.23
5/7/2021 4:15:00 AM 9.92 49.856 0.119 6.83 19.73 10.26
5/7/2021 4:30:00 AM 9.79 49.622 0.119 6.83 20.21 10.29
5/7/2021 4:45:00 AM 9.68 49.424 0.119 6.83 20.1 10.32
5/7/2021 5:00:00 AM 9.56 49.208 0.119 6.83 18.39 10.36
5/7/2021 5:15:00 AM 9.45 49.01 0.119 6.83 18.01 10.38
5/7/2021 5:30:00 AM 9.33 48.794 0.119 6.83 16.27 10.41
5/7/2021 5:45:00 AM 9.22 48.596 0.119 6.82 14.24 10.44
5/7/2021 6:00:00 AM 9.11 48.398 0.119 6.82 13.01 10.48
5/7/2021 6:15:00 AM 9 48.2 0.119 6.82 11.35 10.52
5/7/2021 6:30:00 AM 8.91 48.038 0.119 6.83 10.36 10.56
5/7/2021 6:45:00 AM 8.82 47.876 0.119 6.83 9.29 10.6
5/7/2021 7:00:00 AM 8.74 47.732 0.119 6.84 8.39 10.66
5/7/2021 7:15:00 AM 8.66 47.588 0.119 6.84 7.83 10.71
5/7/2021 7:30:00 AM 8.59 47.462 0.12 6.83 7.39 10.77
5/7/2021 7:45:00 AM 8.54 47.372 0.119 6.85 6.98 10.83
5/7/2021 8:00:00 AM 8.51 47.318 0.12 6.85 6.71 10.89
5/7/2021 8:15:00 AM 8.48 47.264 0.119 6.86 6.26 10.96
5/7/2021 8:30:00 AM 8.48 47.264 0.12 6.88 5.98 11.02
5/7/2021 8:45:00 AM 8.48 47.264 0.12 6.88 6.05 11.07
5/7/2021 9:00:00 AM 8.51 47.318 0.12 6.9 5.79 11.13
5/7/2021 9:15:00 AM 8.56 47.408 0.12 6.91 5.63 11.19
5/7/2021 9:30:00 AM 8.63 47.534 0.12 6.93 5.47 11.24
5/7/2021 9:45:00 AM 8.72 47.696 0.119 6.94 5.26 11.28
5/7/2021 10:00:00 AM 8.84 47.912 0.119 6.95 5 11.32
5/7/2021 10:15:00 AM 8.97 48.146 0.119 6.97 4.85 11.36
5/7/2021 10:30:00 AM 9.13 48.434 0.119 6.99 4.83 11.4
5/7/2021 10:45:00 AM 9.31 48.758 0.119 7.01 4.68 11.42
5/7/2021 11:00:00 AM 9.51 49.118 0.119 7.02 4.53 11.44
5/7/2021 11:15:00 AM 9.69 49.442 0.12 7.03 4.51 11.45
5/7/2021 11:30:00 AM 9.83 49.694 0.119 7.04 4.46 11.45
5/7/2021 11:45:00 AM 9.92 49.856 0.119 7.04 4.39 11.44
5/7/2021 12:00:00 PM 10 50 0.119 7.05 4.4 11.43
5/7/2021 12:15:00 PM 10.07 50.126 0.119 7.06 4.26 11.42
5/7/2021 12:30:00 PM 10.15 50.27 0.119 7.06 4.31 11.37
5/7/2021 12:45:00 PM 10.25 50.45 0.119 7.06 4.24 11.35
5/7/2021 1:00:00 PM 10.39 50.702 0.119 7.08 4.31 11.35
5/7/2021 1:15:00 PM 10.52 50.936 0.119 7.09 4.28 11.33
5/7/2021 1:30:00 PM 10.63 51.134 0.119 7.09 4.21 11.3
5/7/2021 1:45:00 PM 10.73 51.314 0.119 7.1 4.19 11.28
5/7/2021 2:00:00 PM 10.82 51.476 0.119 7.11 4.19 11.26
5/7/2021 2:15:00 PM 10.92 51.656 0.119 7.12 4.06 11.26
5/7/2021 2:30:00 PM 11.01 51.818 0.119 7.12 4.17 11.24
5/7/2021 2:45:00 PM 11.06 51.908 0.119 7.12 4.07 11.23
5/7/2021 3:00:00 PM 11.11 51.998 0.119 7.13 3.87 11.21
5/7/2021 3:15:00 PM 11.16 52.088 0.119 7.13 4.07 11.21
5/7/2021 3:30:00 PM 11.2 52.16 0.119 7.13 3.94 11.2
5/7/2021 3:45:00 PM 11.25 52.25 0.119 7.13 3.96 11.19
5/7/2021 4:00:00 PM 11.29 52.322 0.12 7.13 3.94 11.18
5/7/2021 4:15:00 PM 11.32 52.376 0.12 7.14 3.89 11.16
5/7/2021 4:30:00 PM 11.34 52.412 0.12 7.14 3.87 11.12
5/7/2021 4:45:00 PM 11.36 52.448 0.119 7.13 3.89 11.1
5/7/2021 5:00:00 PM 11.38 52.484 0.119 7.13 3.9 11.08
5/7/2021 5:15:00 PM 11.4 52.52 0.119 7.13 3.95 11.06
5/7/2021 5:30:00 PM 11.41 52.538 0.119 7.12 3.93 11.03
5/7/2021 5:45:00 PM 11.43 52.574 0.12 7.12 3.86 11
5/7/2021 6:00:00 PM 11.45 52.61 0.119 7.12 3.86 10.96
5/7/2021 6:15:00 PM 11.47 52.646 0.12 7.11 3.96 10.93
5/7/2021 6:30:00 PM 11.49 52.682 0.12 7.1 3.81 10.89
5/7/2021 6:45:00 PM 11.5 52.7 0.12 7.11 3.81 10.84
5/7/2021 7:00:00 PM 11.51 52.718 0.12 7.09 3.87 10.78
5/7/2021 7:15:00 PM 11.51 52.718 0.12 7.08 4.03 10.72
5/7/2021 7:30:00 PM 11.5 52.7 0.12 7.06 4.43 10.65
5/7/2021 7:45:00 PM 11.48 52.664 0.12 7.05 4.71 10.59
5/7/2021 8:00:00 PM 11.47 52.646 0.12 7.04 4.65 10.53
5/7/2021 8:15:00 PM 11.45 52.61 0.12 7.02 4.33 10.47
5/7/2021 8:30:00 PM 11.43 52.574 0.12 7.01 4.31 10.41
5/7/2021 8:45:00 PM 11.41 52.538 0.12 7 4.37 10.37
5/7/2021 9:00:00 PM 11.38 52.484 0.12 6.99 4.39 10.32
5/7/2021 9:15:00 PM 11.36 52.448 0.12 6.98 4.44 10.29
5/7/2021 9:30:00 PM 11.34 52.412 0.12 6.96 4.31 10.25
5/7/2021 9:45:00 PM 11.31 52.358 0.12 6.96 4.43 10.22
5/7/2021 10:00:00 PM 11.29 52.322 0.12 6.96 4.37 10.19
5/7/2021 10:15:00 PM 11.26 52.268 0.12 6.94 4.59 10.16
5/7/2021 10:30:00 PM 11.23 52.214 0.12 6.94 4.74 10.15
5/7/2021 10:45:00 PM 11.19 52.142 0.12 6.93 4.73 10.13
5/7/2021 11:00:00 PM 11.16 52.088 0.12 6.92 4.82 10.11
5/7/2021 11:15:00 PM 11.12 52.016 0.12 6.92 4.79 10.1
5/7/2021 11:30:00 PM 11.08 51.944 0.12 6.91 4.83 10.09
5/7/2021 11:45:00 PM 11.04 51.872 0.12 6.91 5 10.09
5/8/2021 12:00:00 AM 10.99 51.782 0.12 6.9 5.13 10.08
5/8/2021 12:15:00 AM 10.95 51.71 0.12 6.9 5.13 10.09
5/8/2021 12:30:00 AM 10.9 51.62 0.12 6.89 5.26 10.09
5/8/2021 12:45:00 AM 10.85 51.53 0.12 6.89 5.25 10.1
5/8/2021 1:00:00 AM 10.79 51.422 0.12 6.88 5.45 10.11
5/8/2021 1:15:00 AM 10.74 51.332 0.12 6.88 5.43 10.12
5/8/2021 1:30:00 AM 10.68 51.224 0.12 6.87 5.5 10.13
5/8/2021 1:45:00 AM 10.63 51.134 0.12 6.88 5.57 10.14
5/8/2021 2:00:00 AM 10.57 51.026 0.12 6.87 5.74 10.15
5/8/2021 2:15:00 AM 10.51 50.918 0.12 6.86 5.83 10.16
5/8/2021 2:30:00 AM 10.45 50.81 0.12 6.86 6.05 10.18
5/8/2021 2:45:00 AM 10.39 50.702 0.12 6.87 6.21 10.19
5/8/2021 3:00:00 AM 10.32 50.576 0.12 6.86 6.76 10.22
5/8/2021 3:15:00 AM 10.26 50.468 0.12 6.86 6.72 10.23
5/8/2021 3:30:00 AM 10.19 50.342 0.12 6.85 6.8 10.25
5/8/2021 3:45:00 AM 10.13 50.234 0.12 6.85 7.12 10.28
5/8/2021 4:00:00 AM 10.06 50.108 0.12 6.85 7.47 10.3
5/8/2021 4:15:00 AM 9.99 49.982 0.12 6.85 7.67 10.33
5/8/2021 4:30:00 AM 9.92 49.856 0.119 6.84 8.16 10.35
5/8/2021 4:45:00 AM 9.85 49.73 0.119 6.84 8.67 10.36
5/8/2021 5:00:00 AM 9.78 49.604 0.119 6.84 8.69 10.38
5/8/2021 5:15:00 AM 9.71 49.478 0.118 6.83 9.31 10.41
5/8/2021 5:30:00 AM 9.64 49.352 0.118 6.84 9.58 10.44
5/8/2021 5:45:00 AM 9.57 49.226 0.117 6.84 9.87 10.47
5/8/2021 6:00:00 AM 9.5 49.1 0.117 6.84 10.49 10.49
5/8/2021 6:15:00 AM 9.44 48.992 0.116 6.84 11.25 10.53
5/8/2021 6:30:00 AM 9.37 48.866 0.116 6.84 12.3 10.55
5/8/2021 6:45:00 AM 9.29 48.722 0.115 6.84 13.96 10.59
5/8/2021 7:00:00 AM 9.22 48.596 0.115 6.85 12.07 10.62
5/8/2021 7:15:00 AM 9.15 48.47 0.114 6.86 23.13 10.66
5/8/2021 7:30:00 AM 9.08 48.344 0.113 6.85 20.8 10.7
5/8/2021 7:45:00 AM 9.01 48.218 0.112 6.85 26.41 10.74
5/8/2021 8:00:00 AM 8.96 48.128 0.11 6.85 29.92 10.78
5/8/2021 8:15:00 AM 8.91 48.038 0.109 6.84 35.48 10.82
5/8/2021 8:30:00 AM 8.87 47.966 0.108 6.84 57.43 10.86
5/8/2021 8:45:00 AM 8.84 47.912 0.108 6.83 48.79 10.9
5/8/2021 9:00:00 AM 8.82 47.876 0.107 6.85 56.67 10.93
5/8/2021 9:15:00 AM 8.81 47.858 0.107 6.86 40.38 10.97
5/8/2021 9:30:00 AM 8.81 47.858 0.106 6.86 41.06 10.99
5/8/2021 9:45:00 AM 8.83 47.894 0.105 6.88 44.67 11.01
5/8/2021 10:00:00 AM 8.83 47.894 0.104 6.86 48.48 11.02
5/8/2021 10:15:00 AM 8.85 47.93 0.103 6.88 40.01 11.04
5/8/2021 10:30:00 AM 8.89 48.002 0.103 6.88 35.58 11.05
5/8/2021 10:45:00 AM 8.93 48.074 0.102 6.89 37.18 11.06
5/8/2021 11:00:00 AM 8.97 48.146 0.101 6.89 40.03 11.06
5/8/2021 11:15:00 AM 9.01 48.218 0.101 6.89 32.98 11.07
5/8/2021 11:30:00 AM 9.05 48.29 0.101 6.9 34.69 11.07
5/8/2021 11:45:00 AM 9.09 48.362 0.101 6.9 34.42 11.07
5/8/2021 12:00:00 PM 9.15 48.47 0.101 6.9 32.51 11.06
5/8/2021 12:15:00 PM 9.15 48.47 0.101 6.9 31.02 11.05
5/8/2021 12:30:00 PM 9.18 48.524 0.101 6.9 33.85 11.04
5/8/2021 12:45:00 PM 9.25 48.65 0.101 6.91 29.49 11.04
5/8/2021 1:00:00 PM 9.3 48.74 0.101 6.9 29.18 11.03
5/8/2021 1:15:00 PM 9.35 48.83 0.101 6.91 30 11.02
5/8/2021 1:30:00 PM 9.45 49.01 0.101 6.92 28.67 11.02
5/8/2021 1:45:00 PM 9.51 49.118 0.102 6.92 26.36 11.01
5/8/2021 2:00:00 PM 9.55 49.19 0.102 6.92 25.16 11.01
5/8/2021 2:15:00 PM 9.6 49.28 0.102 6.92 23.97 11.01
5/8/2021 2:30:00 PM 9.65 49.37 0.102 6.93 22.58 11.01
5/8/2021 2:45:00 PM 9.7 49.46 0.102 6.93 20.44 11
5/8/2021 3:00:00 PM 9.73 49.514 0.102 6.94 19.98 10.99
5/8/2021 3:15:00 PM 9.78 49.604 0.103 6.94 18.1 10.99
5/8/2021 3:30:00 PM 9.82 49.676 0.103 6.94 15.92 10.99
5/8/2021 3:45:00 PM 9.83 49.694 0.103 6.94 17.11 10.98
5/8/2021 4:00:00 PM 9.83 49.694 0.103 6.94 15.7 10.96
5/8/2021 4:15:00 PM 9.86 49.748 0.103 6.93 15.19 10.96
5/8/2021 4:30:00 PM 9.89 49.802 0.103 6.93 14.6 10.95
5/8/2021 4:45:00 PM 9.93 49.874 0.103 6.95 13.93 10.96
5/8/2021 5:00:00 PM 9.99 49.982 0.103 6.94 14.22 10.97
5/8/2021 5:15:00 PM 9.99 49.982 0.103 6.94 13.45 10.94
5/8/2021 5:30:00 PM 10.02 50.036 0.103 6.93 12.57 10.94
5/8/2021 5:45:00 PM 10.06 50.108 0.103 6.94 12.46 10.93
5/8/2021 6:00:00 PM 10.11 50.198 0.103 6.95 12.55 10.93
5/8/2021 6:15:00 PM 10.14 50.252 0.103 6.94 12.24 10.91
5/8/2021 6:30:00 PM 10.17 50.306 0.103 6.94 11.76 10.9
5/8/2021 6:45:00 PM 10.19 50.342 0.103 6.94 10.79 10.88
5/8/2021 7:00:00 PM 10.2 50.36 0.103 6.94 10.83 10.88
5/8/2021 7:15:00 PM 10.21 50.378 0.103 6.93 10.89 10.86
5/8/2021 7:30:00 PM 10.21 50.378 0.103 6.93 10.32 10.85
5/8/2021 7:45:00 PM 10.19 50.342 0.103 6.92 10.4 10.83
5/8/2021 8:00:00 PM 10.18 50.324 0.103 6.9 10.01 10.79
5/8/2021 8:15:00 PM 10.16 50.288 0.103 6.9 10.1 10.77
5/8/2021 8:30:00 PM 10.14 50.252 0.103 6.89 10.18 10.73
5/8/2021 8:45:00 PM 10.11 50.198 0.103 6.88 9.9 10.71
5/8/2021 9:00:00 PM 10.08 50.144 0.104 6.86 9.72 10.68
5/8/2021 9:15:00 PM 10.04 50.072 0.104 6.86 9.83 10.67
5/8/2021 9:30:00 PM 9.99 49.982 0.104 6.85 9.6 10.64
5/8/2021 9:45:00 PM 9.93 49.874 0.104 6.84 9.77 10.63
5/8/2021 10:00:00 PM 9.87 49.766 0.104 6.83 9.4 10.62
5/8/2021 10:15:00 PM 9.82 49.676 0.104 6.83 9.22 10.61
5/8/2021 10:30:00 PM 9.77 49.586 0.104 6.82 9.29 10.6
5/8/2021 10:45:00 PM 9.71 49.478 0.105 6.82 9.29 10.6
5/8/2021 11:00:00 PM 9.65 49.37 0.105 6.81 9.26 10.61
5/8/2021 11:15:00 PM 9.58 49.244 0.105 6.81 9.11 10.61
5/8/2021 11:30:00 PM 9.52 49.136 0.105 6.8 9.04 10.62
5/8/2021 11:45:00 PM 9.45 49.01 0.105 6.8 9.22 10.62
5/9/2021 12:00:00 AM 9.39 48.902 0.105 6.8 8.89 10.63
5/9/2021 12:15:00 AM 9.34 48.812 0.105 6.79 9.01 10.64
5/9/2021 12:30:00 AM 9.27 48.686 0.106 6.78 8.79 10.64
5/9/2021 12:45:00 AM 9.21 48.578 0.106 6.78 8.76 10.66
5/9/2021 1:00:00 AM 9.15 48.47 0.106 6.78 8.46 10.67
5/9/2021 1:15:00 AM 9.1 48.38 0.106 6.78 8.57 10.68
5/9/2021 1:30:00 AM 9.04 48.272 0.106 6.79 8.74 10.69
5/9/2021 1:45:00 AM 8.98 48.164 0.106 6.78 8.41 10.7
5/9/2021 2:00:00 AM 8.92 48.056 0.106 6.78 8.34 10.71
5/9/2021 2:15:00 AM 8.86 47.948 0.107 6.77 8.24 10.73
5/9/2021 2:30:00 AM 8.8 47.84 0.107 6.77 8.18 10.75
5/9/2021 2:45:00 AM 8.74 47.732 0.107 6.77 8.08 10.75
5/9/2021 3:00:00 AM 8.67 47.606 0.107 6.77 8.03 10.77
5/9/2021 3:15:00 AM 8.61 47.498 0.107 6.77 8.01 10.79
5/9/2021 3:30:00 AM 8.55 47.39 0.107 6.77 7.93 10.8
5/9/2021 3:45:00 AM 8.5 47.3 0.108 6.77 7.96 10.81
5/9/2021 4:00:00 AM 8.46 47.228 0.108 6.76 7.78 10.83
5/9/2021 4:15:00 AM 8.41 47.138 0.108 6.77 7.94 10.84
5/9/2021 4:30:00 AM 8.37 47.066 0.108 6.76 7.93 10.85
5/9/2021 4:45:00 AM 8.32 46.976 0.108 6.76 7.74 10.87
5/9/2021 5:00:00 AM 8.26 46.868 0.108 6.76 7.72 10.88
5/9/2021 5:15:00 AM 8.21 46.778 0.108 6.77 7.51 10.89
5/9/2021 5:30:00 AM 8.17 46.706 0.108 6.76 7.44 10.91
5/9/2021 5:45:00 AM 8.12 46.616 0.108 6.76 7.35 10.92
5/9/2021 6:00:00 AM 8.07 46.526 0.108 6.76 7.45 10.94
5/9/2021 6:15:00 AM 8.03 46.454 0.108 6.76 7.3 10.96
5/9/2021 6:30:00 AM 7.99 46.382 0.108 6.77 7.4 10.98
5/9/2021 6:45:00 AM 7.95 46.31 0.108 6.76 7.25 11.02
5/9/2021 7:00:00 AM 7.92 46.256 0.108 6.76 7.17 11.05
5/9/2021 7:15:00 AM 7.89 46.202 0.108 6.77 7.08 11.08
5/9/2021 7:30:00 AM 7.88 46.184 0.108 6.79 6.9 11.13
5/9/2021 7:45:00 AM 7.87 46.166 0.109 6.79 6.69 11.17
5/9/2021 8:00:00 AM 7.88 46.184 0.109 6.79 6.73 11.22
5/9/2021 8:15:00 AM 7.89 46.202 0.109 6.8 6.65 11.27
5/9/2021 8:30:00 AM 7.91 46.238 0.109 6.81 6.38 11.31
5/9/2021 8:45:00 AM 7.95 46.31 0.109 6.83 6.35 11.36
5/9/2021 9:00:00 AM 8 46.4 0.109 6.84 6.23 11.4
5/9/2021 9:15:00 AM 8.06 46.508 0.109 6.85 6.1 11.45
5/9/2021 9:30:00 AM 8.14 46.652 0.109 6.86 6.03 11.49
5/9/2021 9:45:00 AM 8.25 46.85 0.109 6.87 6.01 11.52
5/9/2021 10:00:00 AM 8.34 47.012 0.109 6.88 6 11.55
5/9/2021 10:15:00 AM 8.46 47.228 0.109 6.9 5.86 11.57
5/9/2021 10:30:00 AM 8.58 47.444 0.109 6.91 5.72 11.59
5/9/2021 10:45:00 AM 8.69 47.642 0.109 6.92 5.66 11.61
5/9/2021 11:00:00 AM 8.8 47.84 0.109 6.93 5.73 11.62
5/9/2021 11:15:00 AM 8.92 48.056 0.109 6.94 5.62 11.62
5/9/2021 11:30:00 AM 9.03 48.254 0.109 6.95 5.59 11.62
5/9/2021 11:45:00 AM 9.14 48.452 0.109 6.96 5.7 11.61
5/9/2021 12:00:00 PM 9.26 48.668 0.109 6.96 5.48 11.6
5/9/2021 12:15:00 PM 9.4 48.92 0.109 6.98 5.61 11.59
5/9/2021 12:30:00 PM 9.55 49.19 0.109 6.99 5.46 11.59
5/9/2021 12:45:00 PM 9.67 49.406 0.109 7 5.44 11.58
5/9/2021 1:00:00 PM 9.76 49.568 0.109 7 5.36 11.56
5/9/2021 1:15:00 PM 9.86 49.748 0.109 7.01 5.41 11.54
5/9/2021 1:30:00 PM 9.95 49.91 0.109 7.01 5.48 11.52
5/9/2021 1:45:00 PM 10.04 50.072 0.109 7.02 5.34 11.52
5/9/2021 2:00:00 PM 10.11 50.198 0.11 7.02 5.34 11.48
5/9/2021 2:15:00 PM 10.16 50.288 0.11 7.02 5.34 11.45
5/9/2021 2:30:00 PM 10.2 50.36 0.11 7.03 5.33 11.43
5/9/2021 2:45:00 PM 10.24 50.432 0.11 7.02 5.25 11.37
5/9/2021 3:00:00 PM 10.27 50.486 0.11 7.02 5.37 11.35
5/9/2021 3:15:00 PM 10.31 50.558 0.11 7.02 5.35 11.32
5/9/2021 3:30:00 PM 10.33 50.594 0.11 7.01 5.36 11.28
5/9/2021 3:45:00 PM 10.35 50.63 0.11 7.01 5.4 11.25
5/9/2021 4:00:00 PM 10.36 50.648 0.11 7.01 5.37 11.2
5/9/2021 4:15:00 PM 10.37 50.666 0.11 7 5.33 11.17
5/9/2021 4:30:00 PM 10.36 50.648 0.11 7 5.29 11.14
5/9/2021 4:45:00 PM 10.35 50.63 0.11 6.99 5.19 11.1
5/9/2021 5:00:00 PM 10.33 50.594 0.11 6.98 5.26 11.07
5/9/2021 5:15:00 PM 10.31 50.558 0.11 6.97 5.44 11.03
5/9/2021 5:30:00 PM 10.29 50.522 0.11 6.97 5.39 11.01
5/9/2021 5:45:00 PM 10.27 50.486 0.11 6.96 5.49 10.97
5/9/2021 6:00:00 PM 10.25 50.45 0.11 6.95 5.3 10.94
5/9/2021 6:15:00 PM 10.22 50.396 0.11 6.94 5.47 10.91
5/9/2021 6:30:00 PM 10.2 50.36 0.11 6.94 5.46 10.87
5/9/2021 6:45:00 PM 10.17 50.306 0.11 6.93 5.48 10.85
5/9/2021 7:00:00 PM 10.14 50.252 0.11 6.92 5.49 10.82
5/9/2021 7:15:00 PM 10.1 50.18 0.11 6.91 5.58 10.79
5/9/2021 7:30:00 PM 10.06 50.108 0.11 6.9 5.66 10.76
5/9/2021 7:45:00 PM 10.01 50.018 0.11 6.9 5.87 10.73
5/9/2021 8:00:00 PM 9.96 49.928 0.11 6.88 6.4 10.72
5/9/2021 8:15:00 PM 9.91 49.838 0.11 6.88 6.59 10.69
5/9/2021 8:30:00 PM 9.85 49.73 0.11 6.87 7.08 10.68
5/9/2021 8:45:00 PM 9.79 49.622 0.11 6.87 7.68 10.67
5/9/2021 9:00:00 PM 9.73 49.514 0.109 6.86 8.22 10.67
5/9/2021 9:15:00 PM 9.67 49.406 0.109 6.85 8.82 10.67
5/9/2021 9:30:00 PM 9.59 49.262 0.109 6.85 9.47 10.68
5/9/2021 9:45:00 PM 9.52 49.136 0.109 6.84 10.46 10.68
5/9/2021 10:00:00 PM 9.43 48.974 0.108 6.84 11.83 10.7
5/9/2021 10:15:00 PM 9.35 48.83 0.108 6.84 13.16 10.72
5/9/2021 10:30:00 PM 9.26 48.668 0.107 6.83 14.73 10.74
5/9/2021 10:45:00 PM 9.17 48.506 0.106 6.83 15.34 10.77
5/9/2021 11:00:00 PM 9.08 48.344 0.105 6.82 14.98 10.8
5/9/2021 11:15:00 PM 8.98 48.164 0.104 6.81 20.01 10.83
5/9/2021 11:30:00 PM 8.9 48.02 0.103 6.81 20.69 10.86
5/9/2021 11:45:00 PM 8.82 47.876 0.102 6.8 20.31 10.87
5/10/2021 12:00:00 AM 8.74 47.732 0.101 6.79 24.29 10.9
5/10/2021 12:15:00 AM 8.66 47.588 0.099 6.78 25.71 10.92
5/10/2021 12:30:00 AM 8.6 47.48 0.098 6.78 28.28 10.94
5/10/2021 12:45:00 AM 8.54 47.372 0.097 6.78 31.49 10.96
5/10/2021 1:00:00 AM 8.49 47.282 0.096 6.77 28.18 10.98
5/10/2021 1:15:00 AM 8.44 47.192 0.094 6.76 37.07 11
5/10/2021 1:30:00 AM 8.39 47.102 0.093 6.76 41.89 11.01
5/10/2021 1:45:00 AM 8.36 47.048 0.092 6.75 48.84 11.02
5/10/2021 2:00:00 AM 8.32 46.976 0.091 6.75 45.9 11.03
5/10/2021 2:15:00 AM 8.29 46.922 0.09 6.79 54.8 11.05
5/10/2021 2:30:00 AM 8.26 46.868 0.089 6.78 53.34 11.06
5/10/2021 2:45:00 AM 8.23 46.814 0.089 6.84 52.42 11.07
5/10/2021 3:00:00 AM 8.21 46.778 0.088 6.76 58.65 11.07
5/10/2021 3:15:00 AM 8.18 46.724 0.087 6.81 57.83 11.08
5/10/2021 3:30:00 AM 8.16 46.688 0.086 6.78 69.8 11.08
5/10/2021 3:45:00 AM 8.14 46.652 0.086 6.73 63.04 11.08
5/10/2021 4:00:00 AM 8.13 46.634 0.085 6.74 51.19 11.09
5/10/2021 4:15:00 AM 8.11 46.598 0.085 6.73 60.95 11.09
5/10/2021 4:30:00 AM 8.1 46.58 0.085 6.73 47.58 11.09
5/10/2021 4:45:00 AM 8.09 46.562 0.085 6.72 57.59 11.09
5/10/2021 5:00:00 AM 8.08 46.544 0.085 6.72 51.03 11.09
5/10/2021 5:15:00 AM 8.07 46.526 0.085 6.72 72.53 11.08
5/10/2021 5:30:00 AM 8.06 46.508 0.085 6.71 51.94 11.08
5/10/2021 5:45:00 AM 8.05 46.49 0.085 6.71 49.23 11.07
5/10/2021 6:00:00 AM 8.05 46.49 0.086 6.71 44.08 11.07
5/10/2021 6:15:00 AM 8.04 46.472 0.086 6.71 41.97 11.07
5/10/2021 6:30:00 AM 8.03 46.454 0.086 6.71 41.14 11.07
5/10/2021 6:45:00 AM 8.03 46.454 0.073 6.72 46.71 11.07
5/10/2021 7:00:00 AM 8.03 46.454 0.06 6.72 39.96 11.07
5/10/2021 7:15:00 AM 8.04 46.472 0.048 6.72 36.43 11.07
5/10/2021 7:30:00 AM 8.04 46.472 0.042 6.72 29.91 11.07
5/10/2021 7:45:00 AM 8.05 46.49 0.037 6.72 29.86 11.08
5/10/2021 8:00:00 AM 8.06 46.508 0.03 6.72 29.89 11.08
5/10/2021 8:15:00 AM 8.08 46.544 0.024 6.71 27.94 11.09
5/10/2021 8:30:00 AM 8.09 46.562 0.088 6.71 26.52 11.09
5/10/2021 8:45:00 AM 8.12 46.616 0.088 6.72 25.14 11.1
5/10/2021 9:00:00 AM 8.15 46.67 0.088 6.72 23.5 11.11
5/10/2021 9:15:00 AM 8.18 46.724 0.089 6.72 22.63 11.12
5/10/2021 9:30:00 AM 8.21 46.778 0.089 6.73 21.39 11.13
5/10/2021 9:45:00 AM 8.24 46.832 0.089 6.73 18.24 11.14
5/10/2021 10:00:00 AM 8.27 46.886 0.089 6.74 19.95 11.15
5/10/2021 10:15:00 AM 8.31 46.958 0.09 6.74 18.45 11.16
5/10/2021 10:30:00 AM 8.35 47.03 0.09 6.74 17.92 11.17
5/10/2021 10:45:00 AM 8.42 47.156 0.09 6.75 17.31 11.19
5/10/2021 11:00:00 AM 8.48 47.264 0.09 6.76 16.25 11.2
5/10/2021 11:15:00 AM 8.53 47.354 0.091 6.76 15.39 11.21
5/10/2021 11:30:00 AM 8.58 47.444 0.091 6.77 15.37 11.21
5/10/2021 11:45:00 AM 8.63 47.534 0.091 6.77 14.57 11.23
5/10/2021 12:00:00 PM 8.68 47.624 0.091 6.78 14.14 11.23
5/10/2021 12:15:00 PM 8.72 47.696 0.092 6.78 13.81 11.23
5/10/2021 12:30:00 PM 8.77 47.786 0.092 6.78 13.31 11.23
5/10/2021 12:45:00 PM 8.85 47.93 0.092 6.79 12.91 11.25
5/10/2021 1:00:00 PM 8.94 48.092 0.092 6.8 12.45 11.26
5/10/2021 1:15:00 PM 9.03 48.254 0.092 6.81 12.48 11.26
5/10/2021 1:30:00 PM 9.08 48.344 0.093 6.81 12.12 11.26
5/10/2021 1:45:00 PM 9.15 48.47 0.093 6.82 11.82 11.26
5/10/2021 2:00:00 PM 9.22 48.596 0.093 6.82 11.36 11.24
5/10/2021 2:15:00 PM 9.3 48.74 0.093 6.83 11.1 11.25
5/10/2021 2:30:00 PM 9.42 48.956 0.093 6.84 11.08 11.23
5/10/2021 2:45:00 PM 9.62 49.316 0.093 6.86 11.1 11.23
5/10/2021 3:00:00 PM 9.72 49.496 0.094 6.86 10.72 11.22
5/10/2021 3:15:00 PM 9.79 49.622 0.094 6.87 11.99 11.21
5/10/2021 3:30:00 PM 9.88 49.784 0.094 6.87 10.23 11.21
5/10/2021 3:45:00 PM 10.01 50.018 0.094 6.87 10.18 11.2
5/10/2021 4:00:00 PM 10.08 50.144 0.094 6.87 10.02 11.17
5/10/2021 4:15:00 PM 10.15 50.27 0.094 6.88 10.14 11.16
5/10/2021 4:30:00 PM 10.23 50.414 0.094 6.88 10.25 11.11
5/10/2021 4:45:00 PM 10.33 50.594 0.094 6.88 10.08 11.08
5/10/2021 5:00:00 PM 10.4 50.72 0.094 6.88 9.93 11.06
5/10/2021 5:15:00 PM 10.45 50.81 0.094 6.88 9.98 11.03
5/10/2021 5:30:00 PM 10.51 50.918 0.094 6.88 10.08 11
5/10/2021 5:45:00 PM 10.57 51.026 0.095 6.88 10.23 10.98
5/10/2021 6:00:00 PM 10.63 51.134 0.095 6.88 10.73 10.95
5/10/2021 6:15:00 PM 10.66 51.188 0.095 6.89 10.75 10.93
5/10/2021 6:30:00 PM 10.66 51.188 0.095 6.87 11.36 10.9
5/10/2021 6:45:00 PM 10.66 51.188 0.095 6.86 13.12 10.88
5/10/2021 7:00:00 PM 10.66 51.188 0.095 6.86 10.68 10.85
5/10/2021 7:15:00 PM 10.66 51.188 0.095 6.85 10.85 10.81
5/10/2021 7:30:00 PM 10.65 51.17 0.096 6.84 10.89 10.77
5/10/2021 7:45:00 PM 10.63 51.134 0.096 6.84 11.34 10.74
5/10/2021 8:00:00 PM 10.61 51.098 0.096 6.83 11.44 10.71
5/10/2021 8:15:00 PM 10.58 51.044 0.096 6.82 11.66 10.67
5/10/2021 8:30:00 PM 10.54 50.972 0.096 6.81 10.86 10.64
5/10/2021 8:45:00 PM 10.49 50.882 0.096 6.8 11.17 10.61
5/10/2021 9:00:00 PM 10.43 50.774 0.097 6.79 11.25 10.59
5/10/2021 9:15:00 PM 10.36 50.648 0.097 6.78 11.2 10.58
5/10/2021 9:30:00 PM 10.28 50.504 0.097 6.77 11.79 10.56
5/10/2021 9:45:00 PM 10.21 50.378 0.097 6.76 11.18 10.56
5/10/2021 10:00:00 PM 10.13 50.234 0.097 6.76 11.5 10.54
5/10/2021 10:15:00 PM 10.05 50.09 0.097 6.75 11.08 10.54
5/10/2021 10:30:00 PM 9.97 49.946 0.097 6.74 11.53 10.54
5/10/2021 10:45:00 PM 9.89 49.802 0.097 6.73 11.74 10.56
5/10/2021 11:00:00 PM 9.8 49.64 0.097 6.73 11.81 10.56
5/10/2021 11:15:00 PM 9.71 49.478 0.097 6.72 12.52 10.57
5/10/2021 11:30:00 PM 9.62 49.316 0.097 6.71 12.75 10.59
5/10/2021 11:45:00 PM 9.53 49.154 0.097 6.71 13.26 10.6
5/11/2021 12:00:00 AM 9.44 48.992 0.097 6.71 12.84 10.61
5/11/2021 12:15:00 AM 9.35 48.83 0.097 6.7 13.16 10.63
5/11/2021 12:30:00 AM 9.26 48.668 0.098 6.69 12.87 10.65
5/11/2021 12:45:00 AM 9.18 48.524 0.098 6.69 13.8 10.66
5/11/2021 1:00:00 AM 9.09 48.362 0.098 6.69 14.03 10.68
5/11/2021 1:15:00 AM 9.02 48.236 0.098 6.68 14.34 10.7
5/11/2021 1:30:00 AM 8.94 48.092 0.098 6.69 14.19 10.72
5/11/2021 1:45:00 AM 8.86 47.948 0.098 6.68 13.61 10.74
5/11/2021 2:00:00 AM 8.79 47.822 0.098 6.69 13.28 10.75
5/11/2021 2:15:00 AM 8.72 47.696 0.099 6.69 12.71 10.77
5/11/2021 2:30:00 AM 8.65 47.57 0.099 6.69 12.29 10.79
5/11/2021 2:45:00 AM 8.59 47.462 0.099 6.68 11.96 10.81
5/11/2021 3:00:00 AM 8.52 47.336 0.098 6.68 11.71 10.83
5/11/2021 3:15:00 AM 8.45 47.21 0.099 6.68 11.27 10.85
5/11/2021 3:30:00 AM 8.39 47.102 0.099 6.68 10.93 10.87
5/11/2021 3:45:00 AM 8.33 46.994 0.099 6.68 10.73 10.88
5/11/2021 4:00:00 AM 8.26 46.868 0.099 6.68 10.4 10.9
5/11/2021 4:15:00 AM 8.19 46.742 0.099 6.67 10.53 10.92
5/11/2021 4:30:00 AM 8.13 46.634 0.098 6.67 10.45 10.94
5/11/2021 4:45:00 AM 8.06 46.508 0.098 6.67 10.15 10.96
5/11/2021 5:00:00 AM 7.99 46.382 0.099 6.67 9.85 10.97
5/11/2021 5:15:00 AM 7.93 46.274 0.099 6.67 9.99 10.99
5/11/2021 5:30:00 AM 7.85 46.13 0.098 6.67 9.49 11.01
5/11/2021 5:45:00 AM 7.8 46.04 0.099 6.67 9.6 11.03
5/11/2021 6:00:00 AM 7.74 45.932 0.099 6.67 9.32 11.05
5/11/2021 6:15:00 AM 7.68 45.824 0.099 6.68 9.21 11.06
5/11/2021 6:30:00 AM 7.62 45.716 0.099 6.68 9.12 11.08
5/11/2021 6:45:00 AM 7.57 45.626 0.099 6.68 8.75 11.12
5/11/2021 7:00:00 AM 7.54 45.572 0.099 6.68 8.75 11.15
5/11/2021 7:15:00 AM 7.5 45.5 0.099 6.69 8.88 11.18
5/11/2021 7:30:00 AM 7.47 45.446 0.099 6.7 8.6 11.21
5/11/2021 7:45:00 AM 7.45 45.41 0.099 6.7 8.61 11.25
5/11/2021 8:00:00 AM 7.44 45.392 0.1 6.71 8.21 11.29
5/11/2021 8:15:00 AM 7.44 45.392 0.1 6.71 7.99 11.33
5/11/2021 8:30:00 AM 7.46 45.428 0.1 6.73 7.71 11.35
5/11/2021 8:45:00 AM 7.48 45.464 0.1 6.73 7.66 11.41
5/11/2021 9:00:00 AM 7.53 45.554 0.1 6.75 7.51 11.44
5/11/2021 9:15:00 AM 7.6 45.68 0.1 6.76 7.29 11.48
5/11/2021 9:30:00 AM 7.69 45.842 0.1 6.77 7.22 11.51
5/11/2021 9:45:00 AM 7.79 46.022 0.1 6.78 7.19 11.54
5/11/2021 10:00:00 AM 7.91 46.238 0.1 6.79 7.15 11.56
5/11/2021 10:15:00 AM 8.05 46.49 0.1 6.81 6.9 11.57
5/11/2021 10:30:00 AM 8.21 46.778 0.1 6.83 7 11.58
5/11/2021 10:45:00 AM 8.39 47.102 0.1 6.84 7.09 11.59
5/11/2021 11:00:00 AM 8.59 47.462 0.1 6.85 6.82 11.6
5/11/2021 11:15:00 AM 8.76 47.768 0.1 6.86 6.95 11.59
5/11/2021 11:30:00 AM 8.93 48.074 0.1 6.88 6.9 11.58
5/11/2021 11:45:00 AM 9 48.2 0.1 6.88 6.72 11.56
5/11/2021 12:00:00 PM 9.07 48.326 0.1 6.88 6.67 11.54
5/11/2021 12:15:00 PM 9.16 48.488 0.1 6.89 6.69 11.53
5/11/2021 12:30:00 PM 9.25 48.65 0.1 6.9 6.65 11.5
5/11/2021 12:45:00 PM 9.36 48.848 0.1 6.9 6.48 11.48
5/11/2021 1:00:00 PM 9.45 49.01 0.1 6.9 6.36 11.46
5/11/2021 1:15:00 PM 9.61 49.298 0.1 6.93 6.33 11.46
5/11/2021 1:30:00 PM 9.68 49.424 0.1 6.92 6.38 11.44
5/11/2021 1:45:00 PM 9.73 49.514 0.1 6.92 6.42 11.43
5/11/2021 2:00:00 PM 9.8 49.64 0.1 6.93 6.26 11.42
5/11/2021 2:15:00 PM 9.96 49.928 0.1 6.94 6.15 11.43
5/11/2021 2:30:00 PM 10.02 50.036 0.1 6.94 6.08 11.39
5/11/2021 2:45:00 PM 10.2 50.36 0.1 6.96 6.14 11.38
5/11/2021 3:00:00 PM 10.33 50.594 0.101 6.96 6.12 11.36
5/11/2021 3:15:00 PM 10.48 50.864 0.101 6.97 6.18 11.34
5/11/2021 3:30:00 PM 10.63 51.134 0.101 6.98 6.17 11.32
5/11/2021 3:45:00 PM 10.74 51.332 0.101 6.97 6.46 11.29
5/11/2021 4:00:00 PM 10.81 51.458 0.101 6.98 6.17 11.26
5/11/2021 4:15:00 PM 10.91 51.638 0.101 6.99 6.04 11.23
5/11/2021 4:30:00 PM 10.98 51.764 0.101 6.99 6.37 11.19
5/11/2021 4:45:00 PM 11.1 51.98 0.101 7 6.1 11.16
5/11/2021 5:00:00 PM 11.15 52.07 0.101 6.98 6.14 11.12
5/11/2021 5:15:00 PM 11.16 52.088 0.102 6.98 6.14 11.09
5/11/2021 5:30:00 PM 11.15 52.07 0.102 6.97 6.15 11.07
5/11/2021 5:45:00 PM 11.16 52.088 0.102 6.97 6.19 11.03
5/11/2021 6:00:00 PM 11.16 52.088 0.102 6.97 6.1 11.01
5/11/2021 6:15:00 PM 11.15 52.07 0.102 6.95 6.26 10.98
5/11/2021 6:30:00 PM 11.14 52.052 0.102 6.95 6.25 10.95
5/11/2021 6:45:00 PM 11.12 52.016 0.102 6.94 6.13 10.92
5/11/2021 7:00:00 PM 11.07 51.926 0.102 6.93 6.06 10.87
5/11/2021 7:15:00 PM 11.02 51.836 0.102 6.91 6.25 10.83
5/11/2021 7:30:00 PM 10.96 51.728 0.103 6.9 6.16 10.78
5/11/2021 7:45:00 PM 10.89 51.602 0.103 6.9 6.2 10.74
5/11/2021 8:00:00 PM 10.81 51.458 0.103 6.88 6.45 10.7
5/11/2021 8:15:00 PM 10.75 51.35 0.103 6.87 6.33 10.67
5/11/2021 8:30:00 PM 10.66 51.188 0.103 6.86 6.56 10.64
5/11/2021 8:45:00 PM 10.57 51.026 0.103 6.84 6.33 10.62
5/11/2021 9:00:00 PM 10.47 50.846 0.104 6.83 6.5 10.59
5/11/2021 9:15:00 PM 10.36 50.648 0.104 6.82 6.71 10.58
5/11/2021 9:30:00 PM 10.25 50.45 0.104 6.82 6.67 10.58
5/11/2021 9:45:00 PM 10.14 50.252 0.104 6.81 6.74 10.57
5/11/2021 10:00:00 PM 10.03 50.054 0.104 6.8 9.46 10.56
5/11/2021 10:15:00 PM 9.94 49.892 0.104 6.8 6.67 10.57
5/11/2021 10:30:00 PM 9.85 49.73 0.104 6.79 6.64 10.57
5/11/2021 10:45:00 PM 9.76 49.568 0.104 6.78 6.89 10.57
5/11/2021 11:00:00 PM 9.68 49.424 0.104 6.78 6.97 10.58
5/11/2021 11:15:00 PM 9.6 49.28 0.104 6.78 6.87 10.58
5/11/2021 11:30:00 PM 9.51 49.118 0.104 6.77 6.83 10.6
5/11/2021 11:45:00 PM 9.43 48.974 0.104 6.77 6.63 10.61
5/12/2021 12:00:00 AM 9.34 48.812 0.104 6.76 6.66 10.63
5/12/2021 12:15:00 AM 9.25 48.65 0.105 6.76 6.92 10.64
5/12/2021 12:30:00 AM 9.17 48.506 0.105 6.75 7.3 10.66
5/12/2021 12:45:00 AM 9.09 48.362 0.105 6.75 6.84 10.67
5/12/2021 1:00:00 AM 9.01 48.218 0.105 6.74 6.75 10.69
5/12/2021 1:15:00 AM 8.92 48.056 0.105 6.74 6.79 10.71
5/12/2021 1:30:00 AM 8.83 47.894 0.105 6.74 7.08 10.73
5/12/2021 1:45:00 AM 8.75 47.75 0.105 6.74 6.81 10.75
5/12/2021 2:00:00 AM 8.66 47.588 0.105 6.73 6.62 10.76
5/12/2021 2:15:00 AM 8.57 47.426 0.105 6.72 6.7 10.79
5/12/2021 2:30:00 AM 8.49 47.282 0.105 6.73 6.54 10.81
5/12/2021 2:45:00 AM 8.4 47.12 0.104 6.72 6.43 10.83
5/12/2021 3:00:00 AM 8.32 46.976 0.105 6.73 6.36 10.85
5/12/2021 3:15:00 AM 8.24 46.832 0.105 6.72 6.52 10.87
5/12/2021 3:30:00 AM 8.15 46.67 0.105 6.72 6.77 10.89
5/12/2021 3:45:00 AM 8.09 46.562 0.105 6.72 6.79 10.91
5/12/2021 4:00:00 AM 8.01 46.418 0.105 6.72 6.3 10.93
5/12/2021 4:15:00 AM 7.95 46.31 0.105 6.71 6.58 10.95
5/12/2021 4:30:00 AM 7.89 46.202 0.105 6.71 6.2 10.98
5/12/2021 4:45:00 AM 7.83 46.094 0.105 6.71 6.18 10.99
5/12/2021 5:00:00 AM 7.77 45.986 0.105 6.72 6.13 11.02
5/12/2021 5:15:00 AM 7.72 45.896 0.105 6.71 6.22 11.03
5/12/2021 5:30:00 AM 7.68 45.824 0.105 6.71 6.17 11.04
5/12/2021 5:45:00 AM 7.64 45.752 0.105 6.71 6.22 11.07
5/12/2021 6:00:00 AM 7.6 45.68 0.105 6.7 6.01 11.08
5/12/2021 6:15:00 AM 7.58 45.644 0.105 6.71 5.89 11.1
5/12/2021 6:30:00 AM 7.55 45.59 0.105 6.71 5.72 11.12
5/12/2021 6:45:00 AM 7.54 45.572 0.105 6.76 5.53 11.15
5/12/2021 7:00:00 AM 7.54 45.572 0.105 6.8 5.39 11.18
5/12/2021 7:15:00 AM 7.55 45.59 0.105 6.8 5.29 11.23
5/12/2021 7:30:00 AM 7.55 45.59 0.105 6.82 5.48 11.26
5/12/2021 7:45:00 AM 7.56 45.608 0.105 6.82 5.45 11.3
5/12/2021 8:00:00 AM 7.58 45.644 0.105 6.84 5.43 11.34
5/12/2021 8:15:00 AM 7.6 45.68 0.105 6.84 5.48 11.39
5/12/2021 8:30:00 AM 7.62 45.716 0.105 6.84 5.36 11.43
5/12/2021 8:45:00 AM 7.67 45.806 0.105 6.86 5.05 11.47
5/12/2021 9:00:00 AM 7.73 45.914 0.105 6.87 4.98 11.51
5/12/2021 9:15:00 AM 7.81 46.058 0.105 6.88 4.94 11.55
5/12/2021 9:30:00 AM 7.87 46.166 0.105 6.82 5.16 11.58
5/12/2021 9:45:00 AM 8.01 46.418 0.105 6.83 5.09 11.62
5/12/2021 10:00:00 AM 8.13 46.634 0.105 6.85 4.87 11.64
5/12/2021 10:15:00 AM 8.24 46.832 0.105 6.86 4.77 11.66
5/12/2021 10:30:00 AM 8.34 47.012 0.105 6.87 4.82 11.67
5/12/2021 10:45:00 AM 8.47 47.246 0.106 6.88 4.7 11.69
5/12/2021 11:00:00 AM 8.66 47.588 0.105 6.9 4.71 11.7
5/12/2021 11:15:00 AM 8.88 47.984 0.105 6.91 4.71 11.71
5/12/2021 11:30:00 AM 9.16 48.488 0.105 6.93 4.79 11.7
5/12/2021 11:45:00 AM 9.45 49.01 0.105 6.95 5.06 11.69
5/12/2021 12:00:00 PM 9.74 49.532 0.105 6.97 4.8 11.67
5/12/2021 12:15:00 PM 10.02 50.036 0.105 6.97 4.79 11.63
5/12/2021 12:30:00 PM 10.31 50.558 0.105 6.98 4.65 11.6
5/12/2021 12:45:00 PM 10.65 51.17 0.105 7.01 4.53 11.57
5/12/2021 1:00:00 PM 10.97 51.746 0.105 7.01 4.53 11.53
5/12/2021 1:15:00 PM 11.21 52.178 0.105 7.01 4.54 11.49
5/12/2021 1:30:00 PM 11.35 52.43 0.105 7.01 4.47 11.43
5/12/2021 1:45:00 PM 11.53 52.754 0.106 7.02 4.38 11.4
5/12/2021 2:00:00 PM 11.76 53.168 0.106 7.04 4.44 11.36
5/12/2021 2:15:00 PM 11.94 53.492 0.106 7.04 4.41 11.32
5/12/2021 2:30:00 PM 12.04 53.672 0.106 7.03 4.35 11.26
5/12/2021 2:45:00 PM 12.18 53.924 0.106 7.04 4.49 11.21
5/12/2021 3:00:00 PM 12.35 54.23 0.106 7.04 4.37 11.16
5/12/2021 3:15:00 PM 12.49 54.482 0.106 7.04 4.29 11.11
5/12/2021 3:30:00 PM 12.47 54.446 0.106 7.02 4.48 11.03
5/12/2021 3:45:00 PM 12.48 54.464 0.106 7.03 4.32 11.01
5/12/2021 4:00:00 PM 12.56 54.608 0.106 7.04 4.39 10.99
5/12/2021 4:15:00 PM 12.56 54.608 0.106 7.02 4.45 10.94
5/12/2021 4:30:00 PM 12.61 54.698 0.107 7.03 4.39 10.93
5/12/2021 4:45:00 PM 12.64 54.752 0.106 7.04 4.52 10.92
5/12/2021 5:00:00 PM 12.65 54.77 0.107 7.03 4.45 10.89
5/12/2021 5:15:00 PM 12.61 54.698 0.107 7.02 4.36 10.83
5/12/2021 5:30:00 PM 12.61 54.698 0.107 7.02 4.4 10.81
5/12/2021 5:45:00 PM 12.66 54.788 0.107 7.03 4.41 10.79
5/12/2021 6:00:00 PM 12.69 54.842 0.107 7.02 4.43 10.76
5/12/2021 6:15:00 PM 12.71 54.878 0.107 7.02 4.49 10.73
5/12/2021 6:30:00 PM 12.71 54.878 0.107 7 4.47 10.69
5/12/2021 6:45:00 PM 12.68 54.824 0.107 7 4.55 10.64
5/12/2021 7:00:00 PM 12.64 54.752 0.107 6.99 4.87 10.58
5/12/2021 7:15:00 PM 12.58 54.644 0.107 6.97 4.83 10.54
5/12/2021 7:30:00 PM 12.51 54.518 0.108 6.96 4.74 10.48
5/12/2021 7:45:00 PM 12.45 54.41 0.108 6.95 4.71 10.43
5/12/2021 8:00:00 PM 12.37 54.266 0.108 6.93 4.62 10.38
5/12/2021 8:15:00 PM 12.28 54.104 0.108 6.92 4.73 10.33
5/12/2021 8:30:00 PM 12.19 53.942 0.108 6.91 4.77 10.29
5/12/2021 8:45:00 PM 12.08 53.744 0.108 6.9 5.03 10.26
5/12/2021 9:00:00 PM 11.98 53.564 0.108 6.87 4.99 10.23
5/12/2021 9:15:00 PM 11.87 53.366 0.108 6.87 5.03 10.21
5/12/2021 9:30:00 PM 11.77 53.186 0.108 6.86 5 10.2
5/12/2021 9:45:00 PM 11.67 53.006 0.109 6.85 5.1 10.19
5/12/2021 10:00:00 PM 11.57 52.826 0.109 6.84 5.13 10.18
5/12/2021 10:15:00 PM 11.46 52.628 0.109 6.83 5.04 10.17
5/12/2021 10:30:00 PM 11.36 52.448 0.109 6.82 5.15 10.17
5/12/2021 10:45:00 PM 11.25 52.25 0.109 6.82 5.18 10.17
5/12/2021 11:00:00 PM 11.14 52.052 0.109 6.8 5.27 10.18
5/12/2021 11:15:00 PM 11.02 51.836 0.109 6.81 5.36 10.19
5/12/2021 11:30:00 PM 10.91 51.638 0.109 6.79 5.21 10.2
5/12/2021 11:45:00 PM 10.8 51.44 0.11 6.79 5.23 10.21
5/13/2021 12:00:00 AM 10.68 51.224 0.11 6.79 5.35 10.23
5/13/2021 12:15:00 AM 10.57 51.026 0.11 6.78 5.33 10.25
5/13/2021 12:30:00 AM 10.46 50.828 0.11 6.77 5.06 10.28
5/13/2021 12:45:00 AM 10.35 50.63 0.11 6.77 5.21 10.29
5/13/2021 1:00:00 AM 10.25 50.45 0.11 6.77 5.14 10.3
5/13/2021 1:15:00 AM 10.13 50.234 0.11 6.77 5.36 10.33
5/13/2021 1:30:00 AM 10.01 50.018 0.11 6.77 5.17 10.35
5/13/2021 1:45:00 AM 9.91 49.838 0.11 6.76 5.17 10.38
5/13/2021 2:00:00 AM 9.8 49.64 0.11 6.76 5.29 10.4
5/13/2021 2:15:00 AM 9.68 49.424 0.11 6.76 5.04 10.43
5/13/2021 2:30:00 AM 9.57 49.226 0.11 6.76 5.13 10.46
5/13/2021 2:45:00 AM 9.46 49.028 0.11 6.75 5.17 10.49
5/13/2021 3:00:00 AM 9.35 48.83 0.111 6.76 5.39 10.51
5/13/2021 3:15:00 AM 9.24 48.632 0.11 6.76 5.05 10.54
5/13/2021 3:30:00 AM 9.13 48.434 0.11 6.76 5.12 10.57
5/13/2021 3:45:00 AM 9.02 48.236 0.111 6.75 5.08 10.6
5/13/2021 4:00:00 AM 8.92 48.056 0.111 6.75 5.11 10.63
5/13/2021 4:15:00 AM 8.81 47.858 0.111 6.74 5.16 10.65
5/13/2021 4:30:00 AM 8.71 47.678 0.111 6.75 5.32 10.69
5/13/2021 4:45:00 AM 8.6 47.48 0.111 6.74 5.2 10.71
5/13/2021 5:00:00 AM 8.51 47.318 0.111 6.74 5.22 10.74
5/13/2021 5:15:00 AM 8.41 47.138 0.111 6.75 5.25 10.77
5/13/2021 5:30:00 AM 8.3 46.94 0.111 6.75 5.15 10.8
5/13/2021 5:45:00 AM 8.21 46.778 0.111 6.74 5 10.83
5/13/2021 6:00:00 AM 8.11 46.598 0.111 6.75 5.03 10.86
5/13/2021 6:15:00 AM 8.02 46.436 0.111 6.74 5.07 10.9
5/13/2021 6:30:00 AM 7.94 46.292 0.111 6.74 5.07 10.94
5/13/2021 6:45:00 AM 7.86 46.148 0.112 6.75 4.93 10.99
5/13/2021 7:00:00 AM 7.78 46.004 0.111 6.75 4.93 11.04
5/13/2021 7:15:00 AM 7.72 45.896 0.112 6.76 4.77 11.1
5/13/2021 7:30:00 AM 7.67 45.806 0.112 6.77 4.67 11.15
5/13/2021 7:45:00 AM 7.63 45.734 0.112 6.77 4.7 11.21
5/13/2021 8:00:00 AM 7.6 45.68 0.112 6.78 4.67 11.28
5/13/2021 8:15:00 AM 7.59 45.662 0.112 6.8 4.59 11.33
5/13/2021 8:30:00 AM 7.6 45.68 0.112 6.8 4.48 11.39
5/13/2021 8:45:00 AM 7.62 45.716 0.112 6.81 4.38 11.45
5/13/2021 9:00:00 AM 7.67 45.806 0.112 6.82 4.25 11.51
5/13/2021 9:15:00 AM 7.74 45.932 0.112 6.85 4.16 11.56
5/13/2021 9:30:00 AM 7.83 46.094 0.112 6.85 4.12 11.6
5/13/2021 9:45:00 AM 7.95 46.31 0.112 6.88 4.12 11.65
5/13/2021 10:00:00 AM 8.1 46.58 0.112 6.89 4.06 11.69
5/13/2021 10:15:00 AM 8.26 46.868 0.112 6.9 4.04 11.73
5/13/2021 10:30:00 AM 8.45 47.21 0.111 6.92 3.96 11.76
5/13/2021 10:45:00 AM 8.64 47.552 0.112 6.93 3.93 11.77
5/13/2021 11:00:00 AM 8.88 47.984 0.112 6.95 3.92 11.79
5/13/2021 11:15:00 AM 9.11 48.398 0.112 6.98 3.83 11.79
5/13/2021 11:30:00 AM 9.24 48.632 0.112 6.98 3.82 11.77
5/13/2021 11:45:00 AM 9.36 48.848 0.112 6.98 3.9 11.77
5/13/2021 12:00:00 PM 9.55 49.19 0.112 7 3.87 11.75
5/13/2021 12:15:00 PM 9.76 49.568 0.112 7.01 3.8 11.75
5/13/2021 12:30:00 PM 9.89 49.802 0.112 7.01 3.78 11.72
5/13/2021 12:45:00 PM 10.02 50.036 0.112 7.02 3.79 11.7
5/13/2021 1:00:00 PM 10.17 50.306 0.112 7.04 3.73 11.67
5/13/2021 1:15:00 PM 10.36 50.648 0.112 7.05 3.73 11.66
5/13/2021 1:30:00 PM 10.53 50.954 0.112 7.05 3.78 11.6
5/13/2021 1:45:00 PM 10.63 51.134 0.112 7.05 3.88 11.57
5/13/2021 2:00:00 PM 10.77 51.386 0.112 7.06 3.81 11.56
5/13/2021 2:15:00 PM 10.87 51.566 0.112 7.07 3.75 11.52
5/13/2021 2:30:00 PM 11.08 51.944 0.112 7.09 3.72 11.52
5/13/2021 2:45:00 PM 11.21 52.178 0.112 7.09 3.64 11.48
5/13/2021 3:00:00 PM 11.3 52.34 0.112 7.09 3.74 11.47
5/13/2021 3:15:00 PM 11.47 52.646 0.112 7.11 3.74 11.45
5/13/2021 3:30:00 PM 11.68 53.024 0.112 7.12 3.68 11.43
5/13/2021 3:45:00 PM 11.93 53.474 0.112 7.14 3.78 11.42
5/13/2021 4:00:00 PM 12.14 53.852 0.112 7.13 3.66 11.37
5/13/2021 4:15:00 PM 12.29 54.122 0.112 7.14 3.7 11.34
5/13/2021 4:30:00 PM 12.36 54.248 0.112 7.12 3.77 11.27
5/13/2021 4:45:00 PM 12.46 54.428 0.112 7.13 3.7 11.24
5/13/2021 5:00:00 PM 12.62 54.716 0.112 7.15 3.73 11.2
5/13/2021 5:15:00 PM 12.76 54.968 0.112 7.15 3.77 11.16
5/13/2021 5:30:00 PM 12.86 55.148 0.112 7.14 3.72 11.09
5/13/2021 5:45:00 PM 12.88 55.184 0.112 7.12 3.76 11.02
5/13/2021 6:00:00 PM 12.88 55.184 0.112 7.12 3.76 10.95
5/13/2021 6:15:00 PM 12.91 55.238 0.112 7.11 3.89 10.91
5/13/2021 6:30:00 PM 12.94 55.292 0.112 7.1 3.84 10.87
5/13/2021 6:45:00 PM 12.95 55.31 0.112 7.09 3.86 10.83
5/13/2021 7:00:00 PM 12.93 55.274 0.113 7.09 3.82 10.77
5/13/2021 7:15:00 PM 12.89 55.202 0.113 7.07 3.95 10.7
5/13/2021 7:30:00 PM 12.85 55.13 0.113 7.06 3.9 10.63
5/13/2021 7:45:00 PM 12.8 55.04 0.113 7.04 3.85 10.56
5/13/2021 8:00:00 PM 12.75 54.95 0.113 7.02 3.93 10.49
5/13/2021 8:15:00 PM 12.69 54.842 0.113 7.01 3.85 10.41
5/13/2021 8:30:00 PM 12.62 54.716 0.113 6.97 3.81 10.33
5/13/2021 8:45:00 PM 12.55 54.59 0.113 6.95 3.95 10.27
5/13/2021 9:00:00 PM 12.49 54.482 0.113 6.94 3.91 10.21
5/13/2021 9:15:00 PM 12.43 54.374 0.114 6.92 4.08 10.16
5/13/2021 9:30:00 PM 12.37 54.266 0.114 6.91 4.11 10.12
5/13/2021 9:45:00 PM 12.3 54.14 0.114 6.9 4.2 10.09
5/13/2021 10:00:00 PM 12.23 54.014 0.114 6.89 4.23 10.05
5/13/2021 10:15:00 PM 12.15 53.87 0.114 6.88 4.28 10.03
5/13/2021 10:30:00 PM 12.07 53.726 0.114 6.87 4.32 10.01
5/13/2021 10:45:00 PM 11.98 53.564 0.115 6.86 4.22 10
5/13/2021 11:00:00 PM 11.88 53.384 0.115 6.86 4.2 9.99
5/13/2021 11:15:00 PM 11.78 53.204 0.115 6.85 4.4 9.99
5/13/2021 11:30:00 PM 11.68 53.024 0.115 6.84 4.32 9.99
5/13/2021 11:45:00 PM 11.58 52.844 0.115 6.84 4.4 9.99
5/14/2021 12:00:00 AM 11.47 52.646 0.115 6.83 4.42 10
5/14/2021 12:15:00 AM 11.37 52.466 0.116 6.83 4.33 10.01
5/14/2021 12:30:00 AM 11.27 52.286 0.116 6.82 4.39 10.02
5/14/2021 12:45:00 AM 11.16 52.088 0.116 6.82 4.18 10.04
5/14/2021 1:00:00 AM 11.06 51.908 0.116 6.82 4.19 10.05
5/14/2021 1:15:00 AM 10.95 51.71 0.116 6.81 4.2 10.07
5/14/2021 1:30:00 AM 10.85 51.53 0.116 6.81 4.15 10.09
5/14/2021 1:45:00 AM 10.75 51.35 0.116 6.8 4.26 10.1
5/14/2021 2:00:00 AM 10.65 51.17 0.116 6.8 4.28 10.12
5/14/2021 2:15:00 AM 10.55 50.99 0.116 6.8 4.23 10.15
5/14/2021 2:30:00 AM 10.45 50.81 0.117 6.8 4.18 10.17
5/14/2021 2:45:00 AM 10.35 50.63 0.117 6.8 4.19 10.18
5/14/2021 3:00:00 AM 10.25 50.45 0.117 6.79 4.21 10.22
5/14/2021 3:15:00 AM 10.16 50.288 0.117 6.79 4.29 10.23
5/14/2021 3:30:00 AM 10.06 50.108 0.117 6.79 4.15 10.25
5/14/2021 3:45:00 AM 9.96 49.928 0.117 6.79 4.07 10.29
5/14/2021 4:00:00 AM 9.86 49.748 0.117 6.79 4.27 10.31
5/14/2021 4:15:00 AM 9.77 49.586 0.117 6.79 4.15 10.33
5/14/2021 4:30:00 AM 9.66 49.388 0.117 6.79 4.22 10.36
5/14/2021 4:45:00 AM 9.56 49.208 0.117 6.82 4.02 10.39
5/14/2021 5:00:00 AM 9.45 49.01 0.117 6.81 4.13 10.42
5/14/2021 5:15:00 AM 9.35 48.83 0.117 6.8 4.48 10.44
5/14/2021 5:30:00 AM 9.25 48.65 0.118 6.78 4.4 10.48
5/14/2021 5:45:00 AM 9.15 48.47 0.117 6.78 4.5 10.51
5/14/2021 6:00:00 AM 9.05 48.29 0.118 6.78 4.6 10.54
5/14/2021 6:15:00 AM 8.95 48.11 0.117 6.77 4.56 10.59
5/14/2021 6:30:00 AM 8.87 47.966 0.118 6.77 4.5 10.63
5/14/2021 6:45:00 AM 8.78 47.804 0.117 6.78 4.41 10.69
5/14/2021 7:00:00 AM 8.7 47.66 0.117 6.78 4.38 10.75
5/14/2021 7:15:00 AM 8.64 47.552 0.118 6.79 4.3 10.8
5/14/2021 7:30:00 AM 8.58 47.444 0.118 6.8 4.26 10.87
5/14/2021 7:45:00 AM 8.54 47.372 0.118 6.81 4.18 10.94
5/14/2021 8:00:00 AM 8.51 47.318 0.118 6.82 4.06 11.01
5/14/2021 8:15:00 AM 8.5 47.3 0.117 6.83 4.07 11.08
5/14/2021 8:30:00 AM 8.5 47.3 0.118 6.83 4.01 11.15
5/14/2021 8:45:00 AM 8.52 47.336 0.118 6.85 3.97 11.21
5/14/2021 9:00:00 AM 8.56 47.408 0.117 6.86 3.82 11.27
5/14/2021 9:15:00 AM 8.63 47.534 0.117 6.88 3.72 11.34
5/14/2021 9:30:00 AM 8.72 47.696 0.117 6.89 3.59 11.4
5/14/2021 9:45:00 AM 8.84 47.912 0.117 6.9 3.53 11.45
5/14/2021 10:00:00 AM 8.97 48.146 0.117 6.92 3.52 11.5
5/14/2021 10:15:00 AM 9.13 48.434 0.117 6.94 3.55 11.55
5/14/2021 10:30:00 AM 9.3 48.74 0.117 6.96 3.43 11.59
5/14/2021 10:45:00 AM 9.49 49.082 0.117 6.97 3.41 11.63
5/14/2021 11:00:00 AM 9.71 49.478 0.117 6.99 3.39 11.65
5/14/2021 11:15:00 AM 9.95 49.91 0.117 7.01 3.43 11.67
5/14/2021 11:30:00 AM 10.18 50.324 0.117 7.03 3.46 11.68
5/14/2021 11:45:00 AM 10.47 50.846 0.117 7.06 3.5 11.68
5/14/2021 12:00:00 PM 10.53 50.954 0.117 7.03 3.44 11.64
5/14/2021 12:15:00 PM 10.59 51.062 0.117 7.04 3.46 11.6
5/14/2021 12:30:00 PM 10.7 51.26 0.117 7.05 3.43 11.59
5/14/2021 12:45:00 PM 10.82 51.476 0.117 7.06 3.45 11.58
5/14/2021 1:00:00 PM 10.99 51.782 0.117 7.08 3.47 11.57
5/14/2021 1:15:00 PM 11.24 52.232 0.117 7.1 3.46 11.58
5/14/2021 1:30:00 PM 11.46 52.628 0.117 7.11 3.42 11.56
5/14/2021 1:45:00 PM 11.53 52.754 0.117 7.1 3.38 11.51
5/14/2021 2:00:00 PM 11.62 52.916 0.117 7.12 3.35 11.46
5/14/2021 2:15:00 PM 11.72 53.096 0.117 7.13 3.37 11.43
5/14/2021 2:30:00 PM 11.82 53.276 0.117 7.13 3.4 11.41
5/14/2021 2:45:00 PM 11.92 53.456 0.117 7.14 3.37 11.39
5/14/2021 3:00:00 PM 12.03 53.654 0.117 7.14 3.42 11.38
5/14/2021 3:15:00 PM 12.25 54.05 0.117 7.17 3.32 11.38
5/14/2021 3:30:00 PM 12.51 54.518 0.117 7.19 3.25 11.38
5/14/2021 3:45:00 PM 12.73 54.914 0.117 7.2 3.35 11.37
5/14/2021 4:00:00 PM 13.05 55.49 0.117 7.22 3.44 11.35
5/14/2021 4:15:00 PM 13.27 55.886 0.117 7.21 3.32 11.32
5/14/2021 4:30:00 PM 13.43 56.174 0.117 7.23 3.33 11.29
5/14/2021 4:45:00 PM 13.59 56.462 0.117 7.23 3.26 11.27
5/14/2021 5:00:00 PM 13.73 56.714 0.117 7.24 3.34 11.22
5/14/2021 5:15:00 PM 13.93 57.074 0.117 7.24 3.33 11.16
5/14/2021 5:30:00 PM 14.08 57.344 0.117 7.24 3.32 11.08
5/14/2021 5:45:00 PM 14.23 57.614 0.117 7.25 3.3 10.99
5/14/2021 6:00:00 PM 14.37 57.866 0.117 7.23 3.44 10.88
5/14/2021 6:15:00 PM 14.5 58.1 0.117 7.21 3.32 10.77
5/14/2021 6:30:00 PM 14.61 58.298 0.117 7.2 3.37 10.69
5/14/2021 6:45:00 PM 14.72 58.496 0.118 7.2 3.4 10.61
5/14/2021 7:00:00 PM 14.78 58.604 0.118 7.18 3.41 10.53
5/14/2021 7:15:00 PM 14.84 58.712 0.118 7.17 3.46 10.43
5/14/2021 7:30:00 PM 14.88 58.784 0.118 7.16 3.38 10.34
5/14/2021 7:45:00 PM 14.9 58.82 0.118 7.13 3.55 10.24
5/14/2021 8:00:00 PM 14.88 58.784 0.118 7.11 3.52 10.14
5/14/2021 8:15:00 PM 14.84 58.712 0.118 7.08 3.68 10.03
5/14/2021 8:30:00 PM 14.78 58.604 0.118 7.07 3.58 9.93
5/14/2021 8:45:00 PM 14.7 58.46 0.118 7.04 3.77 9.85
5/14/2021 9:00:00 PM 14.6 58.28 0.119 7.02 3.83 9.78
5/14/2021 9:15:00 PM 14.5 58.1 0.119 7 3.83 9.72
5/14/2021 9:30:00 PM 14.38 57.884 0.119 6.98 4.21 9.67
5/14/2021 9:45:00 PM 14.27 57.686 0.119 6.96 4.02 9.64
5/14/2021 10:00:00 PM 14.15 57.47 0.119 6.95 4.12 9.61
5/14/2021 10:15:00 PM 14.02 57.236 0.119 6.93 3.94 9.59
5/14/2021 10:30:00 PM 13.91 57.038 0.119 6.92 4 9.57
5/14/2021 10:45:00 PM 13.79 56.822 0.119 6.91 3.99 9.55
5/14/2021 11:00:00 PM 13.67 56.606 0.119 6.89 4.1 9.54
5/14/2021 11:15:00 PM 13.56 56.408 0.12 6.89 3.97 9.54
5/14/2021 11:30:00 PM 13.44 56.192 0.12 6.88 4 9.53
5/14/2021 11:45:00 PM 13.32 55.976 0.12 6.87 4.05 9.53
5/15/2021 12:00:00 AM 13.2 55.76 0.12 6.86 4.01 9.53
5/15/2021 12:15:00 AM 13.08 55.544 0.12 6.86 4.03 9.53
5/15/2021 12:30:00 AM 12.96 55.328 0.12 6.86 4.47 9.54
5/15/2021 12:45:00 AM 12.84 55.112 0.121 6.84 4.07 9.56
5/15/2021 1:00:00 AM 12.73 54.914 0.121 6.84 4.16 9.57
5/15/2021 1:15:00 AM 12.6 54.68 0.121 6.84 4.03 9.59
5/15/2021 1:30:00 AM 12.49 54.482 0.122 6.83 4.16 9.6
5/15/2021 1:45:00 AM 12.37 54.266 0.121 6.84 4.26 9.62
5/15/2021 2:00:00 AM 12.25 54.05 0.122 6.83 4.26 9.65
5/15/2021 2:15:00 AM 12.13 53.834 0.122 6.83 4.39 9.67
5/15/2021 2:30:00 AM 12.02 53.636 0.122 6.83 4.32 9.69
5/15/2021 2:45:00 AM 11.89 53.402 0.122 6.82 4.3 9.72
5/15/2021 3:00:00 AM 11.77 53.186 0.122 6.82 4.26 9.74
5/15/2021 3:15:00 AM 11.65 52.97 0.122 6.81 4.17 9.77
5/15/2021 3:30:00 AM 11.52 52.736 0.122 6.81 4.14 9.81
5/15/2021 3:45:00 AM 11.4 52.52 0.122 6.82 4.28 9.84
5/15/2021 4:00:00 AM 11.28 52.304 0.123 6.81 4.2 9.87
5/15/2021 4:15:00 AM 11.16 52.088 0.123 6.8 4.2 9.9
5/15/2021 4:30:00 AM 11.03 51.854 0.123 6.81 4.21 9.93
5/15/2021 4:45:00 AM 10.92 51.656 0.123 6.81 4.31 9.95
5/15/2021 5:00:00 AM 10.78 51.404 0.123 6.8 4.33 10
5/15/2021 5:15:00 AM 10.67 51.206 0.123 6.8 4.28 10.03
5/15/2021 5:30:00 AM 10.55 50.99 0.123 6.8 4.42 10.06
5/15/2021 5:45:00 AM 10.44 50.792 0.123 6.8 4.49 10.09
5/15/2021 6:00:00 AM 10.33 50.594 0.123 6.8 4.39 10.13
5/15/2021 6:15:00 AM 10.23 50.414 0.123 6.8 4.2 10.17
5/15/2021 6:30:00 AM 10.15 50.27 0.124 6.8 4.1 10.25
5/15/2021 6:45:00 AM 10.06 50.108 0.123 6.81 3.91 10.3
5/15/2021 7:00:00 AM 9.97 49.946 0.124 6.82 3.88 10.36
5/15/2021 7:15:00 AM 9.9 49.82 0.124 6.82 3.85 10.42
5/15/2021 7:30:00 AM 9.84 49.712 0.124 6.83 3.81 10.49
5/15/2021 7:45:00 AM 9.79 49.622 0.124 6.84 3.84 10.57
5/15/2021 8:00:00 AM 9.75 49.55 0.124 6.85 3.74 10.66
5/15/2021 8:15:00 AM 9.73 49.514 0.124 6.86 3.78 10.74
5/15/2021 8:30:00 AM 9.73 49.514 0.124 6.87 3.78 10.82
5/15/2021 8:45:00 AM 9.75 49.55 0.124 6.89 3.7 10.89
5/15/2021 9:00:00 AM 9.79 49.622 0.124 6.9 3.56 10.98
5/15/2021 9:15:00 AM 9.85 49.73 0.124 6.92 3.47 11.03
5/15/2021 9:30:00 AM 9.94 49.892 0.124 6.93 3.38 11.11
5/15/2021 9:45:00 AM 10.05 50.09 0.124 6.96 3.33 11.19
5/15/2021 10:00:00 AM 10.16 50.288 0.124 6.97 3.23 11.25
5/15/2021 10:15:00 AM 10.3 50.54 0.124 7 3.22 11.31
5/15/2021 10:30:00 AM 10.47 50.846 0.124 7.01 3.16 11.35
5/15/2021 10:45:00 AM 10.64 51.152 0.124 7.03 3.23 11.4
5/15/2021 11:00:00 AM 10.84 51.512 0.124 7.05 3.18 11.43
5/15/2021 11:15:00 AM 11.06 51.908 0.123 7.07 3.13 11.47
5/15/2021 11:30:00 AM 11.29 52.322 0.123 7.09 3.13 11.49
5/15/2021 11:45:00 AM 11.54 52.772 0.123 7.11 3.08 11.51
5/15/2021 12:00:00 PM 11.81 53.258 0.123 7.13 3.04 11.52
5/15/2021 12:15:00 PM 12.04 53.672 0.124 7.14 3.09 11.51
5/15/2021 12:30:00 PM 12.25 54.05 0.124 7.14 3.06 11.5
5/15/2021 12:45:00 PM 12.41 54.338 0.124 7.16 3.1 11.45
5/15/2021 1:00:00 PM 12.51 54.518 0.124 7.16 3.06 11.44
5/15/2021 1:15:00 PM 12.72 54.896 0.123 7.18 3.06 11.42
5/15/2021 1:30:00 PM 12.9 55.22 0.123 7.19 3.13 11.41
5/15/2021 1:45:00 PM 12.99 55.382 0.123 7.19 3.07 11.37
5/15/2021 2:00:00 PM 13.09 55.562 0.123 7.2 3.13 11.34
5/15/2021 2:15:00 PM 13.25 55.85 0.123 7.22 3.11 11.33
5/15/2021 2:30:00 PM 13.44 56.192 0.123 7.24 3.09 11.32
5/15/2021 2:45:00 PM 13.63 56.534 0.123 7.25 3.04 11.3
5/15/2021 3:00:00 PM 13.88 56.984 0.123 7.27 3.09 11.28
5/15/2021 3:15:00 PM 14.09 57.362 0.123 7.28 3.16 11.26
5/15/2021 3:30:00 PM 14.22 57.596 0.123 7.28 3.06 11.22
5/15/2021 3:45:00 PM 14.27 57.686 0.123 7.27 3.07 11.16
5/15/2021 4:00:00 PM 14.31 57.758 0.123 7.27 3.1 11.09
5/15/2021 4:15:00 PM 14.36 57.848 0.123 7.26 3.13 11.02
5/15/2021 4:30:00 PM 14.41 57.938 0.123 7.26 3.04 10.99
5/15/2021 4:45:00 PM 14.47 58.046 0.123 7.27 3.17 10.98
5/15/2021 5:00:00 PM 14.53 58.154 0.123 7.28 3.27 10.95
5/15/2021 5:15:00 PM 14.61 58.298 0.123 7.28 3.22 10.93
5/15/2021 5:30:00 PM 14.69 58.442 0.123 7.28 3.12 10.91
5/15/2021 5:45:00 PM 14.74 58.532 0.123 7.29 3.35 10.87
5/15/2021 6:00:00 PM 14.75 58.55 0.123 7.28 3.37 10.85
5/15/2021 6:15:00 PM 14.76 58.568 0.122 7.27 3.41 10.81
5/15/2021 6:30:00 PM 14.75 58.55 0.123 7.26 3.32 10.76
5/15/2021 6:45:00 PM 14.72 58.496 0.123 7.25 3.36 10.71
5/15/2021 7:00:00 PM 14.69 58.442 0.123 7.24 3.35 10.66
5/15/2021 7:15:00 PM 14.66 58.388 0.123 7.23 3.41 10.61
5/15/2021 7:30:00 PM 14.62 58.316 0.123 7.2 3.32 10.53
5/15/2021 7:45:00 PM 14.57 58.226 0.124 7.18 3.41 10.45
5/15/2021 8:00:00 PM 14.51 58.118 0.124 7.16 3.52 10.37
5/15/2021 8:15:00 PM 14.44 57.992 0.124 7.13 3.51 10.27
5/15/2021 8:30:00 PM 14.37 57.866 0.124 7.11 3.52 10.18
5/15/2021 8:45:00 PM 14.31 57.758 0.124 7.09 3.63 10.09
5/15/2021 9:00:00 PM 14.25 57.65 0.125 7.07 3.75 10.01
5/15/2021 9:15:00 PM 14.19 57.542 0.125 7.05 3.74 9.93
5/15/2021 9:30:00 PM 14.13 57.434 0.125 7.03 3.79 9.87
5/15/2021 9:45:00 PM 14.07 57.326 0.125 7.02 3.81 9.81
5/15/2021 10:00:00 PM 14 57.2 0.125 7 3.52 9.77
5/15/2021 10:15:00 PM 13.93 57.074 0.125 6.99 3.69 9.73
5/15/2021 10:30:00 PM 13.85 56.93 0.125 6.98 3.9 9.69
5/15/2021 10:45:00 PM 13.77 56.786 0.125 6.96 3.47 9.65
5/15/2021 11:00:00 PM 13.68 56.624 0.125 6.95 3.42 9.63
5/15/2021 11:15:00 PM 13.59 56.462 0.125 6.94 3.67 9.61
5/15/2021 11:30:00 PM 13.49 56.282 0.126 6.93 3.61 9.59
5/15/2021 11:45:00 PM 13.39 56.102 0.126 6.93 3.69 9.57
5/16/2021 12:00:00 AM 13.29 55.922 0.126 6.91 3.54 9.56
5/16/2021 12:15:00 AM 13.19 55.742 0.126 6.9 3.74 9.56
5/16/2021 12:30:00 AM 13.09 55.562 0.126 6.9 3.71 9.55
5/16/2021 12:45:00 AM 13.01 55.418 0.126 6.89 3.74 9.55
5/16/2021 1:00:00 AM 12.92 55.256 0.126 6.88 3.59 9.56
5/16/2021 1:15:00 AM 12.83 55.094 0.126 6.88 3.79 9.56
5/16/2021 1:30:00 AM 12.75 54.95 0.127 6.88 3.86 9.56
5/16/2021 1:45:00 AM 12.66 54.788 0.127 6.88 3.82 9.57
5/16/2021 2:00:00 AM 12.58 54.644 0.127 6.87 3.71 9.58
5/16/2021 2:15:00 AM 12.5 54.5 0.127 6.88 3.95 9.58
5/16/2021 2:30:00 AM 12.41 54.338 0.127 6.86 3.64 9.6
5/16/2021 2:45:00 AM 12.31 54.158 0.127 6.86 3.7 9.62
5/16/2021 3:00:00 AM 12.22 53.996 0.127 6.85 3.6 9.64
5/16/2021 3:15:00 AM 12.14 53.852 0.128 6.85 3.84 9.64
5/16/2021 3:30:00 AM 12.05 53.69 0.127 6.85 3.89 9.66
5/16/2021 3:45:00 AM 11.96 53.528 0.128 6.85 3.68 9.68
5/16/2021 4:00:00 AM 11.87 53.366 0.128 6.84 3.61 9.7
5/16/2021 4:15:00 AM 11.78 53.204 0.128 6.85 3.72 9.72
5/16/2021 4:30:00 AM 11.7 53.06 0.128 6.84 3.84 9.74
5/16/2021 4:45:00 AM 11.61 52.898 0.128 6.85 3.73 9.76
5/16/2021 5:00:00 AM 11.52 52.736 0.128 6.84 3.73 9.79
5/16/2021 5:15:00 AM 11.42 52.556 0.128 6.84 3.69 9.8
5/16/2021 5:30:00 AM 11.33 52.394 0.128 6.84 3.7 9.83
5/16/2021 5:45:00 AM 11.24 52.232 0.129 6.84 3.61 9.85
5/16/2021 6:00:00 AM 11.14 52.052 0.128 6.84 3.61 9.88
5/16/2021 6:15:00 AM 11.04 51.872 0.128 6.84 3.69 9.93
5/16/2021 6:30:00 AM 10.96 51.728 0.128 6.85 3.7 9.97
5/16/2021 6:45:00 AM 10.88 51.584 0.129 6.85 3.51 10.02
5/16/2021 7:00:00 AM 10.8 51.44 0.129 6.86 3.52 10.09
5/16/2021 7:15:00 AM 10.74 51.332 0.129 6.87 3.54 10.17
5/16/2021 7:30:00 AM 10.69 51.242 0.128 6.87 3.42 10.25
5/16/2021 7:45:00 AM 10.66 51.188 0.129 6.89 3.48 10.33
5/16/2021 8:00:00 AM 10.63 51.134 0.128 6.9 3.4 10.43
5/16/2021 8:15:00 AM 10.65 51.17 0.128 6.92 3.32 10.53
5/16/2021 8:30:00 AM 10.66 51.188 0.129 6.93 3.25 10.62
5/16/2021 8:45:00 AM 10.65 51.17 0.128 6.94 3.22 10.7
5/16/2021 9:00:00 AM 10.71 51.278 0.129 6.96 3.17 10.79
5/16/2021 9:15:00 AM 10.77 51.386 0.129 6.98 3.15 10.87
5/16/2021 9:30:00 AM 10.83 51.494 0.129 7 3.18 10.95
5/16/2021 9:45:00 AM 10.91 51.638 0.129 7.01 3.15 11.03
5/16/2021 10:00:00 AM 11.05 51.89 0.129 7.04 3.1 11.11
5/16/2021 10:15:00 AM 11.16 52.088 0.128 7.06 3.06 11.18
5/16/2021 10:30:00 AM 11.25 52.25 0.129 7.07 3.07 11.24
5/16/2021 10:45:00 AM 11.35 52.43 0.129 7.09 3.01 11.29
5/16/2021 11:00:00 AM 11.44 52.592 0.128 7.11 3.02 11.34
5/16/2021 11:15:00 AM 11.48 52.664 0.129 7.11 3.04 11.35
5/16/2021 11:30:00 AM 11.53 52.754 0.129 7.13 3.04 11.38
5/16/2021 11:45:00 AM 11.65 52.97 0.129 7.16 3.03 11.42
5/16/2021 12:00:00 PM 11.83 53.294 0.128 7.17 3.07 11.47
5/16/2021 12:15:00 PM 12.03 53.654 0.128 7.2 3.07 11.49
5/16/2021 12:30:00 PM 12.25 54.05 0.129 7.23 2.97 11.51
5/16/2021 12:45:00 PM 12.54 54.572 0.128 7.25 2.98 11.53
5/16/2021 1:00:00 PM 12.88 55.184 0.128 7.28 2.95 11.54
5/16/2021 1:15:00 PM 13.21 55.778 0.128 7.3 2.96 11.54
5/16/2021 1:30:00 PM 13.51 56.318 0.129 7.3 2.92 11.53
5/16/2021 1:45:00 PM 13.83 56.894 0.129 7.34 2.94 11.51
5/16/2021 2:00:00 PM 14.12 57.416 0.129 7.35 2.93 11.49
5/16/2021 2:15:00 PM 14.4 57.92 0.128 7.37 2.92 11.46
5/16/2021 2:30:00 PM 14.67 58.406 0.128 7.38 3.02 11.43
5/16/2021 2:45:00 PM 14.91 58.838 0.128 7.39 2.97 11.4
5/16/2021 3:00:00 PM 15.15 59.27 0.128 7.42 3.04 11.36
5/16/2021 3:15:00 PM 15.37 59.666 0.128 7.42 2.91 11.32
5/16/2021 3:30:00 PM 15.56 60.008 0.128 7.43 3 11.27
5/16/2021 3:45:00 PM 15.69 60.242 0.128 7.43 2.89 11.23
5/16/2021 4:00:00 PM 15.76 60.368 0.128 7.43 2.89 11.16
5/16/2021 4:15:00 PM 15.82 60.476 0.128 7.42 2.92 11.11
5/16/2021 4:30:00 PM 15.97 60.746 0.128 7.44 2.95 11.06
5/16/2021 4:45:00 PM 16.09 60.962 0.128 7.44 2.93 11.02
5/16/2021 5:00:00 PM 16.12 61.016 0.128 7.41 2.95 10.92
5/16/2021 5:15:00 PM 16.14 61.052 0.128 7.39 2.96 10.78
5/16/2021 5:30:00 PM 16.15 61.07 0.128 7.37 2.98 10.65
5/16/2021 5:45:00 PM 16.12 61.016 0.128 7.32 3.16 10.48
5/16/2021 6:00:00 PM 16.05 60.89 0.128 7.29 3.38 10.33
5/16/2021 6:15:00 PM 15.99 60.782 0.128 7.26 3.48 10.23
5/16/2021 6:30:00 PM 15.95 60.71 0.128 7.23 3.34 10.14
5/16/2021 6:45:00 PM 15.9 60.62 0.129 7.21 3.46 10.05
5/16/2021 7:00:00 PM 15.84 60.512 0.128 7.19 3.43 9.99
5/16/2021 7:15:00 PM 15.78 60.404 0.128 7.18 3.59 9.94
5/16/2021 7:30:00 PM 15.7 60.26 0.128 7.15 3.45 9.87
5/16/2021 7:45:00 PM 15.62 60.116 0.128 7.13 3.55 9.79
5/16/2021 8:00:00 PM 15.54 59.972 0.129 7.11 3.62 9.71
5/16/2021 8:15:00 PM 15.47 59.846 0.129 7.1 3.59 9.63
5/16/2021 8:30:00 PM 15.4 59.72 0.129 7.07 3.63 9.56
5/16/2021 8:45:00 PM 15.32 59.576 0.129 7.07 3.44 9.49
5/16/2021 9:00:00 PM 15.25 59.45 0.13 7.04 3.59 9.43
5/16/2021 9:15:00 PM 15.17 59.306 0.129 7.04 3.5 9.39
5/16/2021 9:30:00 PM 15.09 59.162 0.129 7.03 3.46 9.36
5/16/2021 9:45:00 PM 15 59 0.13 7.01 3.65 9.32
5/16/2021 10:00:00 PM 14.91 58.838 0.13 7 3.41 9.3
5/16/2021 10:15:00 PM 14.82 58.676 0.13 6.99 3.62 9.27
5/16/2021 10:30:00 PM 14.73 58.514 0.13 6.98 3.44 9.26
5/16/2021 10:45:00 PM 14.64 58.352 0.13 6.97 3.48 9.25
5/16/2021 11:00:00 PM 14.55 58.19 0.131 6.96 3.41 9.24
5/16/2021 11:15:00 PM 14.45 58.01 0.13 6.95 3.34 9.24
5/16/2021 11:30:00 PM 14.37 57.866 0.13 6.95 3.39 9.23
5/16/2021 11:45:00 PM 14.28 57.704 0.131 6.94 3.43 9.23
5/17/2021 12:00:00 AM 14.2 57.56 0.131 6.94 3.41 9.22
5/17/2021 12:15:00 AM 14.12 57.416 0.131 6.94 3.32 9.22
5/17/2021 12:30:00 AM 14.04 57.272 0.131 6.93 3.38 9.23
5/17/2021 12:45:00 AM 13.96 57.128 0.131 6.92 3.5 9.24
5/17/2021 1:00:00 AM 13.9 57.02 0.132 6.92 3.33 9.23
5/17/2021 1:15:00 AM 13.82 56.876 0.132 6.91 3.41 9.24
5/17/2021 1:30:00 AM 13.76 56.768 0.132 6.92 3.56 9.24
5/17/2021 1:45:00 AM 13.69 56.642 0.132 6.91 3.44 9.25
5/17/2021 2:00:00 AM 13.62 56.516 0.132 6.91 3.5 9.25
5/17/2021 2:15:00 AM 13.55 56.39 0.132 6.91 3.43 9.27
5/17/2021 2:30:00 AM 13.49 56.282 0.132 6.91 3.45 9.27
5/17/2021 2:45:00 AM 13.43 56.174 0.132 6.9 3.34 9.28
5/17/2021 3:00:00 AM 13.37 56.066 0.132 6.9 3.44 9.29
5/17/2021 3:15:00 AM 13.32 55.976 0.132 6.9 3.43 9.3
5/17/2021 3:30:00 AM 13.26 55.868 0.132 6.9 3.48 9.31
5/17/2021 3:45:00 AM 13.2 55.76 0.132 6.89 3.51 9.32
5/17/2021 4:00:00 AM 13.15 55.67 0.132 6.89 3.44 9.33
5/17/2021 4:15:00 AM 13.1 55.58 0.132 6.9 3.46 9.35
5/17/2021 4:30:00 AM 13.04 55.472 0.132 6.9 3.5 9.36
5/17/2021 4:45:00 AM 12.99 55.382 0.133 6.9 3.66 9.37
5/17/2021 5:00:00 AM 12.94 55.292 0.133 6.89 3.62 9.38
5/17/2021 5:15:00 AM 12.89 55.202 0.133 6.89 3.79 9.4
5/17/2021 5:30:00 AM 12.83 55.094 0.133 6.88 3.44 9.41
5/17/2021 5:45:00 AM 12.78 55.004 0.133 6.89 3.42 9.41
5/17/2021 6:00:00 AM 12.72 54.896 0.133 6.89 3.43 9.44
5/17/2021 6:15:00 AM 12.66 54.788 0.133 6.89 3.46 9.48
5/17/2021 6:30:00 AM 12.61 54.698 0.133 6.89 3.41 9.52
5/17/2021 6:45:00 AM 12.56 54.608 0.134 6.9 3.49 9.56
5/17/2021 7:00:00 AM 12.52 54.536 0.134 6.91 3.35 9.62
5/17/2021 7:15:00 AM 12.49 54.482 0.134 6.92 3.39 9.69
5/17/2021 7:30:00 AM 12.47 54.446 0.134 6.93 3.42 9.78
5/17/2021 7:45:00 AM 12.46 54.428 0.134 6.94 3.38 9.9
5/17/2021 8:00:00 AM 12.44 54.392 0.134 6.95 3.34 9.99
5/17/2021 8:15:00 AM 12.44 54.392 0.134 6.97 3.25 10.09
5/17/2021 8:30:00 AM 12.46 54.428 0.134 6.98 3.23 10.17
5/17/2021 8:45:00 AM 12.49 54.482 0.134 7 3.15 10.26
5/17/2021 9:00:00 AM 12.52 54.536 0.134 7.01 3.12 10.32
5/17/2021 9:15:00 AM 12.59 54.662 0.134 7.02 3.12 10.4
5/17/2021 9:30:00 AM 12.68 54.824 0.134 7.05 3.17 10.48
5/17/2021 9:45:00 AM 12.81 55.058 0.134 7.06 3.14 10.56
5/17/2021 10:00:00 AM 12.94 55.292 0.134 7.09 3.25 10.63
5/17/2021 10:15:00 AM 13.09 55.562 0.134 7.11 3.14 10.69
5/17/2021 10:30:00 AM 13.26 55.868 0.134 7.13 3.13 10.77
5/17/2021 10:45:00 AM 13.42 56.156 0.135 7.15 3.05 10.81
5/17/2021 11:00:00 AM 13.62 56.516 0.134 7.18 2.95 10.88
5/17/2021 11:15:00 AM 13.82 56.876 0.135 7.2 2.96 10.92
5/17/2021 11:30:00 AM 14.04 57.272 0.135 7.22 2.86 10.97
5/17/2021 11:45:00 AM 14.2 57.56 0.135 7.22 2.91 10.99
5/17/2021 12:00:00 PM 14.31 57.758 0.135 7.23 2.86 10.99
5/17/2021 12:15:00 PM 14.58 58.244 0.135 7.28 2.82 11.03
5/17/2021 12:30:00 PM 14.8 58.64 0.135 7.29 2.77 11.07
5/17/2021 12:45:00 PM 15.06 59.108 0.135 7.31 2.74 11.09
5/17/2021 1:00:00 PM 15.37 59.666 0.135 7.34 2.77 11.11
5/17/2021 1:15:00 PM 15.71 60.278 0.135 7.37 2.78 11.12
5/17/2021 1:30:00 PM 16 60.8 0.135 7.38 2.7 11.12
5/17/2021 1:45:00 PM 16.25 61.25 0.135 7.39 2.7 11.1
5/17/2021 2:00:00 PM 16.37 61.466 0.135 7.39 2.77 11.04
5/17/2021 2:15:00 PM 16.43 61.574 0.135 7.4 2.73 10.97
5/17/2021 2:30:00 PM 16.63 61.934 0.135 7.42 2.71 10.96
5/17/2021 2:45:00 PM 16.96 62.528 0.135 7.46 2.77 10.96
5/17/2021 3:00:00 PM 17.14 62.852 0.135 7.45 2.7 10.9
5/17/2021 3:15:00 PM 17.13 62.834 0.135 7.41 2.71 10.76
5/17/2021 3:30:00 PM 17.25 63.05 0.135 7.42 2.65 10.71
5/17/2021 3:45:00 PM 17.51 63.518 0.135 7.45 2.65 10.72
5/17/2021 4:00:00 PM 17.78 64.004 0.135 7.48 2.74 10.69
5/17/2021 4:15:00 PM 17.92 64.256 0.135 7.46 2.75 10.62
5/17/2021 4:30:00 PM 18.06 64.508 0.135 7.47 2.72 10.6
5/17/2021 4:45:00 PM 18.25 64.85 0.135 7.49 2.79 10.58
5/17/2021 5:00:00 PM 18.35 65.03 0.135 7.5 2.75 10.54
5/17/2021 5:15:00 PM 18.45 65.21 0.135 7.49 2.77 10.48
5/17/2021 5:30:00 PM 18.51 65.318 0.135 7.51 2.83 10.45
5/17/2021 5:45:00 PM 18.55 65.39 0.135 7.48 2.76 10.37
5/17/2021 6:00:00 PM 18.57 65.426 0.135 7.47 2.89 10.29
5/17/2021 6:15:00 PM 18.55 65.39 0.135 7.43 2.78 10.2
5/17/2021 6:30:00 PM 18.53 65.354 0.135 7.43 2.8 10.12
5/17/2021 6:45:00 PM 18.52 65.336 0.135 7.41 2.76 10.05
5/17/2021 7:00:00 PM 18.48 65.264 0.136 7.38 2.85 9.97
5/17/2021 7:15:00 PM 18.43 65.174 0.135 7.36 2.75 9.87
5/17/2021 7:30:00 PM 18.36 65.048 0.136 7.33 2.76 9.77
5/17/2021 7:45:00 PM 18.28 64.904 0.136 7.3 2.88 9.68
5/17/2021 8:00:00 PM 18.18 64.724 0.136 7.28 2.85 9.57
5/17/2021 8:15:00 PM 18.07 64.526 0.136 7.24 2.86 9.46
5/17/2021 8:30:00 PM 17.96 64.328 0.136 7.21 3.17 9.36
5/17/2021 8:45:00 PM 17.84 64.112 0.137 7.18 3.17 9.24
5/17/2021 9:00:00 PM 17.71 63.878 0.137 7.15 3.18 9.14
5/17/2021 9:15:00 PM 17.59 63.662 0.137 7.13 3.15 9.06
5/17/2021 9:30:00 PM 17.48 63.464 0.137 7.11 3.07 9
5/17/2021 9:45:00 PM 17.35 63.23 0.137 7.09 3.4 8.94
5/17/2021 10:00:00 PM 17.23 63.014 0.138 7.08 3.15 8.89
5/17/2021 10:15:00 PM 17.11 62.798 0.138 7.06 3.19 8.85
5/17/2021 10:30:00 PM 16.98 62.564 0.138 7.05 3.13 8.82
5/17/2021 10:45:00 PM 16.85 62.33 0.138 7.04 3.21 8.79
5/17/2021 11:00:00 PM 16.73 62.114 0.138 7.03 3.3 8.77
5/17/2021 11:15:00 PM 16.59 61.862 0.138 7.01 3.23 8.76
5/17/2021 11:30:00 PM 16.46 61.628 0.138 7.01 3.39 8.74
5/17/2021 11:45:00 PM 16.34 61.412 0.138 7 3.24 8.73
5/18/2021 12:00:00 AM 16.2 61.16 0.138 6.99 3.42 8.73
5/18/2021 12:15:00 AM 16.07 60.926 0.138 6.98 3.3 8.74
5/18/2021 12:30:00 AM 15.93 60.674 0.139 6.97 3.32 8.74
5/18/2021 12:45:00 AM 15.8 60.44 0.139 6.97 3.51 8.74
5/18/2021 1:00:00 AM 15.66 60.188 0.139 6.97 3.51 8.76
5/18/2021 1:15:00 AM 15.52 59.936 0.139 6.96 3.44 8.77
5/18/2021 1:30:00 AM 15.37 59.666 0.139 6.95 3.4 8.79
5/18/2021 1:45:00 AM 15.23 59.414 0.139 6.95 3.41 8.81
5/18/2021 2:00:00 AM 15.09 59.162 0.14 6.95 52.03 8.82
5/18/2021 2:15:00 AM 14.95 58.91 0.14 6.94 3.42 8.84
5/18/2021 2:30:00 AM 14.8 58.64 0.14 6.94 3.46 8.87
5/18/2021 2:45:00 AM 14.67 58.406 0.14 6.93 3.32 8.89
5/18/2021 3:00:00 AM 14.54 58.172 0.14 6.93 3.46 8.91
5/18/2021 3:15:00 AM 14.41 57.938 0.14 6.92 3.42 8.94
5/18/2021 3:30:00 AM 14.28 57.704 0.14 6.92 3.29 8.96
5/18/2021 3:45:00 AM 14.14 57.452 0.14 6.92 3.39 8.99
5/18/2021 4:00:00 AM 14.02 57.236 0.141 6.92 3.31 9.01
5/18/2021 4:15:00 AM 13.9 57.02 0.14 6.91 3.38 9.04
5/18/2021 4:30:00 AM 13.78 56.804 0.14 6.92 3.45 9.07
5/18/2021 4:45:00 AM 13.67 56.606 0.141 6.91 3.58 9.08
5/18/2021 5:00:00 AM 13.55 56.39 0.141 6.92 3.41 9.11
5/18/2021 5:15:00 AM 13.45 56.21 0.141 6.91 3.42 9.14
5/18/2021 5:30:00 AM 13.34 56.012 0.141 6.91 3.59 9.16
5/18/2021 5:45:00 AM 13.22 55.796 0.141 6.91 3.53 9.2
5/18/2021 6:00:00 AM 13.12 55.616 0.141 6.91 3.32 9.23
5/18/2021 6:15:00 AM 13.03 55.454 0.141 6.91 3.68 9.26
5/18/2021 6:30:00 AM 12.94 55.292 0.142 6.92 3.81 9.32
5/18/2021 6:45:00 AM 12.87 55.166 0.142 6.92 3.95 9.4
5/18/2021 7:00:00 AM 12.81 55.058 0.142 6.93 3.63 9.48
5/18/2021 7:15:00 AM 12.76 54.968 0.142 6.94 3.56 9.58
5/18/2021 7:30:00 AM 12.71 54.878 0.142 6.95 3.44 9.69
5/18/2021 7:45:00 AM 12.68 54.824 0.142 6.97 3.34 9.78
5/18/2021 8:00:00 AM 12.66 54.788 0.142 6.98 3.32 9.87
5/18/2021 8:15:00 AM 12.65 54.77 0.142 7 3.32 9.96
5/18/2021 8:30:00 AM 12.66 54.788 0.142 7.01 3.26 10.04
5/18/2021 8:45:00 AM 12.7 54.86 0.142 7.03 3.24 10.16
5/18/2021 9:00:00 AM 12.75 54.95 0.142 7.05 3.23 10.24
5/18/2021 9:15:00 AM 12.83 55.094 0.142 7.07 3.28 10.32
5/18/2021 9:30:00 AM 12.93 55.274 0.142 7.09 3.24 10.42
5/18/2021 9:45:00 AM 13.05 55.49 0.142 7.11 3.22 10.49
5/18/2021 10:00:00 AM 13.2 55.76 0.142 7.13 3.19 10.57
5/18/2021 10:15:00 AM 13.36 56.048 0.142 7.16 3.17 10.64
5/18/2021 10:30:00 AM 13.52 56.336 0.143 7.17 3.27 10.69
5/18/2021 10:45:00 AM 13.72 56.696 0.143 7.19 3.14 10.76
5/18/2021 11:00:00 AM 13.95 57.11 0.142 7.22 3.14 10.83
5/18/2021 11:15:00 AM 14.16 57.488 0.143 7.24 3.04 10.86
5/18/2021 11:30:00 AM 14.39 57.902 0.143 7.26 2.97 10.91
5/18/2021 11:45:00 AM 14.64 58.352 0.143 7.3 2.86 10.96
5/18/2021 12:00:00 PM 14.88 58.784 0.143 7.32 2.88 11
5/18/2021 12:15:00 PM 15.18 59.324 0.142 7.34 2.87 11.03
5/18/2021 12:30:00 PM 15.43 59.774 0.142 7.36 2.83 11.06
5/18/2021 12:45:00 PM 15.68 60.224 0.143 7.38 2.83 11.08
5/18/2021 1:00:00 PM 15.97 60.746 0.142 7.4 2.75 11.1
5/18/2021 1:15:00 PM 16.23 61.214 0.143 7.42 2.76 11.1
5/18/2021 1:30:00 PM 16.5 61.7 0.142 7.45 2.73 11.11
5/18/2021 1:45:00 PM 16.76 62.168 0.142 7.46 2.75 11.11
5/18/2021 2:00:00 PM 17.04 62.672 0.142 7.49 2.7 11.11
5/18/2021 2:15:00 PM 17.31 63.158 0.142 7.51 2.75 11.09
5/18/2021 2:30:00 PM 17.55 63.59 0.142 7.53 2.69 11.08
5/18/2021 2:45:00 PM 17.8 64.04 0.142 7.55 2.69 11.05
5/18/2021 3:00:00 PM 18.05 64.49 0.142 7.57 2.69 11.01
5/18/2021 3:15:00 PM 18.26 64.868 0.142 7.57 2.75 10.97
5/18/2021 3:30:00 PM 18.46 65.228 0.142 7.59 2.73 10.92
5/18/2021 3:45:00 PM 18.65 65.57 0.142 7.61 2.79 10.87
5/18/2021 4:00:00 PM 18.82 65.876 0.142 7.6 2.68 10.82
5/18/2021 4:15:00 PM 18.97 66.146 0.142 7.61 2.7 10.75
5/18/2021 4:30:00 PM 19.13 66.434 0.142 7.61 2.72 10.69
5/18/2021 4:45:00 PM 19.27 66.686 0.142 7.62 2.77 10.62
5/18/2021 5:00:00 PM 19.38 66.884 0.143 7.61 2.65 10.56
5/18/2021 5:15:00 PM 19.45 67.01 0.143 7.59 2.72 10.46
5/18/2021 5:30:00 PM 19.5 67.1 0.142 7.58 2.71 10.35
5/18/2021 5:45:00 PM 19.54 67.172 0.142 7.56 2.78 10.25
5/18/2021 6:00:00 PM 19.56 67.208 0.143 7.54 2.74 10.17
5/18/2021 6:15:00 PM 19.56 67.208 0.143 7.52 2.86 10.07
5/18/2021 6:30:00 PM 19.56 67.208 0.143 7.49 2.75 9.99
5/18/2021 6:45:00 PM 19.53 67.154 0.143 7.48 2.74 9.9
5/18/2021 7:00:00 PM 19.49 67.082 0.143 7.45 2.8 9.81
5/18/2021 7:15:00 PM 19.44 66.992 0.143 7.43 2.82 9.72
5/18/2021 7:30:00 PM 19.38 66.884 0.143 7.41 2.87 9.63
5/18/2021 7:45:00 PM 19.3 66.74 0.144 7.38 2.88 9.52
5/18/2021 8:00:00 PM 19.21 66.578 0.144 7.35 2.75 9.41
5/18/2021 8:15:00 PM 19.11 66.398 0.144 7.31 2.78 9.31
5/18/2021 8:30:00 PM 18.99 66.182 0.144 7.28 2.8 9.19
5/18/2021 8:45:00 PM 18.86 65.948 0.145 7.25 2.97 9.08
5/18/2021 9:00:00 PM 18.72 65.696 0.145 7.21 3.07 8.97
5/18/2021 9:15:00 PM 18.59 65.462 0.145 7.19 3.13 8.88
5/18/2021 9:30:00 PM 18.45 65.21 0.145 7.16 3.2 8.8
5/18/2021 9:45:00 PM 18.32 64.976 0.145 7.14 3.27 8.74
5/18/2021 10:00:00 PM 18.18 64.724 0.145 7.12 3.28 8.68
5/18/2021 10:15:00 PM 18.04 64.472 0.146 7.11 3.36 8.63
5/18/2021 10:30:00 PM 17.9 64.22 0.146 7.09 3.2 8.59
5/18/2021 10:45:00 PM 17.76 63.968 0.146 7.08 3.33 8.58
5/18/2021 11:00:00 PM 17.62 63.716 0.146 7.06 3.56 8.54
5/18/2021 11:15:00 PM 17.48 63.464 0.146 7.05 3.36 8.54
5/18/2021 11:30:00 PM 17.34 63.212 0.146 7.04 3.38 8.52
5/18/2021 11:45:00 PM 17.2 62.96 0.146 7.03 3.37 8.51
5/19/2021 12:00:00 AM 17.06 62.708 0.146 7.02 3.49 8.51
5/19/2021 12:15:00 AM 16.93 62.474 0.146 7.03 3.46 8.51
5/19/2021 12:30:00 AM 16.78 62.204 0.146 7.02 3.41 8.52
5/19/2021 12:45:00 AM 16.65 61.97 0.147 7.02 3.48 8.52
5/19/2021 1:00:00 AM 16.52 61.736 0.147 7 3.46 8.53
5/19/2021 1:15:00 AM 16.37 61.466 0.147 7.01 3.52 8.54
5/19/2021 1:30:00 AM 16.23 61.214 0.147 7 3.86 8.55
5/19/2021 1:45:00 AM 16.09 60.962 0.147 6.99 3.53 8.57
5/19/2021 2:00:00 AM 15.94 60.692 0.147 6.99 3.53 8.59
5/19/2021 2:15:00 AM 15.82 60.476 0.147 6.98 3.91 8.6
5/19/2021 2:30:00 AM 15.67 60.206 0.148 6.97 3.9 8.62
5/19/2021 2:45:00 AM 15.54 59.972 0.148 6.98 3.96 8.64
5/19/2021 3:00:00 AM 15.41 59.738 0.148 6.98 3.47 8.65
5/19/2021 3:15:00 AM 15.27 59.486 0.148 6.97 3.55 8.68
5/19/2021 3:30:00 AM 15.14 59.252 0.148 6.97 3.52 8.7
5/19/2021 3:45:00 AM 15 59 0.149 6.97 3.6 8.73
5/19/2021 4:00:00 AM 14.87 58.766 0.149 6.97 3.66 8.76
5/19/2021 4:15:00 AM 14.74 58.532 0.149 6.97 7.98 8.79
5/19/2021 4:30:00 AM 14.61 58.298 0.149 6.96 3.2 8.82
5/19/2021 4:45:00 AM 14.48 58.064 0.149 6.96 3.63 8.84
5/19/2021 5:00:00 AM 14.36 57.848 0.149 6.95 3.82 8.86
5/19/2021 5:15:00 AM 14.24 57.632 0.149 6.95 4.07 8.89
5/19/2021 5:30:00 AM 14.11 57.398 0.149 6.95 4.54 8.93
5/19/2021 5:45:00 AM 14 57.2 0.15 6.95 4.29 8.95
5/19/2021 6:00:00 AM 13.89 57.002 0.15 6.95 6.21 8.98
5/19/2021 6:15:00 AM 13.78 56.804 0.15 6.94 4.03 9.04
5/19/2021 6:30:00 AM 13.68 56.624 0.15 6.96 5.45 9.1
5/19/2021 6:45:00 AM 13.6 56.48 0.15 6.96 3.88 9.16
5/19/2021 7:00:00 AM 13.52 56.336 0.15 6.97 4.26 9.24
5/19/2021 7:15:00 AM 13.45 56.21 0.15 6.98 5.99 9.34
5/19/2021 7:30:00 AM 13.4 56.12 0.15 6.98 5.07 9.43
5/19/2021 7:45:00 AM 13.36 56.048 0.15 7.01 4.33 9.54
5/19/2021 8:00:00 AM 13.35 56.03 0.15 7.01 4.49 9.63
5/19/2021 8:15:00 AM 13.34 56.012 0.15 7.03 4.45 9.74
5/19/2021 8:30:00 AM 13.36 56.048 0.15 7.05 3.98 9.83
5/19/2021 8:45:00 AM 13.4 56.12 0.15 7.07 5.2 9.95
5/19/2021 9:00:00 AM 13.46 56.228 0.15 7.1 4.11 10.04
5/19/2021 9:15:00 AM 13.54 56.372 0.15 7.12 4.04 10.13
5/19/2021 9:30:00 AM 13.66 56.588 0.15 7.13 5.39 10.23
5/19/2021 9:45:00 AM 13.8 56.84 0.15 7.15 6.58 10.32
5/19/2021 10:00:00 AM 13.95 57.11 0.15 7.18 3.79 10.41
5/19/2021 10:15:00 AM 14.11 57.398 0.15 7.2 5.5 10.48
5/19/2021 10:30:00 AM 14.29 57.722 0.15 7.23 4.92 10.55
5/19/2021 10:45:00 AM 14.53 58.154 0.15 7.25 5.27 10.63
5/19/2021 11:00:00 AM 14.73 58.514 0.15 7.26 3.74 10.69
5/19/2021 11:15:00 AM 14.99 58.982 0.15 7.29 5.74 10.75
5/19/2021 11:30:00 AM 15.21 59.378 0.15 7.32 11.47 10.8
5/19/2021 11:45:00 AM 15.5 59.9 0.15 7.35 4.58 10.85
5/19/2021 12:00:00 PM 15.74 60.332 0.15 7.38 5.3 10.89
5/19/2021 12:15:00 PM 16 60.8 0.15 7.39 6.31 10.94
5/19/2021 12:30:00 PM 16.29 61.322 0.15 7.41 7.39 10.96
5/19/2021 12:45:00 PM 16.55 61.79 0.15 7.44 10.09 10.98
5/19/2021 1:00:00 PM 16.83 62.294 0.151 7.45 14.02 11.01
5/19/2021 1:15:00 PM 17.11 62.798 0.151 7.47 8.05 11.03
5/19/2021 1:30:00 PM 17.42 63.356 0.151 7.51 7.35 11.04
5/19/2021 1:45:00 PM 17.7 63.86 0.151 7.53 8.89 11.05
5/19/2021 2:00:00 PM 17.97 64.346 0.151 7.55 6.42 11.04
5/19/2021 2:15:00 PM 18.26 64.868 0.151 7.58 8.6 11.03
5/19/2021 2:30:00 PM 18.52 65.336 0.151 7.59 5.32 11.03
5/19/2021 2:45:00 PM 18.78 65.804 0.151 7.63 9.62 11
5/19/2021 3:00:00 PM 19.01 66.218 0.151 7.64 3.89 10.98
5/19/2021 3:15:00 PM 19.23 66.614 0.151 7.66 3.47 10.94
5/19/2021 3:30:00 PM 19.41 66.938 0.151 7.66 3.63 10.91
5/19/2021 3:45:00 PM 19.58 67.244 0.152 7.67 3.05 10.88
5/19/2021 4:00:00 PM 19.69 67.442 0.151 7.69 3.1 10.81
5/19/2021 4:15:00 PM 19.78 67.604 0.151 7.7 3.87 10.77
5/19/2021 4:30:00 PM 19.92 67.856 0.152 7.71 3.08 10.73
5/19/2021 4:45:00 PM 20.07 68.126 0.152 7.72 3.46 10.67
5/19/2021 5:00:00 PM 20.21 68.378 0.152 7.71 3.18 10.6
5/19/2021 5:15:00 PM 20.29 68.522 0.152 7.71 3.2 10.51
5/19/2021 5:30:00 PM 20.34 68.612 0.152 7.69 3.17 10.42
5/19/2021 5:45:00 PM 20.4 68.72 0.152 7.68 3.21 10.34
5/19/2021 6:00:00 PM 20.45 68.81 0.152 7.67 4.53 10.25
5/19/2021 6:15:00 PM 20.49 68.882 0.152 7.66 3.21 10.16
5/19/2021 6:30:00 PM 20.53 68.954 0.152 7.63 3.31 10.09
5/19/2021 6:45:00 PM 20.56 69.008 0.153 7.61 3.17 10
5/19/2021 7:00:00 PM 20.58 69.044 0.153 7.59 2.95 9.94
5/19/2021 7:15:00 PM 20.58 69.044 0.153 7.57 3.1 9.83
5/19/2021 7:30:00 PM 20.56 69.008 0.153 7.54 3.22 9.7
5/19/2021 7:45:00 PM 20.52 68.936 0.153 7.49 3.51 9.56
5/19/2021 8:00:00 PM 20.48 68.864 0.153 7.46 3.53 9.41
5/19/2021 8:15:00 PM 20.42 68.756 0.153 7.42 3.42 9.25
5/19/2021 8:30:00 PM 20.35 68.63 0.153 7.38 3.43 9.12
5/19/2021 8:45:00 PM 20.26 68.468 0.154 7.34 3.35 8.98
5/19/2021 9:00:00 PM 20.17 68.306 0.154 7.3 3.79 8.84
5/19/2021 9:15:00 PM 20.07 68.126 0.154 7.27 3.63 8.73
5/19/2021 9:30:00 PM 19.97 67.946 0.154 7.24 42.36 8.63
5/19/2021 9:45:00 PM 19.85 67.73 0.155 7.22 8.45 8.54
5/19/2021 10:00:00 PM 19.74 67.532 0.155 7.19 5 8.46
5/19/2021 10:15:00 PM 19.64 67.352 0.155 7.18 4.06 8.39
5/19/2021 10:30:00 PM 19.53 67.154 0.155 7.15 4.33 8.34
5/19/2021 10:45:00 PM 19.42 66.956 0.155 7.14 3.34 8.29
5/19/2021 11:00:00 PM 19.31 66.758 0.155 7.13 3.28 8.26
5/19/2021 11:15:00 PM 19.2 66.56 0.155 7.12 3.39 8.22
5/19/2021 11:30:00 PM 19.07 66.326 0.155 7.11 3.55 8.19
5/19/2021 11:45:00 PM 18.95 66.11 0.155 7.09 3.87 8.19
5/20/2021 12:00:00 AM 18.83 65.894 0.155 7.09 3.54 8.17
5/20/2021 12:15:00 AM 18.71 65.67799 0.155 7.08 8.45 8.15
5/20/2021 12:30:00 AM 18.58 65.444 0.155 7.07 5.33 8.14
5/20/2021 12:45:00 AM 18.45 65.21 0.155 7.06 3.77 8.14
5/20/2021 1:00:00 AM 18.33 64.994 0.155 7.06 3.76 8.14
5/20/2021 1:15:00 AM 18.2 64.76 0.155 7.05 13.74 8.15
5/20/2021 1:30:00 AM 18.08 64.544 0.155 7.05 3.75 8.14
5/20/2021 1:45:00 AM 17.94 64.292 0.155 7.04 27.43 8.15
5/20/2021 2:00:00 AM 17.81 64.058 0.155 7.03 3.81 8.16
5/20/2021 2:15:00 AM 17.68 63.824 0.156 7.03 3.84 8.17
5/20/2021 2:30:00 AM 17.54 63.572 0.155 7.02 3.82 8.19
5/20/2021 2:45:00 AM 17.4 63.32 0.156 7.02 3.72 8.21
5/20/2021 3:00:00 AM 17.27 63.086 0.156 7.01 3.81 8.22
5/20/2021 3:15:00 AM 17.14 62.852 0.156 7.01 8.37 8.24
5/20/2021 3:30:00 AM 17.01 62.618 0.156 7 20.93 8.26
5/20/2021 3:45:00 AM 16.89 62.402 0.157 7.01 3.96 8.25
5/20/2021 4:00:00 AM 16.76 62.168 0.157 7 4.22 8.3
5/20/2021 4:15:00 AM 16.64 61.952 0.157 6.99 3.96 8.31
5/20/2021 4:30:00 AM 16.52 61.736 0.157 7 5.54 8.34
5/20/2021 4:45:00 AM 16.4 61.52 0.157 6.99 4.13 8.35
5/20/2021 5:00:00 AM 16.29 61.322 0.157 6.99 4.03 8.38
5/20/2021 5:15:00 AM 16.18 61.124 0.158 6.99 4.08 8.4
5/20/2021 5:30:00 AM 16.07 60.926 0.158 6.99 3.87 8.42
5/20/2021 5:45:00 AM 15.97 60.746 0.158 6.99 4.07 8.43
5/20/2021 6:00:00 AM 15.86 60.548 0.158 6.99 4.26 8.48
5/20/2021 6:15:00 AM 15.76 60.368 0.158 6.99 4.05 8.52
5/20/2021 6:30:00 AM 15.68 60.224 0.158 6.99 4.03 8.57
5/20/2021 6:45:00 AM 15.59 60.062 0.158 7 4.04 8.66
5/20/2021 7:00:00 AM 15.52 59.936 0.158 7 3.99 8.74
5/20/2021 7:15:00 AM 15.44 59.792 0.158 7.01 4.1 8.87
5/20/2021 7:30:00 AM 15.4 59.72 0.158 7.04 3.97 8.98
5/20/2021 7:45:00 AM 15.36 59.648 0.158 7.05 4.44 9.12
5/20/2021 8:00:00 AM 15.32 59.576 0.158 7.07 4.11 9.24
5/20/2021 8:15:00 AM 15.3 59.54 0.158 7.08 3.8 9.33
5/20/2021 8:30:00 AM 15.31 59.558 0.158 7.11 3.82 9.46
5/20/2021 8:45:00 AM 15.34 59.612 0.158 7.12 3.71 9.59
5/20/2021 9:00:00 AM 15.39 59.702 0.158 7.15 3.61 9.7
5/20/2021 9:15:00 AM 15.45 59.81 0.158 7.17 3.54 9.81
5/20/2021 9:30:00 AM 15.57 60.026 0.158 7.19 3.57 9.95
5/20/2021 9:45:00 AM 15.66 60.188 0.158 7.22 3.74 10.06
5/20/2021 10:00:00 AM 15.73 60.314 0.158 7.24 3.52 10.14
5/20/2021 10:15:00 AM 15.83 60.494 0.158 7.26 3.56 10.23
5/20/2021 10:30:00 AM 15.96 60.728 0.158 7.29 3.63 10.31
5/20/2021 10:45:00 AM 16.12 61.016 0.158 7.32 3.77 10.39
5/20/2021 11:00:00 AM 16.36 61.448 0.158 7.35 3.75 10.47
5/20/2021 11:15:00 AM 16.62 61.916 0.157 7.38 3.59 10.55
5/20/2021 11:30:00 AM 16.84 62.312 0.158 7.4 3.73 10.62
5/20/2021 11:45:00 AM 17.06 62.708 0.158 7.42 3.82 10.66
5/20/2021 12:00:00 PM 17.29 63.122 0.158 7.46 3.76 10.72
5/20/2021 12:15:00 PM 17.55 63.59 0.158 7.49 4.06 10.78
5/20/2021 12:30:00 PM 17.83 64.094 0.158 7.53 3.54 10.83
5/20/2021 12:45:00 PM 18.11 64.598 0.159 7.55 3.61 10.86
5/20/2021 1:00:00 PM 18.41 65.138 0.158 7.58 3.45 10.89
5/20/2021 1:15:00 PM 18.67 65.606 0.158 7.59 3.43 10.91
5/20/2021 1:30:00 PM 18.93 66.074 0.159 7.62 3.73 10.93
5/20/2021 1:45:00 PM 19.17 66.506 0.159 7.65 3.95 10.95
5/20/2021 2:00:00 PM 19.31 66.758 0.159 7.66 3.22 10.92
5/20/2021 2:15:00 PM 19.57 67.226 0.159 7.71 3.17 10.93
5/20/2021 2:30:00 PM 19.78 67.604 0.159 7.72 3.14 10.93
5/20/2021 2:45:00 PM 20.09 68.162 0.159 7.75 3.25 10.94
5/20/2021 3:00:00 PM 20.29 68.522 0.159 7.77 3.07 10.92
5/20/2021 3:15:00 PM 20.42 68.756 0.159 7.77 4.63 10.87
5/20/2021 3:30:00 PM 20.53 68.954 0.159 7.78 4.84 10.83
5/20/2021 3:45:00 PM 20.65 69.17 0.159 7.8 4.56 10.79
5/20/2021 4:00:00 PM 20.82 69.476 0.159 7.81 4.16 10.76
5/20/2021 4:15:00 PM 21 69.8 0.159 7.83 4.71 10.72
5/20/2021 4:30:00 PM 21.12 70.016 0.159 7.82 4.67 10.67
5/20/2021 4:45:00 PM 21.21 70.17799 0.159 7.82 1262.91 10.58
5/20/2021 5:00:00 PM 21.28 70.304 0.159 7.81 5.62 10.5
5/20/2021 5:15:00 PM 21.33 70.394 0.159 7.79 7.14 10.41
5/20/2021 5:30:00 PM 21.36 70.448 0.16 7.77 3.97 10.31
5/20/2021 5:45:00 PM 21.4 70.52 0.16 7.75 4.95 10.21
5/20/2021 6:00:00 PM 21.43 70.574 0.16 7.72 5.3 10.1
5/20/2021 6:15:00 PM 21.45 70.61 0.16 7.69 4.16 9.99
5/20/2021 6:30:00 PM 21.47 70.646 0.16 7.66 3.31 9.88
5/20/2021 6:45:00 PM 21.49 70.682 0.161 7.63 5.56 9.78
5/20/2021 7:00:00 PM 21.51 70.718 0.16 7.61 4.29 9.66
5/20/2021 7:15:00 PM 21.51 70.718 0.161 7.57 4.37 9.55
5/20/2021 7:30:00 PM 21.52 70.736 0.161 7.54 3.26 9.42
5/20/2021 7:45:00 PM 21.51 70.718 0.161 7.51 5.76 9.31
5/20/2021 8:00:00 PM 21.49 70.682 0.161 7.48 4.97 9.18
5/20/2021 8:15:00 PM 21.45 70.61 0.161 7.45 6.63 9.05
5/20/2021 8:30:00 PM 21.39 70.502 0.161 7.41 3.59 8.91
5/20/2021 8:45:00 PM 21.31 70.358 0.162 7.37 3.72 8.76
5/20/2021 9:00:00 PM 21.23 70.214 0.162 7.34 7.57 8.61
5/20/2021 9:15:00 PM 21.15 70.07 0.162 7.31 6.31 8.49
5/20/2021 9:30:00 PM 21.06 69.908 0.162 7.28 3.78 8.39
5/20/2021 9:45:00 PM 20.96 69.728 0.163 7.26 3.73 8.29
5/20/2021 10:00:00 PM 20.87 69.566 0.163 7.24 4.03 8.21
5/20/2021 10:15:00 PM 20.76 69.368 0.163 7.22 3.72 8.12
5/20/2021 10:30:00 PM 20.67 69.206 0.163 7.2 3.6 8.07
5/20/2021 10:45:00 PM 20.57 69.026 0.163 7.19 3.6 8.01
5/20/2021 11:00:00 PM 20.47 68.846 0.163 7.17 3.33 7.96
5/20/2021 11:15:00 PM 20.37 68.666 0.163 7.16 3.54 7.93
5/20/2021 11:30:00 PM 20.26 68.468 0.163 7.15 3.33 7.9
5/20/2021 11:45:00 PM 20.15 68.27 0.163 7.13 3.49 7.87
5/21/2021 12:00:00 AM 20.03 68.054 0.163 7.13 4.1 7.85
5/21/2021 12:15:00 AM 19.92 67.856 0.164 7.12 4.29 7.83
5/21/2021 12:30:00 AM 19.8 67.64 0.164 7.11 4.49 7.82
5/21/2021 12:45:00 AM 19.68 67.424 0.164 7.1 3.54 7.81
5/21/2021 1:00:00 AM 19.56 67.208 0.164 7.09 3.89 7.81
5/21/2021 1:15:00 AM 19.45 67.01 0.164 7.09 3.86 7.81
5/21/2021 1:30:00 AM 19.33 66.794 0.164 7.08 3.68 7.8
5/21/2021 1:45:00 AM 19.21 66.578 0.164 7.07 4.18 7.82
5/21/2021 2:00:00 AM 19.1 66.38 0.164 7.07 3.56 7.82
5/21/2021 2:15:00 AM 18.97 66.146 0.165 7.07 3.6 7.83
5/21/2021 2:30:00 AM 18.86 65.948 0.165 7.06 3.65 7.82
5/21/2021 2:45:00 AM 18.74 65.732 0.165 7.05 3.61 7.83
5/21/2021 3:00:00 AM 18.63 65.534 0.165 7.05 3.95 7.86
5/21/2021 3:15:00 AM 18.51 65.318 0.165 7.05 4.07 7.88
5/21/2021 3:30:00 AM 18.39 65.102 0.166 7.05 4.09 7.88
5/21/2021 3:45:00 AM 18.27 64.886 0.166 7.04 4.44 7.91
5/21/2021 4:00:00 AM 18.14 64.652 0.166 7.04 5.37 7.93
5/21/2021 4:15:00 AM 18.03 64.454 0.166 7.04 5.33 7.94
5/21/2021 4:30:00 AM 17.9 64.22 0.166 7.03 225.42 7.97
5/21/2021 4:45:00 AM 17.79 64.022 0.166 7.04 4.79 7.98
5/21/2021 5:00:00 AM 17.68 63.824 0.166 7.03 3.72 8.01
5/21/2021 5:15:00 AM 17.55 63.59 0.166 7.03 3.66 8.03
5/21/2021 5:30:00 AM 17.44 63.392 0.167 7.03 3.59 8.04
5/21/2021 5:45:00 AM 17.32 63.176 0.167 7.02 3.71 8.06
5/21/2021 6:00:00 AM 17.2 62.96 0.167 7.02 3.43 8.1
5/21/2021 6:15:00 AM 17.09 62.762 0.167 7.02 3.38 8.15
5/21/2021 6:30:00 AM 16.97 62.546 0.167 7.02 3.34 8.22
5/21/2021 6:45:00 AM 16.88 62.384 0.168 7.02 3.33 8.28
5/21/2021 7:00:00 AM 16.78 62.204 0.167 7.04 3.49 8.38
5/21/2021 7:15:00 AM 16.7 62.06 0.167 7.05 3.47 8.51
5/21/2021 7:30:00 AM 16.63 61.934 0.167 7.06 3.47 8.62
5/21/2021 7:45:00 AM 16.58 61.844 0.167 7.08 3.42 8.73
5/21/2021 8:00:00 AM 16.55 61.79 0.167 7.09 3.41 8.87
5/21/2021 8:15:00 AM 16.53 61.754 0.168 7.11 3.46 8.97
5/21/2021 8:30:00 AM 16.53 61.754 0.167 7.13 3.46 9.13
5/21/2021 8:45:00 AM 16.53 61.754 0.168 7.16 3.47 9.24
5/21/2021 9:00:00 AM 16.57 61.826 0.167 7.17 3.3 9.38
5/21/2021 9:15:00 AM 16.63 61.934 0.167 7.2 3.16 9.51
5/21/2021 9:30:00 AM 16.73 62.114 0.167 7.24 3.16 9.68
5/21/2021 9:45:00 AM 16.82 62.276 0.167 7.25 3.23 9.76
5/21/2021 10:00:00 AM 16.95 62.51 0.167 7.28 3.19 9.87
5/21/2021 10:15:00 AM 17.13 62.834 0.167 7.33 3.1 10
5/21/2021 10:30:00 AM 17.3 63.14 0.167 7.35 3.09 10.1
5/21/2021 10:45:00 AM 17.49 63.482 0.167 7.37 3.05 10.19
5/21/2021 11:00:00 AM 17.7 63.86 0.167 7.41 3.08 10.29
5/21/2021 11:15:00 AM 17.95 64.31 0.166 7.45 2.9 10.39
5/21/2021 11:30:00 AM 18.17 64.706 0.167 7.47 3 10.46
5/21/2021 11:45:00 AM 18.44 65.192 0.166 7.52 3.14 10.54
5/21/2021 12:00:00 PM 18.68 65.624 0.167 7.55 2.98 10.59
5/21/2021 12:15:00 PM 18.93 66.074 0.167 7.57 3.13 10.65
5/21/2021 12:30:00 PM 19.19 66.542 0.167 7.6 3.14 10.7
5/21/2021 12:45:00 PM 19.42 66.956 0.167 7.63 3.21 10.74
5/21/2021 1:00:00 PM 19.68 67.424 0.167 7.67 3.26 10.79
5/21/2021 1:15:00 PM 19.93 67.874 0.167 7.7 3.19 10.83
5/21/2021 1:30:00 PM 20.19 68.342 0.167 7.74 3.13 10.86
5/21/2021 1:45:00 PM 20.42 68.756 0.167 7.77 3.17 10.89
5/21/2021 2:00:00 PM 20.66 69.188 0.168 7.79 3.17 10.91
5/21/2021 2:15:00 PM 20.84 69.512 0.167 7.83 3.11 10.92
5/21/2021 2:30:00 PM 21 69.8 0.167 7.84 3.34 10.91
5/21/2021 2:45:00 PM 21.16 70.088 0.167 7.86 2.92 10.9
5/21/2021 3:00:00 PM 21.28 70.304 0.167 7.9 2.93 10.88
5/21/2021 3:15:00 PM 21.3 70.34 0.166 7.89 2.95 10.82
5/21/2021 3:30:00 PM 21.3 70.34 0.166 7.88 2.9 10.74
5/21/2021 3:45:00 PM 21.29 70.32201 0.167 7.86 2.79 10.67
5/21/2021 4:00:00 PM 21.28 70.304 0.167 7.85 2.67 10.61
5/21/2021 4:15:00 PM 21.34 70.412 0.166 7.86 2.61 10.57
5/21/2021 4:30:00 PM 21.45 70.61 0.167 7.88 2.62 10.57
5/21/2021 4:45:00 PM 21.55 70.79 0.166 7.89 2.57 10.55
5/21/2021 5:00:00 PM 21.61 70.898 0.167 7.88 2.63 10.48
5/21/2021 5:15:00 PM 21.72 71.096 0.167 7.89 2.68 10.45
5/21/2021 5:30:00 PM 21.74 71.132 0.166 7.87 2.58 10.38
5/21/2021 5:45:00 PM 21.8 71.24 0.167 7.88 2.76 10.35
5/21/2021 6:00:00 PM 21.85 71.33 0.167 7.87 2.62 10.3
5/21/2021 6:15:00 PM 21.88 71.384 0.167 7.86 2.65 10.2
5/21/2021 6:30:00 PM 21.9 71.42 0.168 7.82 2.66 10.11
5/21/2021 6:45:00 PM 21.92 71.456 0.167 7.78 2.6 9.97
5/21/2021 7:00:00 PM 21.92 71.456 0.167 7.74 2.8 9.85
5/21/2021 7:15:00 PM 21.92 71.456 0.167 7.7 2.7 9.74
5/21/2021 7:30:00 PM 21.92 71.456 0.167 7.68 2.68 9.65
5/21/2021 7:45:00 PM 21.89 71.402 0.167 7.64 2.69 9.56
5/21/2021 8:00:00 PM 21.87 71.366 0.167 7.61 2.61 9.42
5/21/2021 8:15:00 PM 21.82 71.276 0.168 7.57 2.67 9.27
5/21/2021 8:30:00 PM 21.76 71.168 0.168 7.52 2.71 9.08
5/21/2021 8:45:00 PM 21.69 71.042 0.168 7.47 2.69 8.89
5/21/2021 9:00:00 PM 21.61 70.898 0.168 7.42 2.75 8.73
5/21/2021 9:15:00 PM 21.52 70.736 0.169 7.39 2.96 8.59
5/21/2021 9:30:00 PM 21.43 70.574 0.169 7.35 2.97 8.46
5/21/2021 9:45:00 PM 21.34 70.412 0.169 7.32 3.13 8.34
5/21/2021 10:00:00 PM 21.26 70.268 0.17 7.3 3 8.24
5/21/2021 10:15:00 PM 21.18 70.124 0.17 7.28 3.06 8.14
5/21/2021 10:30:00 PM 21.09 69.962 0.17 7.26 3.01 8.07
5/21/2021 10:45:00 PM 21 69.8 0.17 7.23 3.03 7.99
5/21/2021 11:00:00 PM 20.91 69.638 0.17 7.22 3.22 7.92
5/21/2021 11:15:00 PM 20.83 69.494 0.17 7.21 3.05 7.86
5/21/2021 11:30:00 PM 20.74 69.332 0.17 7.19 3.1 7.82
5/21/2021 11:45:00 PM 20.65 69.17 0.17 7.18 3.04 7.79
5/22/2021 12:00:00 AM 20.56 69.008 0.17 7.17 3.18 7.75
5/22/2021 12:15:00 AM 20.47 68.846 0.17 7.16 3.17 7.72
5/22/2021 12:30:00 AM 20.38 68.684 0.17 7.15 3.21 7.71
5/22/2021 12:45:00 AM 20.29 68.522 0.171 7.14 3.25 7.68
5/22/2021 1:00:00 AM 20.2 68.36 0.171 7.13 3.39 7.66
5/22/2021 1:15:00 AM 20.11 68.198 0.171 7.12 3.67 7.65
5/22/2021 1:30:00 AM 20.02 68.036 0.171 7.11 3.39 7.64
5/22/2021 1:45:00 AM 19.92 67.856 0.171 7.11 3.33 7.64
5/22/2021 2:00:00 AM 19.83 67.694 0.171 7.1 3.92 7.63
5/22/2021 2:15:00 AM 19.72 67.496 0.171 7.1 3.75 7.63
5/22/2021 2:30:00 AM 19.62 67.316 0.171 7.09 3.43 7.63
5/22/2021 2:45:00 AM 19.51 67.118 0.172 7.09 3.47 7.64
5/22/2021 3:00:00 AM 19.42 66.956 0.172 7.08 3.94 7.64
5/22/2021 3:15:00 AM 19.31 66.758 0.172 7.08 4.54 7.65
5/22/2021 3:30:00 AM 19.2 66.56 0.172 7.08 3.64 7.66
5/22/2021 3:45:00 AM 19.1 66.38 0.173 7.08 3.81 7.67
5/22/2021 4:00:00 AM 18.99 66.182 0.173 7.07 3.62 7.68
5/22/2021 4:15:00 AM 18.88 65.984 0.173 7.06 3.49 7.7
5/22/2021 4:30:00 AM 18.78 65.804 0.173 7.06 3.54 7.7
5/22/2021 4:45:00 AM 18.68 65.624 0.173 7.06 3.65 7.72
5/22/2021 5:00:00 AM 18.58 65.444 0.173 7.06 3.89 7.74
5/22/2021 5:15:00 AM 18.48 65.264 0.173 7.06 3.76 7.76
5/22/2021 5:30:00 AM 18.39 65.102 0.174 7.06 3.69 7.76
5/22/2021 5:45:00 AM 18.29 64.922 0.173 7.05 3.81 7.79
5/22/2021 6:00:00 AM 18.19 64.742 0.174 7.05 3.57 7.81
5/22/2021 6:15:00 AM 18.1 64.58 0.174 7.05 3.55 7.84
5/22/2021 6:30:00 AM 18.01 64.418 0.174 7.06 3.75 7.91
5/22/2021 6:45:00 AM 17.92 64.256 0.174 7.06 3.79 7.99
5/22/2021 7:00:00 AM 17.86 64.148 0.174 7.07 3.93 8.1
5/22/2021 7:15:00 AM 17.8 64.04 0.174 7.08 3.69 8.25
5/22/2021 7:30:00 AM 17.76 63.968 0.174 7.1 3.66 8.43
5/22/2021 7:45:00 AM 17.72 63.896 0.174 7.12 3.85 8.53
5/22/2021 8:00:00 AM 17.69 63.842 0.174 7.13 3.57 8.67
5/22/2021 8:15:00 AM 17.66 63.788 0.174 7.15 3.6 8.79
5/22/2021 8:30:00 AM 17.64 63.752 0.174 7.17 3.75 8.9
5/22/2021 8:45:00 AM 17.64 63.752 0.174 7.2 3.81 9.07
5/22/2021 9:00:00 AM 17.66 63.788 0.174 7.23 3.97 9.24
5/22/2021 9:15:00 AM 17.73 63.914 0.174 7.26 3.78 9.4
5/22/2021 9:30:00 AM 17.81 64.058 0.174 7.29 3.69 9.56
5/22/2021 9:45:00 AM 17.87 64.166 0.174 7.32 3.62 9.68
5/22/2021 10:00:00 AM 17.97 64.346 0.174 7.35 3.46 9.81
5/22/2021 10:15:00 AM 18.09 64.562 0.174 7.37 3.42 9.91
5/22/2021 10:30:00 AM 18.25 64.85 0.174 7.41 3.34 10.03
5/22/2021 10:45:00 AM 18.41 65.138 0.174 7.43 3.31 10.12
5/22/2021 11:00:00 AM 18.55 65.39 0.174 7.47 3.36 10.21
5/22/2021 11:15:00 AM 18.68 65.624 0.174 7.5 3.44 10.3
5/22/2021 11:30:00 AM 18.78 65.804 0.174 7.53 3.41 10.4
5/22/2021 11:45:00 AM 18.91 66.038 0.174 7.56 3.4 10.48
5/22/2021 12:00:00 PM 18.99 66.182 0.174 7.59 3.29 10.54
5/22/2021 12:15:00 PM 19.11 66.398 0.174 7.63 3.23 10.6
5/22/2021 12:30:00 PM 19.24 66.632 0.174 7.67 3.36 10.66
5/22/2021 12:45:00 PM 19.41 66.938 0.174 7.71 3.4 10.72
5/22/2021 1:00:00 PM 19.54 67.172 0.174 7.74 3.32 10.77
5/22/2021 1:15:00 PM 19.65 67.37 0.174 7.78 3.29 10.81
5/22/2021 1:30:00 PM 19.79 67.622 0.174 7.81 3.28 10.84
5/22/2021 1:45:00 PM 19.86 67.748 0.174 7.81 3.29 10.84
5/22/2021 2:00:00 PM 19.94 67.892 0.174 7.84 3.5 10.84
5/22/2021 2:15:00 PM 19.99 67.982 0.174 7.84 3.5 10.82
5/22/2021 2:30:00 PM 20.05 68.09 0.174 7.86 3.46 10.81
5/22/2021 2:45:00 PM 20.09 68.162 0.174 7.87 3.49 10.8
5/22/2021 3:00:00 PM 20.14 68.252 0.174 7.9 3.47 10.82
5/22/2021 3:15:00 PM 20.21 68.378 0.174 7.92 3.48 10.83
5/22/2021 3:30:00 PM 20.27 68.486 0.173 7.94 3.45 10.83
5/22/2021 3:45:00 PM 20.36 68.648 0.173 7.95 3.45 10.82
5/22/2021 4:00:00 PM 20.46 68.828 0.174 7.97 3.31 10.83
5/22/2021 4:15:00 PM 20.55 68.99 0.174 7.98 3.22 10.79
5/22/2021 4:30:00 PM 20.61 69.098 0.174 8 3.13 10.76
5/22/2021 4:45:00 PM 20.7 69.26 0.174 8.01 3.24 10.73
5/22/2021 5:00:00 PM 20.73 69.314 0.174 7.99 3.19 10.69
5/22/2021 5:15:00 PM 20.75 69.35 0.174 7.98 3.13 10.62
5/22/2021 5:30:00 PM 20.74 69.332 0.174 7.94 3.11 10.49
5/22/2021 5:45:00 PM 20.73 69.314 0.174 7.91 2.94 10.43
5/22/2021 6:00:00 PM 20.7 69.26 0.174 7.88 2.95 10.35
5/22/2021 6:15:00 PM 20.69 69.242 0.174 7.87 2.95 10.31
5/22/2021 6:30:00 PM 20.67 69.206 0.174 7.84 2.99 10.2
5/22/2021 6:45:00 PM 20.64 69.152 0.174 7.81 2.88 10.09
5/22/2021 7:00:00 PM 20.59 69.062 0.175 7.75 2.98 9.96
5/22/2021 7:15:00 PM 20.54 68.972 0.175 7.7 2.96 9.8
5/22/2021 7:30:00 PM 20.48 68.864 0.175 7.64 2.92 9.62
5/22/2021 7:45:00 PM 20.41 68.738 0.175 7.59 2.91 9.45
5/22/2021 8:00:00 PM 20.36 68.648 0.176 7.54 2.92 9.29
5/22/2021 8:15:00 PM 20.29 68.522 0.176 7.5 2.9 9.12
5/22/2021 8:30:00 PM 20.24 68.432 0.176 7.46 3.02 8.98
5/22/2021 8:45:00 PM 20.19 68.342 0.177 7.43 3.05 8.84
5/22/2021 9:00:00 PM 20.14 68.252 0.177 7.39 3 8.7
5/22/2021 9:15:00 PM 20.09 68.162 0.177 7.36 3.12 8.58
5/22/2021 9:30:00 PM 20.05 68.09 0.177 7.33 3.08 8.47
5/22/2021 9:45:00 PM 20.01 68.018 0.177 7.31 3.04 8.35
5/22/2021 10:00:00 PM 19.97 67.946 0.178 7.29 3.3 8.26
5/22/2021 10:15:00 PM 19.93 67.874 0.178 7.27 3.22 8.19
5/22/2021 10:30:00 PM 19.9 67.82 0.178 7.27 3.34 8.12
5/22/2021 10:45:00 PM 19.86 67.748 0.178 7.24 3.38 8.05
5/22/2021 11:00:00 PM 19.83 67.694 0.178 7.23 3.33 7.99
5/22/2021 11:15:00 PM 19.8 67.64 0.179 7.22 3.35 7.94
5/22/2021 11:30:00 PM 19.77 67.586 0.179 7.21 3.27 7.89
5/22/2021 11:45:00 PM 19.74 67.532 0.179 7.2 3.22 7.86
5/23/2021 12:00:00 AM 19.71 67.478 0.178 7.18 3.05 7.82
5/23/2021 12:15:00 AM 19.67 67.406 0.179 7.17 3.12 7.79
5/23/2021 12:30:00 AM 19.64 67.352 0.179 7.17 2.95 7.75
5/23/2021 12:45:00 AM 19.61 67.298 0.179 7.16 3.34 7.72
5/23/2021 1:00:00 AM 19.57 67.226 0.179 7.15 3.43 7.71
5/23/2021 1:15:00 AM 19.53 67.154 0.179 7.14 3.44 7.68
5/23/2021 1:30:00 AM 19.49 67.082 0.179 7.14 3.44 7.65
5/23/2021 1:45:00 AM 19.45 67.01 0.179 7.13 3.29 7.64
5/23/2021 2:00:00 AM 19.41 66.938 0.179 7.12 3.32 7.62
5/23/2021 2:15:00 AM 19.36 66.848 0.179 7.12 3.17 7.61
5/23/2021 2:30:00 AM 19.32 66.776 0.179 7.12 3.21 7.61
5/23/2021 2:45:00 AM 19.27 66.686 0.179 7.11 3.2 7.6
5/23/2021 3:00:00 AM 19.23 66.614 0.179 7.11 3.44 7.61
5/23/2021 3:15:00 AM 19.18 66.524 0.18 7.11 3.32 7.59
5/23/2021 3:30:00 AM 19.13 66.434 0.179 7.1 3.48 7.6
5/23/2021 3:45:00 AM 19.09 66.362 0.18 7.09 3.65 7.59
5/23/2021 4:00:00 AM 19.03 66.254 0.18 7.09 4.19 7.56
5/23/2021 4:15:00 AM 18.98 66.164 0.18 7.09 3.82 7.59
5/23/2021 4:30:00 AM 18.93 66.074 0.181 7.09 4.09 7.59
5/23/2021 4:45:00 AM 18.88 65.984 0.181 7.09 3.74 7.59
5/23/2021 5:00:00 AM 18.82 65.876 0.181 7.08 3.61 7.59
5/23/2021 5:15:00 AM 18.77 65.786 0.181 7.08 3.52 7.61
5/23/2021 5:30:00 AM 18.72 65.696 0.182 7.08 3.81 7.6
5/23/2021 5:45:00 AM 18.67 65.606 0.181 7.07 3.79 7.61
5/23/2021 6:00:00 AM 18.62 65.516 0.182 7.08 3.71 7.61
5/23/2021 6:15:00 AM 18.58 65.444 0.182 7.08 4.1 7.65
5/23/2021 6:30:00 AM 18.54 65.372 0.182 7.08 3.54 7.69
5/23/2021 6:45:00 AM 18.51 65.318 0.182 7.09 3.63 7.75
5/23/2021 7:00:00 AM 18.48 65.264 0.182 7.09 3.7 7.83
5/23/2021 7:15:00 AM 18.47 65.246 0.182 7.1 3.74 7.96
5/23/2021 7:30:00 AM 18.47 65.246 0.182 7.12 3.81 8.12
5/23/2021 7:45:00 AM 18.46 65.228 0.182 7.14 3.79 8.21
5/23/2021 8:00:00 AM 18.45 65.21 0.182 7.15 3.74 8.33
5/23/2021 8:15:00 AM 18.48 65.264 0.182 7.18 3.79 8.49
5/23/2021 8:30:00 AM 18.49 65.282 0.182 7.2 3.74 8.61
5/23/2021 8:45:00 AM 18.52 65.336 0.182 7.2 3.78 8.72
5/23/2021 9:00:00 AM 18.62 65.516 0.182 7.25 3.77 8.88
5/23/2021 9:15:00 AM 18.74 65.732 0.182 7.28 3.82 9.04
5/23/2021 9:30:00 AM 18.82 65.876 0.182 7.31 3.66 9.14
5/23/2021 9:45:00 AM 18.96 66.128 0.182 7.34 3.56 9.29
5/23/2021 10:00:00 AM 19.08 66.344 0.181 7.36 3.46 9.43
5/23/2021 10:15:00 AM 19.18 66.524 0.181 7.4 3.33 9.57
5/23/2021 10:30:00 AM 19.26 66.668 0.181 7.42 3.26 9.65
5/23/2021 10:45:00 AM 19.36 66.848 0.181 7.45 3.4 9.74
5/23/2021 11:00:00 AM 19.55 67.19 0.181 7.48 3.17 9.83
5/23/2021 11:15:00 AM 19.81 67.658 0.181 7.53 3.16 9.94
5/23/2021 11:30:00 AM 20.02 68.036 0.181 7.55 3.1 10.01
5/23/2021 11:45:00 AM 20.28 68.504 0.181 7.6 3.1 10.09
5/23/2021 12:00:00 PM 20.45 68.81 0.181 7.61 3.21 10.14
5/23/2021 12:15:00 PM 20.61 69.098 0.181 7.65 3.19 10.2
5/23/2021 12:30:00 PM 20.69 69.242 0.182 7.66 3.11 10.24
5/23/2021 12:45:00 PM 20.8 69.44 0.181 7.71 3.12 10.3
5/23/2021 1:00:00 PM 21.01 69.818 0.182 7.74 3.15 10.31
5/23/2021 1:15:00 PM 21.09 69.962 0.182 7.76 3.52 10.36
5/23/2021 1:30:00 PM 21.32 70.376 0.182 7.77 3.24 10.39
5/23/2021 1:45:00 PM 21.37 70.466 0.182 7.78 3.26 10.38
5/23/2021 2:00:00 PM 21.53 70.754 0.182 7.82 3.22 10.41
5/23/2021 2:15:00 PM 21.48 70.664 0.182 7.81 3.24 10.36
5/23/2021 2:30:00 PM 21.48 70.664 0.182 7.81 3.37 10.35
5/23/2021 2:45:00 PM 21.49 70.682 0.182 7.85 3.34 10.38
5/23/2021 3:00:00 PM 21.48 70.664 0.182 7.85 3.36 10.37
5/23/2021 3:15:00 PM 21.51 70.718 0.182 7.86 3.29 10.38
5/23/2021 3:30:00 PM 21.55 70.79 0.182 7.89 3.4 10.36
5/23/2021 3:45:00 PM 21.65 70.97 0.182 7.91 3.32 10.37
5/23/2021 4:00:00 PM 21.81 71.258 0.182 7.93 3.21 10.4
5/23/2021 4:15:00 PM 21.88 71.384 0.182 7.91 3.23 10.34
5/23/2021 4:30:00 PM 21.94 71.492 0.182 7.93 3.29 10.34
5/23/2021 4:45:00 PM 21.93 71.474 0.182 7.93 3.31 10.25
5/23/2021 5:00:00 PM 21.88 71.384 0.182 7.91 3.88 10.2
5/23/2021 5:15:00 PM 21.79 71.222 0.182 7.85 9.05 10.11
5/23/2021 5:30:00 PM 21.69 71.042 0.182 7.83 10.21 9.98
5/23/2021 5:45:00 PM 21.59 70.862 0.182 7.79 4.41 9.87
5/23/2021 6:00:00 PM 21.49 70.682 0.182 7.74 3.29 9.69
5/23/2021 6:15:00 PM 21.39 70.502 0.183 7.68 3.44 9.53
5/23/2021 6:30:00 PM 21.3 70.34 0.183 7.64 3.18 9.44
5/23/2021 6:45:00 PM 21.21 70.17799 0.183 7.62 3.06 9.43
5/23/2021 7:00:00 PM 21.14 70.052 0.183 7.62 3.08 9.4
5/23/2021 7:15:00 PM 21.04 69.872 0.183 7.6 3.04 9.34
5/23/2021 7:30:00 PM 20.94 69.692 0.183 7.57 3.18 9.26
5/23/2021 7:45:00 PM 20.82 69.476 0.183 7.54 3.11 9.16
5/23/2021 8:00:00 PM 20.71 69.278 0.183 7.51 3.04 9.04
5/23/2021 8:15:00 PM 20.59 69.062 0.183 7.48 3.04 8.9
5/23/2021 8:30:00 PM 20.48 68.864 0.183 7.44 3.1 8.76
5/23/2021 8:45:00 PM 20.35 68.63 0.184 7.41 3.19 8.63
5/23/2021 9:00:00 PM 20.25 68.45 0.184 7.38 3.33 8.52
5/23/2021 9:15:00 PM 20.14 68.252 0.184 7.35 3.41 8.41
5/23/2021 9:30:00 PM 20.02 68.036 0.184 7.32 3.36 8.3
5/23/2021 9:45:00 PM 19.93 67.874 0.184 7.31 3.4 8.22
5/23/2021 10:00:00 PM 19.81 67.658 0.184 7.28 3.16 8.15
5/23/2021 10:15:00 PM 19.7 67.46 0.184 7.26 3.27 8.09
5/23/2021 10:30:00 PM 19.6 67.28 0.184 7.26 3.29 8.03
5/23/2021 10:45:00 PM 19.51 67.118 0.184 7.24 3.5 7.98
5/23/2021 11:00:00 PM 19.39 66.902 0.184 7.22 3.33 7.94
5/23/2021 11:15:00 PM 19.3 66.74 0.184 7.21 3.52 7.9
5/23/2021 11:30:00 PM 19.2 66.56 0.184 7.2 3.18 7.87
5/23/2021 11:45:00 PM 19.11 66.398 0.185 7.2 3.19 7.82
5/24/2021 12:00:00 AM 19 66.2 0.185 7.18 3.24 7.8
5/24/2021 12:15:00 AM 18.9 66.02 0.185 7.17 3.46 7.77
5/24/2021 12:30:00 AM 18.81 65.858 0.184 7.17 3.27 7.77
5/24/2021 12:45:00 AM 18.71 65.67799 0.184 7.16 3.32 7.76
5/24/2021 1:00:00 AM 18.63 65.534 0.185 7.16 3.43 7.75
5/24/2021 1:15:00 AM 18.52 65.336 0.184 7.15 3.29 7.74
5/24/2021 1:30:00 AM 18.43 65.174 0.184 7.14 3.31 7.74
5/24/2021 1:45:00 AM 18.34 65.012 0.184 7.14 3.54 7.74
5/24/2021 2:00:00 AM 18.22 64.796 0.184 7.13 3.36 7.73
5/24/2021 2:15:00 AM 18.14 64.652 0.184 7.13 3.33 7.74
5/24/2021 2:30:00 AM 18.03 64.454 0.184 7.13 3.57 7.75
5/24/2021 2:45:00 AM 17.93 64.274 0.184 7.12 3.54 7.76
5/24/2021 3:00:00 AM 17.82 64.076 0.184 7.12 3.16 7.78
5/24/2021 3:15:00 AM 17.72 63.896 0.184 7.11 3.49 7.79
5/24/2021 3:30:00 AM 17.62 63.716 0.185 7.12 3.63 7.78
5/24/2021 3:45:00 AM 17.5 63.5 0.184 7.11 4.09 7.81
5/24/2021 4:00:00 AM 17.41 63.338 0.185 7.1 4.04 7.8
5/24/2021 4:15:00 AM 17.31 63.158 0.185 7.11 3.83 7.84
5/24/2021 4:30:00 AM 17.2 62.96 0.185 7.1 4.06 7.85
5/24/2021 4:45:00 AM 17.1 62.78 0.185 7.1 3.89 7.88
5/24/2021 5:00:00 AM 17.01 62.618 0.185 7.1 3.83 7.88
5/24/2021 5:15:00 AM 16.91 62.438 0.185 7.1 4.99 7.91
5/24/2021 5:30:00 AM 16.81 62.258 0.185 7.1 3.62 7.92
5/24/2021 5:45:00 AM 16.72 62.096 0.186 7.09 4 7.93
5/24/2021 6:00:00 AM 16.62 61.916 0.185 7.09 3.63 7.98
5/24/2021 6:15:00 AM 16.53 61.754 0.185 7.09 3.46 8.01
5/24/2021 6:30:00 AM 16.46 61.628 0.185 7.1 3.78 8.05
5/24/2021 6:45:00 AM 16.38 61.484 0.185 7.11 3.56 8.14
5/24/2021 7:00:00 AM 16.32 61.376 0.185 7.11 3.66 8.22
5/24/2021 7:15:00 AM 16.27 61.286 0.185 7.12 3.65 8.34
5/24/2021 7:30:00 AM 16.21 61.178 0.185 7.13 3.67 8.49
5/24/2021 7:45:00 AM 16.18 61.124 0.186 7.15 3.8 8.59
5/24/2021 8:00:00 AM 16.16 61.088 0.185 7.17 3.62 8.77
5/24/2021 8:15:00 AM 16.16 61.088 0.186 7.19 3.79 8.89
5/24/2021 8:30:00 AM 16.17 61.106 0.186 7.21 3.6 9.04
5/24/2021 8:45:00 AM 16.18 61.124 0.186 7.23 3.53 9.19
5/24/2021 9:00:00 AM 16.2 61.16 0.186 7.26 3.63 9.33
5/24/2021 9:15:00 AM 16.21 61.178 0.186 7.28 3.29 9.46
5/24/2021 9:30:00 AM 16.27 61.286 0.186 7.3 3.23 9.57
5/24/2021 9:45:00 AM 16.37 61.466 0.186 7.33 3.38 9.71
5/24/2021 10:00:00 AM 16.53 61.754 0.186 7.37 3.14 9.85
5/24/2021 10:15:00 AM 16.7 62.06 0.186 7.4 3.1 9.97
5/24/2021 10:30:00 AM 16.83 62.294 0.186 7.44 3.18 10.1
5/24/2021 10:45:00 AM 16.99 62.582 0.186 7.47 3.15 10.19
5/24/2021 11:00:00 AM 17.16 62.888 0.186 7.49 3.15 10.28
5/24/2021 11:15:00 AM 17.26 63.068 0.186 7.51 3.05 10.35
5/24/2021 11:30:00 AM 17.49 63.482 0.186 7.55 3.12 10.43
5/24/2021 11:45:00 AM 17.7 63.86 0.186 7.58 3.05 10.5
5/24/2021 12:00:00 PM 17.89 64.202 0.186 7.6 3.07 10.54
5/24/2021 12:15:00 PM 18.24 64.832 0.186 7.64 3 10.6
5/24/2021 12:30:00 PM 18.5 65.3 0.187 7.66 3.08 10.63
5/24/2021 12:45:00 PM 18.8 65.84 0.187 7.69 2.97 10.67
5/24/2021 1:00:00 PM 19.1 66.38 0.187 7.7 2.98 10.71
5/24/2021 1:15:00 PM 19.3 66.74 0.187 7.74 2.92 10.72
5/24/2021 1:30:00 PM 19.6 67.28 0.187 7.75 2.95 10.76
5/24/2021 1:45:00 PM 19.84 67.712 0.187 7.77 2.91 10.78
5/24/2021 2:00:00 PM 20.05 68.09 0.187 7.8 2.92 10.8
5/24/2021 2:15:00 PM 20.29 68.522 0.187 7.83 3 10.81
5/24/2021 2:30:00 PM 20.52 68.936 0.187 7.85 3 10.81
5/24/2021 2:45:00 PM 20.72 69.296 0.187 7.86 2.86 10.82
5/24/2021 3:00:00 PM 20.81 69.458 0.188 7.88 2.97 10.79
5/24/2021 3:15:00 PM 21.01 69.818 0.187 7.9 2.99 10.78
5/24/2021 3:30:00 PM 20.94 69.692 0.187 7.88 3.32 10.7
5/24/2021 3:45:00 PM 20.93 69.674 0.187 7.87 3.08 10.64
5/24/2021 4:00:00 PM 20.87 69.566 0.188 7.86 3.03 10.57
5/24/2021 4:15:00 PM 20.76 69.368 0.188 7.84 3.01 10.48
5/24/2021 4:30:00 PM 20.65 69.17 0.188 7.82 3.13 10.39
5/24/2021 4:45:00 PM 20.54 68.972 0.187 7.81 3.39 10.35
5/24/2021 5:00:00 PM 20.48 68.864 0.187 7.8 3.15 10.27
5/24/2021 5:15:00 PM 20.39 68.702 0.188 7.78 3.12 10.22
5/24/2021 5:30:00 PM 20.41 68.738 0.188 7.79 2.98 10.18
5/24/2021 5:45:00 PM 20.37 68.666 0.188 7.76 2.93 10.09
5/24/2021 6:00:00 PM 20.32 68.576 0.188 7.74 2.94 10.02
5/24/2021 6:15:00 PM 20.24 68.432 0.188 7.71 2.93 9.92
5/24/2021 6:30:00 PM 20.15 68.27 0.188 7.67 3.07 9.81
5/24/2021 6:45:00 PM 20.09 68.162 0.188 7.66 2.92 9.77
5/24/2021 7:00:00 PM 20.01 68.018 0.189 7.64 2.88 9.7
5/24/2021 7:15:00 PM 19.94 67.892 0.189 7.62 2.88 9.61
5/24/2021 7:30:00 PM 19.85 67.73 0.189 7.59 2.88 9.53
5/24/2021 7:45:00 PM 19.8 67.64 0.189 7.58 2.82 9.46
5/24/2021 8:00:00 PM 19.73 67.514 0.19 7.54 2.85 9.35
5/24/2021 8:15:00 PM 19.66 67.388 0.19 7.52 2.97 9.24
5/24/2021 8:30:00 PM 19.59 67.262 0.19 7.49 3.08 9.1
5/24/2021 8:45:00 PM 19.51 67.118 0.191 7.45 3 8.98
5/24/2021 9:00:00 PM 19.44 66.992 0.191 7.42 3.18 8.86
5/24/2021 9:15:00 PM 19.36 66.848 0.191 7.4 3.46 8.72
5/24/2021 9:30:00 PM 19.28 66.704 0.191 7.37 3.13 8.61
5/24/2021 9:45:00 PM 19.19 66.542 0.19 7.34 3.09 8.52
5/24/2021 10:00:00 PM 19.1 66.38 0.191 7.33 3.35 8.44
5/24/2021 10:15:00 PM 19.02 66.236 0.191 7.31 3.56 8.36
5/24/2021 10:30:00 PM 18.93 66.074 0.191 7.3 3.55 8.29
5/24/2021 10:45:00 PM 18.84 65.912 0.191 7.28 3.27 8.24
5/24/2021 11:00:00 PM 18.75 65.75 0.191 7.26 3.71 8.18
5/24/2021 11:15:00 PM 18.68 65.624 0.191 7.24 3.57 8.13
5/24/2021 11:30:00 PM 18.6 65.48 0.191 7.24 3.31 8.08
5/24/2021 11:45:00 PM 18.54 65.372 0.191 7.23 3.22 8.03
5/25/2021 12:00:00 AM 18.48 65.264 0.192 7.22 3.31 7.99
5/25/2021 12:15:00 AM 18.42 65.156 0.192 7.21 3.44 7.95
5/25/2021 12:30:00 AM 18.35 65.03 0.191 7.19 4.33 7.92
5/25/2021 12:45:00 AM 18.31 64.958 0.192 7.19 3.5 7.9
5/25/2021 1:00:00 AM 18.25 64.85 0.191 7.18 3.56 7.88
5/25/2021 1:15:00 AM 18.2 64.76 0.192 7.18 3.44 7.84
5/25/2021 1:30:00 AM 18.14 64.652 0.191 7.16 3.49 7.85
5/25/2021 1:45:00 AM 18.09 64.562 0.191 7.17 3.13 7.82
5/25/2021 2:00:00 AM 18.05 64.49 0.192 7.16 3.02 7.81
5/25/2021 2:15:00 AM 18 64.4 0.191 7.16 3.41 7.8
5/25/2021 2:30:00 AM 17.94 64.292 0.192 7.15 3.23 7.76
5/25/2021 2:45:00 AM 17.9 64.22 0.192 7.15 3.15 7.77
5/25/2021 3:00:00 AM 17.87 64.166 0.191 7.15 3.34 7.77
5/25/2021 3:15:00 AM 17.82 64.076 0.191 7.15 3.31 7.76
5/25/2021 3:30:00 AM 17.77 63.986 0.191 7.14 3.35 7.76
5/25/2021 3:45:00 AM 17.73 63.914 0.191 7.14 3.29 7.75
5/25/2021 4:00:00 AM 17.69 63.842 0.191 7.14 3.61 7.75
5/25/2021 4:15:00 AM 17.64 63.752 0.191 7.14 3.46 7.77
5/25/2021 4:30:00 AM 17.6 63.68 0.191 7.14 3.47 7.78
5/25/2021 4:45:00 AM 17.54 63.572 0.192 7.12 3.44 7.76
5/25/2021 5:00:00 AM 17.49 63.482 0.192 7.12 3.57 7.75
5/25/2021 5:15:00 AM 17.45 63.41 0.192 7.12 3.51 7.77
5/25/2021 5:30:00 AM 17.39 63.302 0.191 7.12 4 7.79
5/25/2021 5:45:00 AM 17.36 63.248 0.192 7.12 4.33 7.77
5/25/2021 6:00:00 AM 17.31 63.158 0.192 7.12 3.64 7.8
5/25/2021 6:15:00 AM 17.27 63.086 0.192 7.12 3.26 7.83
5/25/2021 6:30:00 AM 17.24 63.032 0.192 7.13 3.4 7.85
5/25/2021 6:45:00 AM 17.2 62.96 0.192 7.12 3.39 7.89
5/25/2021 7:00:00 AM 17.16 62.888 0.192 7.13 3.29 7.96
5/25/2021 7:15:00 AM 17.15 62.87 0.192 7.14 3.47 8.03
5/25/2021 7:30:00 AM 17.13 62.834 0.192 7.15 3.42 8.14
5/25/2021 7:45:00 AM 17.11 62.798 0.192 7.16 3.45 8.23
5/25/2021 8:00:00 AM 17.11 62.798 0.192 7.18 3.42 8.37
5/25/2021 8:15:00 AM 17.11 62.798 0.192 7.19 3.59 8.52
5/25/2021 8:30:00 AM 17.11 62.798 0.192 7.21 3.56 8.66
5/25/2021 8:45:00 AM 17.14 62.852 0.192 7.24 3.66 8.8
5/25/2021 9:00:00 AM 17.18 62.924 0.192 7.27 3.8 8.93
5/25/2021 9:15:00 AM 17.2 62.96 0.192 7.28 3.67 9.09
5/25/2021 9:30:00 AM 17.23 63.014 0.192 7.3 3.4 9.21
5/25/2021 9:45:00 AM 17.29 63.122 0.192 7.32 3.7 9.33
5/25/2021 10:00:00 AM 17.43 63.374 0.191 7.36 3.2 9.47
5/25/2021 10:15:00 AM 17.53 63.554 0.191 7.38 3.21 9.6
5/25/2021 10:30:00 AM 17.71 63.878 0.191 7.42 3.19 9.73
5/25/2021 10:45:00 AM 17.88 64.184 0.19 7.46 3.11 9.86
5/25/2021 11:00:00 AM 18 64.4 0.19 7.5 3.62 9.98
5/25/2021 11:15:00 AM 18.07 64.526 0.19 7.52 3.09 10.08
5/25/2021 11:30:00 AM 18.26 64.868 0.189 7.56 3.07 10.18
5/25/2021 11:45:00 AM 18.52 65.336 0.19 7.6 2.97 10.28
5/25/2021 12:00:00 PM 18.83 65.894 0.19 7.64 2.99 10.37
5/25/2021 12:15:00 PM 19.2 66.56 0.19 7.68 2.87 10.44
5/25/2021 12:30:00 PM 19.57 67.226 0.19 7.7 2.84 10.51
5/25/2021 12:45:00 PM 19.87 67.766 0.19 7.73 2.84 10.55
5/25/2021 1:00:00 PM 20.2 68.36 0.19 7.78 2.82 10.6
5/25/2021 1:15:00 PM 20.45 68.81 0.19 7.79 2.83 10.66
5/25/2021 1:30:00 PM 20.65 69.17 0.19 7.81 3.05 10.64
5/25/2021 1:45:00 PM 20.97 69.746 0.191 7.86 2.85 10.69
5/25/2021 2:00:00 PM 21.23 70.214 0.192 7.88 2.92 10.73
5/25/2021 2:15:00 PM 21.44 70.592 0.191 7.91 2.86 10.72
5/25/2021 2:30:00 PM 21.75 71.15 0.192 7.95 3.06 10.74
5/25/2021 2:45:00 PM 21.94 71.492 0.192 7.96 2.89 10.73
5/25/2021 3:00:00 PM 22.13 71.834 0.192 7.98 2.86 10.71
5/25/2021 3:15:00 PM 22.25 72.05 0.192 7.98 3.01 10.7
5/25/2021 3:30:00 PM 22.38 72.284 0.192 8 3.06 10.66
5/25/2021 3:45:00 PM 22.5 72.5 0.193 8 3.15 10.63
5/25/2021 4:00:00 PM 22.47 72.446 0.193 7.99 3.04 10.56
5/25/2021 4:15:00 PM 22.58 72.644 0.193 8.02 3.04 10.54
5/25/2021 4:30:00 PM 22.68 72.824 0.193 8.01 3.18 10.49
5/25/2021 4:45:00 PM 22.77 72.986 0.194 8.02 3.15 10.47
5/25/2021 5:00:00 PM 22.75 72.95 0.194 8 3.07 10.39
5/25/2021 5:15:00 PM 22.74 72.932 0.194 7.96 3.13 10.27
5/25/2021 5:30:00 PM 22.68 72.824 0.195 7.93 3.14 10.16
5/25/2021 5:45:00 PM 22.63 72.734 0.195 7.9 3.08 10.05
5/25/2021 6:00:00 PM 22.53 72.554 0.195 7.88 3.01 9.94
5/25/2021 6:15:00 PM 22.43 72.374 0.195 7.84 2.99 9.82
5/25/2021 6:30:00 PM 22.33 72.194 0.196 7.79 3.03 9.7
5/25/2021 6:45:00 PM 22.25 72.05 0.196 7.76 3.23 9.65
5/25/2021 7:00:00 PM 22.18 71.924 0.196 7.76 3.21 9.62
5/25/2021 7:15:00 PM 22.1 71.78 0.196 7.72 3.07 9.49
5/25/2021 7:30:00 PM 22.04 71.672 0.196 7.7 3.2 9.39
5/25/2021 7:45:00 PM 21.96 71.528 0.196 7.66 3.17 9.26
5/25/2021 8:00:00 PM 21.89 71.402 0.196 7.63 3.03 9.12
5/25/2021 8:15:00 PM 21.82 71.276 0.196 7.6 3.4 9
5/25/2021 8:30:00 PM 21.74 71.132 0.197 7.55 3.42 8.86
5/25/2021 8:45:00 PM 21.66 70.988 0.197 7.52 3.24 8.71
5/25/2021 9:00:00 PM 21.57 70.826 0.197 7.48 3.31 8.57
5/25/2021 9:15:00 PM 21.49 70.682 0.197 7.46 3.37 8.43
5/25/2021 9:30:00 PM 21.39 70.502 0.197 7.43 3.34 8.29
5/25/2021 9:45:00 PM 21.29 70.32201 0.197 7.4 3.31 8.17
5/25/2021 10:00:00 PM 21.19 70.142 0.197 7.38 3.42 8.06
5/25/2021 10:15:00 PM 21.09 69.962 0.197 7.36 3.06 7.99
5/25/2021 10:30:00 PM 20.99 69.782 0.198 7.34 3.13 7.91
5/25/2021 10:45:00 PM 20.89 69.602 0.198 7.32 3.12 7.84
5/25/2021 11:00:00 PM 20.78 69.404 0.198 7.31 3.26 7.77
5/25/2021 11:15:00 PM 20.7 69.26 0.198 7.3 3.26 7.72
5/25/2021 11:30:00 PM 20.61 69.098 0.198 7.28 3.23 7.68
5/25/2021 11:45:00 PM 20.51 68.918 0.198 7.27 3.23 7.61
5/26/2021 12:00:00 AM 20.43 68.774 0.198 7.26 3.16 7.57
5/26/2021 12:15:00 AM 20.34 68.612 0.199 7.24 3.03 7.51
5/26/2021 12:30:00 AM 20.25 68.45 0.199 7.23 3.19 7.47
5/26/2021 12:45:00 AM 20.18 68.324 0.199 7.22 3.33 7.44
5/26/2021 1:00:00 AM 20.1 68.18 0.199 7.22 3.3 7.42
5/26/2021 1:15:00 AM 20.02 68.036 0.199 7.21 3.24 7.38
5/26/2021 1:30:00 AM 19.96 67.92799 0.199 7.2 3.16 7.36
5/26/2021 1:45:00 AM 19.88 67.784 0.199 7.19 3.9 7.34
5/26/2021 2:00:00 AM 19.81 67.658 0.199 7.18 3.4 7.32
5/26/2021 2:15:00 AM 19.73 67.514 0.199 7.18 3.22 7.31
5/26/2021 2:30:00 AM 19.67 67.406 0.199 7.17 3.45 7.3
5/26/2021 2:45:00 AM 19.61 67.298 0.199 7.16 3.35 7.29
5/26/2021 3:00:00 AM 19.53 67.154 0.199 7.16 3.38 7.27
5/26/2021 3:15:00 AM 19.48 67.064 0.199 7.16 3.44 7.26
5/26/2021 3:30:00 AM 19.41 66.938 0.199 7.15 3.26 7.27
5/26/2021 3:45:00 AM 19.34 66.812 0.2 7.15 3.29 7.25
5/26/2021 4:00:00 AM 19.28 66.704 0.199 7.15 3.27 7.27
5/26/2021 4:15:00 AM 19.21 66.578 0.199 7.14 3.38 7.25
5/26/2021 4:30:00 AM 19.16 66.488 0.2 7.14 3.4 7.24
5/26/2021 4:45:00 AM 19.09 66.362 0.199 7.14 3.25 7.26
5/26/2021 5:00:00 AM 19.04 66.272 0.2 7.13 3.34 7.23
5/26/2021 5:15:00 AM 18.99 66.182 0.199 7.13 3.31 7.27
5/26/2021 5:30:00 AM 18.93 66.074 0.199 7.12 3.41 7.25
5/26/2021 5:45:00 AM 18.89 66.002 0.199 7.12 3.63 7.26
5/26/2021 6:00:00 AM 18.84 65.912 0.199 7.12 3.31 7.27
5/26/2021 6:15:00 AM 18.81 65.858 0.199 7.13 3.21 7.32
5/26/2021 6:30:00 AM 18.78 65.804 0.199 7.12 3.2 7.34
5/26/2021 6:45:00 AM 18.76 65.768 0.199 7.13 3.34 7.39
5/26/2021 7:00:00 AM 18.74 65.732 0.2 7.13 3.7 7.47
5/26/2021 7:15:00 AM 18.76 65.768 0.199 7.16 3.44 7.61
5/26/2021 7:30:00 AM 18.78 65.804 0.199 7.17 3.34 7.73
5/26/2021 7:45:00 AM 18.8 65.84 0.199 7.19 3.35 7.88
5/26/2021 8:00:00 AM 18.85 65.93 0.199 7.21 3.37 8.06
5/26/2021 8:15:00 AM 18.88 65.984 0.199 7.23 3.48 8.19
5/26/2021 8:30:00 AM 18.94 66.092 0.199 7.25 3.38 8.33
5/26/2021 8:45:00 AM 18.99 66.182 0.199 7.27 3.35 8.46
5/26/2021 9:00:00 AM 19.12 66.416 0.199 7.31 3.49 8.63
5/26/2021 9:15:00 AM 19.23 66.614 0.198 7.33 3.55 8.79
5/26/2021 9:30:00 AM 19.38 66.884 0.198 7.37 3.44 8.93
5/26/2021 9:45:00 AM 19.51 67.118 0.199 7.39 3.31 9.06
5/26/2021 10:00:00 AM 19.61 67.298 0.199 7.42 3.4 9.18
5/26/2021 10:15:00 AM 19.77 67.586 0.199 7.45 3.53 9.31
5/26/2021 10:30:00 AM 19.97 67.946 0.198 7.49 3.01 9.46
5/26/2021 10:45:00 AM 20.23 68.414 0.199 7.53 3.15 9.59
5/26/2021 11:00:00 AM 20.45 68.81 0.199 7.56 3.06 9.72
5/26/2021 11:15:00 AM 20.75 69.35 0.199 7.62 3.1 9.84
5/26/2021 11:30:00 AM 21.04 69.872 0.199 7.64 3.01 9.92
5/26/2021 11:45:00 AM 21.37 70.466 0.199 7.68 3 9.99
5/26/2021 12:00:00 PM 21.68 71.024 0.2 7.7 2.9 10.04
5/26/2021 12:15:00 PM 21.84 71.312 0.2 7.72 2.99 10.07
5/26/2021 12:30:00 PM 22.27 72.086 0.2 7.77 2.83 10.12
5/26/2021 12:45:00 PM 22.51 72.518 0.2 7.78 3.06 10.15
5/26/2021 1:00:00 PM 22.71 72.878 0.2 7.81 3.02 10.18
5/26/2021 1:15:00 PM 23.03 73.454 0.2 7.84 2.93 10.21
5/26/2021 1:30:00 PM 23.19 73.742 0.201 7.84 2.85 10.25
5/26/2021 1:45:00 PM 23.3 73.94 0.201 7.87 2.98 10.27
5/26/2021 2:00:00 PM 23.47 74.246 0.201 7.9 2.92 10.25
5/26/2021 2:15:00 PM 23.63 74.534 0.201 7.93 2.93 10.28
5/26/2021 2:30:00 PM 23.86 74.948 0.201 7.96 2.89 10.27
5/26/2021 2:45:00 PM 23.77 74.786 0.201 7.93 2.94 10.19
5/26/2021 3:00:00 PM 23.78 74.804 0.202 7.87 2.93 10.12
5/26/2021 3:15:00 PM 23.56 74.408 0.193 7.83 29.27 9.68
5/26/2021 3:30:00 PM 23.46 74.228 0.198 7.83 10.76 9.73
5/26/2021 3:45:00 PM 23.2 73.76 0.195 7.73 11.16 9.33
5/26/2021 4:00:00 PM 22.94 73.292 0.191 7.65 9.36 9.03
5/26/2021 4:15:00 PM 22.88 73.184 0.193 7.62 12.07 8.99
5/26/2021 4:30:00 PM 22.89 73.202 0.192 7.61 13.25 9
5/26/2021 4:45:00 PM 22.93 73.274 0.192 7.6 11.92 9.05
5/26/2021 5:00:00 PM 22.99 73.382 0.194 7.63 10.29 9.09
5/26/2021 5:15:00 PM 23.01 73.418 0.195 7.65 8.67 9.11
5/26/2021 5:30:00 PM 22.99 73.382 0.196 7.63 7.75 9.01
5/26/2021 5:45:00 PM 22.96 73.328 0.196 7.62 7.05 8.91
5/26/2021 6:00:00 PM 22.89 73.202 0.196 7.57 6.82 8.76
5/26/2021 6:15:00 PM 22.8 73.04 0.196 7.54 6.43 8.64
5/26/2021 6:30:00 PM 22.73 72.914 0.195 7.52 6.03 8.51
5/26/2021 6:45:00 PM 22.64 72.752 0.195 7.48 5.82 8.31
5/26/2021 7:00:00 PM 22.56 72.608 0.195 7.44 5.46 8.14
5/26/2021 7:15:00 PM 22.5 72.5 0.195 7.4 5.36 8
5/26/2021 7:30:00 PM 22.43 72.374 0.195 7.37 5.23 7.87
5/26/2021 7:45:00 PM 22.36 72.248 0.195 7.35 5.16 7.8
5/26/2021 8:00:00 PM 22.3 72.14 0.196 7.33 4.93 7.73
5/26/2021 8:15:00 PM 22.23 72.014 0.196 7.32 4.82 7.66
5/26/2021 8:30:00 PM 22.16 71.888 0.196 7.31 5.05 7.59
5/26/2021 8:45:00 PM 22.09 71.762 0.196 7.29 4.94 7.48
5/26/2021 9:00:00 PM 22.01 71.618 0.196 7.27 4.8 7.38
5/26/2021 9:15:00 PM 21.93 71.474 0.196 7.24 5 7.26
5/26/2021 9:30:00 PM 21.85 71.33 0.196 7.23 4.83 7.18
5/26/2021 9:45:00 PM 21.76 71.168 0.197 7.21 4.93 7.08
5/26/2021 10:00:00 PM 21.68 71.024 0.197 7.2 4.98 7.02
5/26/2021 10:15:00 PM 21.6 70.88 0.198 7.18 4.94 6.94
5/26/2021 10:30:00 PM 21.52 70.736 0.198 7.17 5.43 6.9
5/26/2021 10:45:00 PM 21.45 70.61 0.199 7.16 5.2 6.84
5/26/2021 11:00:00 PM 21.37 70.466 0.2 7.14 5.54 6.8
5/26/2021 11:15:00 PM 21.28 70.304 0.201 7.13 5.87 6.77
5/26/2021 11:30:00 PM 21.2 70.16 0.202 7.13 6.25 6.73
5/26/2021 11:45:00 PM 21.12 70.016 0.202 7.12 6.43 6.69
5/27/2021 12:00:00 AM 21.02 69.836 0.203 7.11 6.68 6.64
5/27/2021 12:15:00 AM 20.94 69.692 0.204 7.1 6.97 6.62
5/27/2021 12:30:00 AM 20.84 69.512 0.204 7.09 7.21 6.61
5/27/2021 12:45:00 AM 20.75 69.35 0.205 7.09 6.91 6.6
5/27/2021 1:00:00 AM 20.66 69.188 0.205 7.08 7.23 6.58
5/27/2021 1:15:00 AM 20.58 69.044 0.205 7.08 7.18 6.58
5/27/2021 1:30:00 AM 20.49 68.882 0.205 7.07 6.98 6.59
5/27/2021 1:45:00 AM 20.42 68.756 0.205 7.07 7.03 6.59
5/27/2021 2:00:00 AM 20.33 68.594 0.204 7.08 6.86 6.62
5/27/2021 2:15:00 AM 20.26 68.468 0.204 7.07 6.81 6.63
5/27/2021 2:30:00 AM 20.2 68.36 0.204 7.07 6.7 6.66
5/27/2021 2:45:00 AM 20.15 68.27 0.203 7.07 6.45 6.7
5/27/2021 3:00:00 AM 20.1 68.18 0.203 7.07 6.21 6.72
5/27/2021 3:15:00 AM 20.06 68.108 0.202 7.08 5.99 6.78
5/27/2021 3:30:00 AM 20.01 68.018 0.202 7.08 13.23 6.83
5/27/2021 3:45:00 AM 19.96 67.92799 0.202 7.08 6.08 6.87
5/27/2021 4:00:00 AM 19.9 67.82 0.201 7.09 6.05 6.92
5/27/2021 4:15:00 AM 19.84 67.712 0.201 7.1 6.1 6.99
5/27/2021 4:30:00 AM 19.77 67.586 0.201 7.1 6.15 7.03
5/27/2021 4:45:00 AM 19.7 67.46 0.201 7.1 6.43 7.06
5/27/2021 5:00:00 AM 19.62 67.316 0.201 7.1 6.46 7.12
5/27/2021 5:15:00 AM 19.54 67.172 0.202 7.11 6.59 7.16
5/27/2021 5:30:00 AM 19.46 67.028 0.202 7.11 6.97 7.2
5/27/2021 5:45:00 AM 19.36 66.848 0.202 7.11 6.73 7.25
5/27/2021 6:00:00 AM 19.28 66.704 0.203 7.11 6.76 7.28
5/27/2021 6:15:00 AM 19.18 66.524 0.203 7.12 6.99 7.34
5/27/2021 6:30:00 AM 19.09 66.362 0.204 7.12 6.58 7.4
5/27/2021 6:45:00 AM 19.01 66.218 0.205 7.13 6.59 7.46
5/27/2021 7:00:00 AM 18.91 66.038 0.206 7.14 6.5 7.52
5/27/2021 7:15:00 AM 18.81 65.858 0.207 7.14 6.24 7.62
5/27/2021 7:30:00 AM 18.72 65.696 0.207 7.15 6.09 7.67
5/27/2021 7:45:00 AM 18.63 65.534 0.208 7.15 5.98 7.73
5/27/2021 8:00:00 AM 18.55 65.39 0.208 7.17 5.84 7.85
5/27/2021 8:15:00 AM 18.48 65.264 0.209 7.18 5.58 7.95
5/27/2021 8:30:00 AM 18.42 65.156 0.209 7.2 5.35 8.07
5/27/2021 8:45:00 AM 18.37 65.066 0.209 7.21 5.36 8.19
5/27/2021 9:00:00 AM 18.35 65.03 0.209 7.23 5.1 8.31
5/27/2021 9:15:00 AM 18.34 65.012 0.209 7.26 4.82 8.43
5/27/2021 9:30:00 AM 18.36 65.048 0.208 7.27 4.74 8.55
5/27/2021 9:45:00 AM 18.44 65.192 0.208 7.3 4.64 8.69
5/27/2021 10:00:00 AM 18.49 65.282 0.208 7.32 4.49 8.83
5/27/2021 10:15:00 AM 18.57 65.426 0.207 7.35 4.43 8.99
5/27/2021 10:30:00 AM 18.67 65.606 0.207 7.38 4.14 9.1
5/27/2021 10:45:00 AM 18.78 65.804 0.206 7.42 4.03 9.25
5/27/2021 11:00:00 AM 18.86 65.948 0.206 7.43 3.99 9.34
5/27/2021 11:15:00 AM 18.99 66.182 0.206 7.48 3.96 9.45
5/27/2021 11:30:00 AM 18.97 66.146 0.206 7.48 3.88 9.51
5/27/2021 11:45:00 AM 19.03 66.254 0.205 7.51 3.89 9.61
5/27/2021 12:00:00 PM 19.02 66.236 0.205 7.53 3.67 9.67
5/27/2021 12:15:00 PM 19.13 66.434 0.205 7.57 3.73 9.72
5/27/2021 12:30:00 PM 19.17 66.506 0.205 7.58 3.7 9.79
5/27/2021 12:45:00 PM 19.24 66.632 0.205 7.59 3.69 9.84
5/27/2021 1:00:00 PM 19.41 66.938 0.204 7.63 3.6 9.9
5/27/2021 1:15:00 PM 19.58 67.244 0.204 7.66 3.62 9.95
5/27/2021 1:30:00 PM 19.62 67.316 0.204 7.65 3.47 9.98
5/27/2021 1:45:00 PM 19.83 67.694 0.204 7.69 3.43 10.02
5/27/2021 2:00:00 PM 20.09 68.162 0.203 7.73 3.44 10.07
5/27/2021 2:15:00 PM 20.21 68.378 0.203 7.73 3.4 10.09
5/27/2021 2:30:00 PM 20.44 68.792 0.203 7.76 3.4 10.12
5/27/2021 2:45:00 PM 20.57 69.026 0.202 7.78 3.34 10.14
5/27/2021 3:00:00 PM 20.75 69.35 0.202 7.8 3.38 10.15
5/27/2021 3:15:00 PM 20.87 69.566 0.202 7.81 3.24 10.12
5/27/2021 3:30:00 PM 21 69.8 0.201 7.83 3.27 10.13
5/27/2021 3:45:00 PM 21.13 70.034 0.201 7.84 3.34 10.13
5/27/2021 4:00:00 PM 21.13 70.034 0.2 7.83 3.22 10.09
5/27/2021 4:15:00 PM 21.15 70.07 0.2 7.84 3.3 10.05
5/27/2021 4:30:00 PM 21.18 70.124 0.199 7.84 3.26 10.03
5/27/2021 4:45:00 PM 21.19 70.142 0.199 7.84 3.22 10
5/27/2021 5:00:00 PM 21.15 70.07 0.198 7.82 3.15 9.95
5/27/2021 5:15:00 PM 21.13 70.034 0.198 7.81 3.27 9.88
5/27/2021 5:30:00 PM 21.07 69.926 0.198 7.79 3.42 9.79
5/27/2021 5:45:00 PM 20.98 69.764 0.197 7.76 3.26 9.69
5/27/2021 6:00:00 PM 20.89 69.602 0.197 7.74 3.18 9.59
5/27/2021 6:15:00 PM 20.8 69.44 0.197 7.7 3.22 9.48
5/27/2021 6:30:00 PM 20.72 69.296 0.196 7.67 3.3 9.39
5/27/2021 6:45:00 PM 20.65 69.17 0.196 7.65 3.06 9.33
5/27/2021 7:00:00 PM 20.57 69.026 0.196 7.63 3.14 9.27
5/27/2021 7:15:00 PM 20.47 68.846 0.196 7.6 3.2 9.18
5/27/2021 7:30:00 PM 20.38 68.684 0.195 7.58 3.12 9.12
5/27/2021 7:45:00 PM 20.27 68.486 0.195 7.56 3.23 9.03
5/27/2021 8:00:00 PM 20.16 68.288 0.195 7.53 3.73 8.95
5/27/2021 8:15:00 PM 20.05 68.09 0.194 7.51 3.33 8.88
5/27/2021 8:30:00 PM 19.93 67.874 0.194 7.48 3.35 8.78
5/27/2021 8:45:00 PM 19.82 67.676 0.194 7.46 3.47 8.71
5/27/2021 9:00:00 PM 19.68 67.424 0.193 7.43 4.08 8.6
5/27/2021 9:15:00 PM 19.53 67.154 0.193 7.4 3.81 8.5
5/27/2021 9:30:00 PM 19.39 66.902 0.192 7.38 3.64 8.42
5/27/2021 9:45:00 PM 19.25 66.65 0.192 7.35 3.75 8.35
5/27/2021 10:00:00 PM 19.1 66.38 0.191 7.33 3.55 8.29
5/27/2021 10:15:00 PM 18.96 66.128 0.191 7.31 3.79 8.24
5/27/2021 10:30:00 PM 18.82 65.876 0.191 7.29 3.66 8.19
5/27/2021 10:45:00 PM 18.68 65.624 0.19 7.28 3.74 8.15
5/27/2021 11:00:00 PM 18.54 65.372 0.19 7.26 3.53 8.12
5/27/2021 11:15:00 PM 18.4 65.12 0.189 7.25 3.6 8.08
5/27/2021 11:30:00 PM 18.26 64.868 0.189 7.23 3.7 8.07
5/27/2021 11:45:00 PM 18.13 64.634 0.188 7.22 3.78 8.05
5/28/2021 12:00:00 AM 18.01 64.418 0.188 7.21 3.58 8.04
5/28/2021 12:15:00 AM 17.89 64.202 0.187 7.2 3.78 8.03
5/28/2021 12:30:00 AM 17.77 63.986 0.187 7.19 3.94 8.02
5/28/2021 12:45:00 AM 17.66 63.788 0.186 7.18 3.81 8.02
5/28/2021 1:00:00 AM 17.54 63.572 0.186 7.17 3.86 8.02
5/28/2021 1:15:00 AM 17.44 63.392 0.186 7.16 3.9 8.01
5/28/2021 1:30:00 AM 17.33 63.194 0.185 7.17 3.99 8.01
5/28/2021 1:45:00 AM 17.22 62.996 0.185 7.17 4.08 8.02
5/28/2021 2:00:00 AM 17.13 62.834 0.185 7.16 4 8.02
5/28/2021 2:15:00 AM 17.02 62.636 0.185 7.15 3.99 8.03
5/28/2021 2:30:00 AM 16.91 62.438 0.184 7.15 4.02 8.04
5/28/2021 2:45:00 AM 16.81 62.258 0.184 7.14 4.23 8.06
5/28/2021 3:00:00 AM 16.72 62.096 0.184 7.14 4.82 8.07
5/28/2021 3:15:00 AM 16.63 61.934 0.184 7.13 4.64 8.06
5/28/2021 3:30:00 AM 16.56 61.808 0.184 7.13 4.34 8.08
5/28/2021 3:45:00 AM 16.47 61.646 0.184 7.13 4.67 8.09
5/28/2021 4:00:00 AM 16.39 61.502 0.184 7.12 4.22 8.1
5/28/2021 4:15:00 AM 16.31 61.358 0.184 7.12 4.37 8.11
5/28/2021 4:30:00 AM 16.23 61.214 0.184 7.12 4.22 8.13
5/28/2021 4:45:00 AM 16.16 61.088 0.183 7.12 4.27 8.15
5/28/2021 5:00:00 AM 16.08 60.944 0.184 7.12 4.3 8.16
5/28/2021 5:15:00 AM 16 60.8 0.184 7.12 4.38 8.17
5/28/2021 5:30:00 AM 15.93 60.674 0.183 7.12 4.28 8.19
5/28/2021 5:45:00 AM 15.86 60.548 0.183 7.11 4.19 8.21
5/28/2021 6:00:00 AM 15.78 60.404 0.184 7.12 4.22 8.23
5/28/2021 6:15:00 AM 15.71 60.278 0.184 7.11 4.09 8.24
5/28/2021 6:30:00 AM 15.65 60.17 0.184 7.11 4.05 8.28
5/28/2021 6:45:00 AM 15.58 60.044 0.184 7.12 4.04 8.33
5/28/2021 7:00:00 AM 15.53 59.954 0.184 7.11 3.93 8.39
5/28/2021 7:15:00 AM 15.47 59.846 0.184 7.12 3.87 8.46
5/28/2021 7:30:00 AM 15.42 59.756 0.184 7.13 3.93 8.54
5/28/2021 7:45:00 AM 15.38 59.684 0.184 7.13 3.92 8.63
5/28/2021 8:00:00 AM 15.34 59.612 0.184 7.15 3.99 8.72
5/28/2021 8:15:00 AM 15.3 59.54 0.184 7.15 3.89 8.8
5/28/2021 8:30:00 AM 15.27 59.486 0.184 7.17 3.8 8.87
5/28/2021 8:45:00 AM 15.24 59.432 0.184 7.18 3.78 8.97
5/28/2021 9:00:00 AM 15.21 59.378 0.184 7.19 3.67 9.05
5/28/2021 9:15:00 AM 15.17 59.306 0.184 7.2 3.81 9.13
5/28/2021 9:30:00 AM 15.14 59.252 0.184 7.2 3.64 9.21
5/28/2021 9:45:00 AM 15.13 59.234 0.184 7.22 3.77 9.27
5/28/2021 10:00:00 AM 15.11 59.198 0.184 7.23 3.75 9.37